<?xml version="1.0" encoding="UTF-8" standalone="no" ?>
<gpx xmlns="http://www.topografix.com/GPX/1/1" xmlns:xsi="http://www.w3.org/2001/XMLSchema-instance" xsi:schemaLocation="http://www.topografix.com/GPX/1/1 http://www.topografix.com/GPX/1/1/gpx.xsd" version="1.1" creator="VisuGPX - https://www.visugpx.com">
  <metadata>
    <name>Rhône-Caluire-ile BArbe-Saône</name>
    <desc><![CDATA[Quelle découverte , l'île-Barbe ! Tout petit mais vraiment mignon !...]]></desc>
  </metadata>
  <trk>
    <name><![CDATA[Sequence 1]]></name>
    <trkseg>
      <trkpt lat="45.75444" lon="4.8307">
        <ele>174</ele>
        <time>2016-09-13T04:56:34Z</time>
      </trkpt>
      <trkpt lat="45.75441" lon="4.8307">
        <ele>170</ele>
        <time>2016-09-13T04:56:35Z</time>
      </trkpt>
      <trkpt lat="45.75437" lon="4.83093">
        <ele>176</ele>
        <time>2016-09-13T04:56:45Z</time>
      </trkpt>
      <trkpt lat="45.75435" lon="4.83097">
        <ele>175</ele>
        <time>2016-09-13T04:56:47Z</time>
      </trkpt>
      <trkpt lat="45.75433" lon="4.83113">
        <ele>177</ele>
        <time>2016-09-13T04:56:55Z</time>
      </trkpt>
      <trkpt lat="45.75429" lon="4.83122">
        <ele>175</ele>
        <time>2016-09-13T04:56:59Z</time>
      </trkpt>
      <trkpt lat="45.75424" lon="4.83134">
        <ele>174</ele>
        <time>2016-09-13T04:57:05Z</time>
      </trkpt>
      <trkpt lat="45.75421" lon="4.83156">
        <ele>174</ele>
        <time>2016-09-13T04:57:14Z</time>
      </trkpt>
      <trkpt lat="45.75416" lon="4.83168">
        <ele>176</ele>
        <time>2016-09-13T04:57:21Z</time>
      </trkpt>
      <trkpt lat="45.75414" lon="4.83182">
        <ele>175</ele>
        <time>2016-09-13T04:57:27Z</time>
      </trkpt>
      <trkpt lat="45.75413" lon="4.83186">
        <ele>177</ele>
        <time>2016-09-13T04:57:29Z</time>
      </trkpt>
      <trkpt lat="45.75404" lon="4.83191">
        <ele>173</ele>
        <time>2016-09-13T04:57:36Z</time>
      </trkpt>
      <trkpt lat="45.75402" lon="4.83199">
        <ele>175</ele>
        <time>2016-09-13T04:57:41Z</time>
      </trkpt>
      <trkpt lat="45.75391" lon="4.83216">
        <ele>177</ele>
        <time>2016-09-13T04:57:47Z</time>
      </trkpt>
      <trkpt lat="45.75375" lon="4.83228">
        <ele>176</ele>
        <time>2016-09-13T04:57:55Z</time>
      </trkpt>
      <trkpt lat="45.75367" lon="4.83232">
        <ele>174</ele>
        <time>2016-09-13T04:57:59Z</time>
      </trkpt>
      <trkpt lat="45.7536" lon="4.83241">
        <ele>172</ele>
        <time>2016-09-13T04:58:06Z</time>
      </trkpt>
      <trkpt lat="45.75366" lon="4.83267">
        <ele>174</ele>
        <time>2016-09-13T04:58:15Z</time>
      </trkpt>
      <trkpt lat="45.7537" lon="4.83287">
        <ele>179</ele>
        <time>2016-09-13T04:58:20Z</time>
      </trkpt>
      <trkpt lat="45.75362" lon="4.83307">
        <ele>176</ele>
        <time>2016-09-13T04:58:29Z</time>
      </trkpt>
      <trkpt lat="45.75354" lon="4.83317">
        <ele>175</ele>
        <time>2016-09-13T04:58:35Z</time>
      </trkpt>
      <trkpt lat="45.75353" lon="4.83319">
        <ele>175</ele>
        <time>2016-09-13T04:58:36Z</time>
      </trkpt>
      <trkpt lat="45.7535" lon="4.83337">
        <ele>176</ele>
        <time>2016-09-13T04:58:44Z</time>
      </trkpt>
      <trkpt lat="45.75341" lon="4.83352">
        <ele>174</ele>
        <time>2016-09-13T04:58:53Z</time>
      </trkpt>
      <trkpt lat="45.75334" lon="4.83361">
        <ele>175</ele>
        <time>2016-09-13T04:58:59Z</time>
      </trkpt>
      <trkpt lat="45.75333" lon="4.83363">
        <ele>175</ele>
        <time>2016-09-13T04:59:00Z</time>
      </trkpt>
      <trkpt lat="45.75328" lon="4.83364">
        <ele>175</ele>
        <time>2016-09-13T04:59:11Z</time>
      </trkpt>
      <trkpt lat="45.75328" lon="4.83364">
        <ele>175</ele>
        <time>2016-09-13T04:59:13Z</time>
      </trkpt>
      <trkpt lat="45.75327" lon="4.83365">
        <ele>175</ele>
        <time>2016-09-13T04:59:18Z</time>
      </trkpt>
      <trkpt lat="45.75322" lon="4.83377">
        <ele>176</ele>
        <time>2016-09-13T04:59:24Z</time>
      </trkpt>
      <trkpt lat="45.75315" lon="4.83397">
        <ele>175</ele>
        <time>2016-09-13T04:59:34Z</time>
      </trkpt>
      <trkpt lat="45.75313" lon="4.83402">
        <ele>176</ele>
        <time>2016-09-13T04:59:36Z</time>
      </trkpt>
      <trkpt lat="45.7531" lon="4.83415">
        <ele>177</ele>
        <time>2016-09-13T04:59:42Z</time>
      </trkpt>
      <trkpt lat="45.75307" lon="4.83429">
        <ele>176</ele>
        <time>2016-09-13T04:59:48Z</time>
      </trkpt>
      <trkpt lat="45.75303" lon="4.83442">
        <ele>177</ele>
        <time>2016-09-13T04:59:54Z</time>
      </trkpt>
      <trkpt lat="45.75297" lon="4.83454">
        <ele>176</ele>
        <time>2016-09-13T05:00:00Z</time>
      </trkpt>
      <trkpt lat="45.75292" lon="4.83466">
        <ele>178</ele>
        <time>2016-09-13T05:00:06Z</time>
      </trkpt>
      <trkpt lat="45.75287" lon="4.83478">
        <ele>178</ele>
        <time>2016-09-13T05:00:12Z</time>
      </trkpt>
      <trkpt lat="45.75282" lon="4.8349">
        <ele>177</ele>
        <time>2016-09-13T05:00:18Z</time>
      </trkpt>
      <trkpt lat="45.75277" lon="4.83502">
        <ele>178</ele>
        <time>2016-09-13T05:00:24Z</time>
      </trkpt>
      <trkpt lat="45.75271" lon="4.83515">
        <ele>177</ele>
        <time>2016-09-13T05:00:30Z</time>
      </trkpt>
      <trkpt lat="45.75266" lon="4.83526">
        <ele>177</ele>
        <time>2016-09-13T05:00:36Z</time>
      </trkpt>
      <trkpt lat="45.75262" lon="4.83539">
        <ele>177</ele>
        <time>2016-09-13T05:00:42Z</time>
      </trkpt>
      <trkpt lat="45.75257" lon="4.83552">
        <ele>177</ele>
        <time>2016-09-13T05:00:48Z</time>
      </trkpt>
      <trkpt lat="45.75251" lon="4.83565">
        <ele>177</ele>
        <time>2016-09-13T05:00:54Z</time>
      </trkpt>
      <trkpt lat="45.75247" lon="4.83578">
        <ele>177</ele>
        <time>2016-09-13T05:01:00Z</time>
      </trkpt>
      <trkpt lat="45.75243" lon="4.83591">
        <ele>175</ele>
        <time>2016-09-13T05:01:06Z</time>
      </trkpt>
      <trkpt lat="45.75238" lon="4.83604">
        <ele>175</ele>
        <time>2016-09-13T05:01:12Z</time>
      </trkpt>
      <trkpt lat="45.75233" lon="4.83617">
        <ele>175</ele>
        <time>2016-09-13T05:01:18Z</time>
      </trkpt>
      <trkpt lat="45.75228" lon="4.83629">
        <ele>175</ele>
        <time>2016-09-13T05:01:24Z</time>
      </trkpt>
      <trkpt lat="45.75223" lon="4.83642">
        <ele>175</ele>
        <time>2016-09-13T05:01:30Z</time>
      </trkpt>
      <trkpt lat="45.75217" lon="4.83654">
        <ele>175</ele>
        <time>2016-09-13T05:01:36Z</time>
      </trkpt>
      <trkpt lat="45.75213" lon="4.83667">
        <ele>173</ele>
        <time>2016-09-13T05:01:42Z</time>
      </trkpt>
      <trkpt lat="45.75206" lon="4.83686">
        <ele>173</ele>
        <time>2016-09-13T05:01:51Z</time>
      </trkpt>
      <trkpt lat="45.75208" lon="4.83692">
        <ele>173</ele>
        <time>2016-09-13T05:01:54Z</time>
      </trkpt>
      <trkpt lat="45.75218" lon="4.83698">
        <ele>172</ele>
        <time>2016-09-13T05:02:00Z</time>
      </trkpt>
      <trkpt lat="45.75228" lon="4.83701">
        <ele>171</ele>
        <time>2016-09-13T05:02:06Z</time>
      </trkpt>
      <trkpt lat="45.75237" lon="4.83707">
        <ele>171</ele>
        <time>2016-09-13T05:02:12Z</time>
      </trkpt>
      <trkpt lat="45.75234" lon="4.837">
        <ele>170</ele>
        <time>2016-09-13T05:02:18Z</time>
      </trkpt>
      <trkpt lat="45.75229" lon="4.83693">
        <ele>167</ele>
        <time>2016-09-13T05:02:24Z</time>
      </trkpt>
      <trkpt lat="45.75226" lon="4.83683">
        <ele>168</ele>
        <time>2016-09-13T05:02:30Z</time>
      </trkpt>
      <trkpt lat="45.75239" lon="4.83669">
        <ele>164</ele>
        <time>2016-09-13T05:02:40Z</time>
      </trkpt>
      <trkpt lat="45.75248" lon="4.83668">
        <ele>164</ele>
        <time>2016-09-13T05:02:45Z</time>
      </trkpt>
      <trkpt lat="45.75253" lon="4.83668">
        <ele>165</ele>
        <time>2016-09-13T05:02:48Z</time>
      </trkpt>
      <trkpt lat="45.75262" lon="4.8367">
        <ele>164</ele>
        <time>2016-09-13T05:02:54Z</time>
      </trkpt>
      <trkpt lat="45.75271" lon="4.83675">
        <ele>166</ele>
        <time>2016-09-13T05:03:00Z</time>
      </trkpt>
      <trkpt lat="45.7528" lon="4.83684">
        <ele>166</ele>
        <time>2016-09-13T05:03:06Z</time>
      </trkpt>
      <trkpt lat="45.75289" lon="4.83692">
        <ele>165</ele>
        <time>2016-09-13T05:03:12Z</time>
      </trkpt>
      <trkpt lat="45.75299" lon="4.83698">
        <ele>166</ele>
        <time>2016-09-13T05:03:18Z</time>
      </trkpt>
      <trkpt lat="45.75308" lon="4.83706">
        <ele>166</ele>
        <time>2016-09-13T05:03:24Z</time>
      </trkpt>
      <trkpt lat="45.75317" lon="4.83713">
        <ele>166</ele>
        <time>2016-09-13T05:03:30Z</time>
      </trkpt>
      <trkpt lat="45.75326" lon="4.83719">
        <ele>166</ele>
        <time>2016-09-13T05:03:36Z</time>
      </trkpt>
      <trkpt lat="45.75335" lon="4.83726">
        <ele>166</ele>
        <time>2016-09-13T05:03:42Z</time>
      </trkpt>
      <trkpt lat="45.75344" lon="4.83733">
        <ele>166</ele>
        <time>2016-09-13T05:03:48Z</time>
      </trkpt>
      <trkpt lat="45.75353" lon="4.8374">
        <ele>166</ele>
        <time>2016-09-13T05:03:54Z</time>
      </trkpt>
      <trkpt lat="45.75362" lon="4.83747">
        <ele>166</ele>
        <time>2016-09-13T05:04:00Z</time>
      </trkpt>
      <trkpt lat="45.75371" lon="4.83754">
        <ele>166</ele>
        <time>2016-09-13T05:04:06Z</time>
      </trkpt>
      <trkpt lat="45.7538" lon="4.83761">
        <ele>166</ele>
        <time>2016-09-13T05:04:12Z</time>
      </trkpt>
      <trkpt lat="45.75389" lon="4.83768">
        <ele>166</ele>
        <time>2016-09-13T05:04:18Z</time>
      </trkpt>
      <trkpt lat="45.75398" lon="4.83774">
        <ele>166</ele>
        <time>2016-09-13T05:04:24Z</time>
      </trkpt>
      <trkpt lat="45.75407" lon="4.8378">
        <ele>167</ele>
        <time>2016-09-13T05:04:30Z</time>
      </trkpt>
      <trkpt lat="45.75415" lon="4.83788">
        <ele>166</ele>
        <time>2016-09-13T05:04:36Z</time>
      </trkpt>
      <trkpt lat="45.75424" lon="4.83793">
        <ele>166</ele>
        <time>2016-09-13T05:04:42Z</time>
      </trkpt>
      <trkpt lat="45.75434" lon="4.83798">
        <ele>166</ele>
        <time>2016-09-13T05:04:48Z</time>
      </trkpt>
      <trkpt lat="45.75444" lon="4.83807">
        <ele>165</ele>
        <time>2016-09-13T05:04:55Z</time>
      </trkpt>
      <trkpt lat="45.75452" lon="4.83813">
        <ele>165</ele>
        <time>2016-09-13T05:05:00Z</time>
      </trkpt>
      <trkpt lat="45.7546" lon="4.83821">
        <ele>161</ele>
        <time>2016-09-13T05:05:06Z</time>
      </trkpt>
      <trkpt lat="45.75469" lon="4.83826">
        <ele>161</ele>
        <time>2016-09-13T05:05:12Z</time>
      </trkpt>
      <trkpt lat="45.75478" lon="4.83832">
        <ele>160</ele>
        <time>2016-09-13T05:05:18Z</time>
      </trkpt>
      <trkpt lat="45.75487" lon="4.83839">
        <ele>159</ele>
        <time>2016-09-13T05:05:24Z</time>
      </trkpt>
      <trkpt lat="45.75496" lon="4.83845">
        <ele>159</ele>
        <time>2016-09-13T05:05:30Z</time>
      </trkpt>
      <trkpt lat="45.75511" lon="4.83854">
        <ele>159</ele>
        <time>2016-09-13T05:05:40Z</time>
      </trkpt>
      <trkpt lat="45.75514" lon="4.83856">
        <ele>158</ele>
        <time>2016-09-13T05:05:42Z</time>
      </trkpt>
      <trkpt lat="45.75523" lon="4.83861">
        <ele>160</ele>
        <time>2016-09-13T05:05:48Z</time>
      </trkpt>
      <trkpt lat="45.75532" lon="4.83867">
        <ele>161</ele>
        <time>2016-09-13T05:05:54Z</time>
      </trkpt>
      <trkpt lat="45.75541" lon="4.83873">
        <ele>160</ele>
        <time>2016-09-13T05:06:00Z</time>
      </trkpt>
      <trkpt lat="45.75549" lon="4.83881">
        <ele>161</ele>
        <time>2016-09-13T05:06:06Z</time>
      </trkpt>
      <trkpt lat="45.75558" lon="4.83889">
        <ele>160</ele>
        <time>2016-09-13T05:06:12Z</time>
      </trkpt>
      <trkpt lat="45.75568" lon="4.83896">
        <ele>162</ele>
        <time>2016-09-13T05:06:18Z</time>
      </trkpt>
      <trkpt lat="45.75576" lon="4.83901">
        <ele>161</ele>
        <time>2016-09-13T05:06:24Z</time>
      </trkpt>
      <trkpt lat="45.75586" lon="4.83907">
        <ele>162</ele>
        <time>2016-09-13T05:06:30Z</time>
      </trkpt>
      <trkpt lat="45.75595" lon="4.83913">
        <ele>163</ele>
        <time>2016-09-13T05:06:36Z</time>
      </trkpt>
      <trkpt lat="45.75605" lon="4.83919">
        <ele>160</ele>
        <time>2016-09-13T05:06:42Z</time>
      </trkpt>
      <trkpt lat="45.75614" lon="4.83924">
        <ele>159</ele>
        <time>2016-09-13T05:06:48Z</time>
      </trkpt>
      <trkpt lat="45.75625" lon="4.83928">
        <ele>162</ele>
        <time>2016-09-13T05:06:55Z</time>
      </trkpt>
      <trkpt lat="45.75635" lon="4.83932">
        <ele>163</ele>
        <time>2016-09-13T05:07:01Z</time>
      </trkpt>
      <trkpt lat="45.75641" lon="4.83935">
        <ele>164</ele>
        <time>2016-09-13T05:07:06Z</time>
      </trkpt>
      <trkpt lat="45.7565" lon="4.83937">
        <ele>162</ele>
        <time>2016-09-13T05:07:12Z</time>
      </trkpt>
      <trkpt lat="45.75665" lon="4.83949">
        <ele>160</ele>
        <time>2016-09-13T05:07:23Z</time>
      </trkpt>
      <trkpt lat="45.75676" lon="4.83953">
        <ele>163</ele>
        <time>2016-09-13T05:07:29Z</time>
      </trkpt>
      <trkpt lat="45.75686" lon="4.83958">
        <ele>163</ele>
        <time>2016-09-13T05:07:35Z</time>
      </trkpt>
      <trkpt lat="45.75688" lon="4.83959">
        <ele>163</ele>
        <time>2016-09-13T05:07:36Z</time>
      </trkpt>
      <trkpt lat="45.75705" lon="4.83968">
        <ele>164</ele>
        <time>2016-09-13T05:07:47Z</time>
      </trkpt>
      <trkpt lat="45.75706" lon="4.83969">
        <ele>164</ele>
        <time>2016-09-13T05:07:48Z</time>
      </trkpt>
      <trkpt lat="45.75717" lon="4.83974">
        <ele>163</ele>
        <time>2016-09-13T05:07:55Z</time>
      </trkpt>
      <trkpt lat="45.75726" lon="4.83978">
        <ele>163</ele>
        <time>2016-09-13T05:08:00Z</time>
      </trkpt>
      <trkpt lat="45.75735" lon="4.83981">
        <ele>164</ele>
        <time>2016-09-13T05:08:06Z</time>
      </trkpt>
      <trkpt lat="45.75747" lon="4.83987">
        <ele>165</ele>
        <time>2016-09-13T05:08:14Z</time>
      </trkpt>
      <trkpt lat="45.75754" lon="4.83991">
        <ele>166</ele>
        <time>2016-09-13T05:08:18Z</time>
      </trkpt>
      <trkpt lat="45.75768" lon="4.83996">
        <ele>168</ele>
        <time>2016-09-13T05:08:26Z</time>
      </trkpt>
      <trkpt lat="45.75776" lon="4.83998">
        <ele>168</ele>
        <time>2016-09-13T05:08:31Z</time>
      </trkpt>
      <trkpt lat="45.75785" lon="4.84002">
        <ele>165</ele>
        <time>2016-09-13T05:08:36Z</time>
      </trkpt>
      <trkpt lat="45.75795" lon="4.84004">
        <ele>166</ele>
        <time>2016-09-13T05:08:42Z</time>
      </trkpt>
      <trkpt lat="45.75805" lon="4.84007">
        <ele>167</ele>
        <time>2016-09-13T05:08:48Z</time>
      </trkpt>
      <trkpt lat="45.7582" lon="4.84012">
        <ele>166</ele>
        <time>2016-09-13T05:08:57Z</time>
      </trkpt>
      <trkpt lat="45.75825" lon="4.84013">
        <ele>167</ele>
        <time>2016-09-13T05:09:00Z</time>
      </trkpt>
      <trkpt lat="45.75834" lon="4.84015">
        <ele>166</ele>
        <time>2016-09-13T05:09:06Z</time>
      </trkpt>
      <trkpt lat="45.75844" lon="4.84016">
        <ele>165</ele>
        <time>2016-09-13T05:09:12Z</time>
      </trkpt>
      <trkpt lat="45.75854" lon="4.84017">
        <ele>165</ele>
        <time>2016-09-13T05:09:18Z</time>
      </trkpt>
      <trkpt lat="45.75864" lon="4.84018">
        <ele>165</ele>
        <time>2016-09-13T05:09:24Z</time>
      </trkpt>
      <trkpt lat="45.75874" lon="4.8402">
        <ele>165</ele>
        <time>2016-09-13T05:09:30Z</time>
      </trkpt>
      <trkpt lat="45.75884" lon="4.84021">
        <ele>165</ele>
        <time>2016-09-13T05:09:36Z</time>
      </trkpt>
      <trkpt lat="45.75894" lon="4.84023">
        <ele>163</ele>
        <time>2016-09-13T05:09:42Z</time>
      </trkpt>
      <trkpt lat="45.75905" lon="4.84024">
        <ele>165</ele>
        <time>2016-09-13T05:09:48Z</time>
      </trkpt>
      <trkpt lat="45.75915" lon="4.84025">
        <ele>166</ele>
        <time>2016-09-13T05:09:54Z</time>
      </trkpt>
      <trkpt lat="45.75925" lon="4.84026">
        <ele>166</ele>
        <time>2016-09-13T05:10:00Z</time>
      </trkpt>
      <trkpt lat="45.75935" lon="4.84027">
        <ele>167</ele>
        <time>2016-09-13T05:10:06Z</time>
      </trkpt>
      <trkpt lat="45.75945" lon="4.84029">
        <ele>167</ele>
        <time>2016-09-13T05:10:12Z</time>
      </trkpt>
      <trkpt lat="45.75959" lon="4.8403">
        <ele>167</ele>
        <time>2016-09-13T05:10:20Z</time>
      </trkpt>
      <trkpt lat="45.75966" lon="4.84031">
        <ele>168</ele>
        <time>2016-09-13T05:10:24Z</time>
      </trkpt>
      <trkpt lat="45.75976" lon="4.84033">
        <ele>166</ele>
        <time>2016-09-13T05:10:30Z</time>
      </trkpt>
      <trkpt lat="45.75986" lon="4.84034">
        <ele>166</ele>
        <time>2016-09-13T05:10:36Z</time>
      </trkpt>
      <trkpt lat="45.75995" lon="4.84035">
        <ele>166</ele>
        <time>2016-09-13T05:10:42Z</time>
      </trkpt>
      <trkpt lat="45.76002" lon="4.84033">
        <ele>167</ele>
        <time>2016-09-13T05:10:48Z</time>
      </trkpt>
      <trkpt lat="45.7602" lon="4.84043">
        <ele>163</ele>
        <time>2016-09-13T05:10:58Z</time>
      </trkpt>
      <trkpt lat="45.76025" lon="4.84044">
        <ele>161</ele>
        <time>2016-09-13T05:11:01Z</time>
      </trkpt>
      <trkpt lat="45.76042" lon="4.84044">
        <ele>164</ele>
        <time>2016-09-13T05:11:10Z</time>
      </trkpt>
      <trkpt lat="45.76046" lon="4.84044">
        <ele>165</ele>
        <time>2016-09-13T05:11:12Z</time>
      </trkpt>
      <trkpt lat="45.76055" lon="4.84046">
        <ele>163</ele>
        <time>2016-09-13T05:11:18Z</time>
      </trkpt>
      <trkpt lat="45.76064" lon="4.84048">
        <ele>164</ele>
        <time>2016-09-13T05:11:24Z</time>
      </trkpt>
      <trkpt lat="45.76074" lon="4.84049">
        <ele>164</ele>
        <time>2016-09-13T05:11:30Z</time>
      </trkpt>
      <trkpt lat="45.76083" lon="4.8405">
        <ele>164</ele>
        <time>2016-09-13T05:11:36Z</time>
      </trkpt>
      <trkpt lat="45.76093" lon="4.84051">
        <ele>165</ele>
        <time>2016-09-13T05:11:42Z</time>
      </trkpt>
      <trkpt lat="45.76109" lon="4.84054">
        <ele>166</ele>
        <time>2016-09-13T05:11:51Z</time>
      </trkpt>
      <trkpt lat="45.76114" lon="4.84054">
        <ele>166</ele>
        <time>2016-09-13T05:11:54Z</time>
      </trkpt>
      <trkpt lat="45.76125" lon="4.84055">
        <ele>165</ele>
        <time>2016-09-13T05:12:00Z</time>
      </trkpt>
      <trkpt lat="45.76139" lon="4.84057">
        <ele>165</ele>
        <time>2016-09-13T05:12:08Z</time>
      </trkpt>
      <trkpt lat="45.76146" lon="4.84058">
        <ele>164</ele>
        <time>2016-09-13T05:12:12Z</time>
      </trkpt>
      <trkpt lat="45.76156" lon="4.84058">
        <ele>165</ele>
        <time>2016-09-13T05:12:18Z</time>
      </trkpt>
      <trkpt lat="45.76171" lon="4.8406">
        <ele>164</ele>
        <time>2016-09-13T05:12:27Z</time>
      </trkpt>
      <trkpt lat="45.76176" lon="4.84061">
        <ele>164</ele>
        <time>2016-09-13T05:12:30Z</time>
      </trkpt>
      <trkpt lat="45.76193" lon="4.84064">
        <ele>165</ele>
        <time>2016-09-13T05:12:40Z</time>
      </trkpt>
      <trkpt lat="45.76196" lon="4.84064">
        <ele>165</ele>
        <time>2016-09-13T05:12:42Z</time>
      </trkpt>
      <trkpt lat="45.76206" lon="4.84066">
        <ele>165</ele>
        <time>2016-09-13T05:12:48Z</time>
      </trkpt>
      <trkpt lat="45.76216" lon="4.84067">
        <ele>164</ele>
        <time>2016-09-13T05:12:54Z</time>
      </trkpt>
      <trkpt lat="45.76227" lon="4.84068">
        <ele>163</ele>
        <time>2016-09-13T05:13:00Z</time>
      </trkpt>
      <trkpt lat="45.76237" lon="4.8407">
        <ele>164</ele>
        <time>2016-09-13T05:13:06Z</time>
      </trkpt>
      <trkpt lat="45.76247" lon="4.84072">
        <ele>164</ele>
        <time>2016-09-13T05:13:12Z</time>
      </trkpt>
      <trkpt lat="45.76257" lon="4.84073">
        <ele>163</ele>
        <time>2016-09-13T05:13:18Z</time>
      </trkpt>
      <trkpt lat="45.76268" lon="4.84075">
        <ele>165</ele>
        <time>2016-09-13T05:13:24Z</time>
      </trkpt>
      <trkpt lat="45.76278" lon="4.84077">
        <ele>164</ele>
        <time>2016-09-13T05:13:30Z</time>
      </trkpt>
      <trkpt lat="45.76288" lon="4.84078">
        <ele>164</ele>
        <time>2016-09-13T05:13:36Z</time>
      </trkpt>
      <trkpt lat="45.76298" lon="4.8408">
        <ele>163</ele>
        <time>2016-09-13T05:13:42Z</time>
      </trkpt>
      <trkpt lat="45.76309" lon="4.84081">
        <ele>163</ele>
        <time>2016-09-13T05:13:48Z</time>
      </trkpt>
      <trkpt lat="45.76319" lon="4.84082">
        <ele>163</ele>
        <time>2016-09-13T05:13:54Z</time>
      </trkpt>
      <trkpt lat="45.76329" lon="4.84082">
        <ele>162</ele>
        <time>2016-09-13T05:14:00Z</time>
      </trkpt>
      <trkpt lat="45.76339" lon="4.84084">
        <ele>161</ele>
        <time>2016-09-13T05:14:06Z</time>
      </trkpt>
      <trkpt lat="45.76348" lon="4.84087">
        <ele>160</ele>
        <time>2016-09-13T05:14:12Z</time>
      </trkpt>
      <trkpt lat="45.76358" lon="4.84089">
        <ele>160</ele>
        <time>2016-09-13T05:14:18Z</time>
      </trkpt>
      <trkpt lat="45.76377" lon="4.84092">
        <ele>158</ele>
        <time>2016-09-13T05:14:29Z</time>
      </trkpt>
      <trkpt lat="45.76388" lon="4.84092">
        <ele>158</ele>
        <time>2016-09-13T05:14:35Z</time>
      </trkpt>
      <trkpt lat="45.7639" lon="4.84092">
        <ele>158</ele>
        <time>2016-09-13T05:14:36Z</time>
      </trkpt>
      <trkpt lat="45.76404" lon="4.84091">
        <ele>159</ele>
        <time>2016-09-13T05:14:44Z</time>
      </trkpt>
      <trkpt lat="45.76411" lon="4.84091">
        <ele>160</ele>
        <time>2016-09-13T05:14:48Z</time>
      </trkpt>
      <trkpt lat="45.76421" lon="4.8409">
        <ele>161</ele>
        <time>2016-09-13T05:14:54Z</time>
      </trkpt>
      <trkpt lat="45.76437" lon="4.84091">
        <ele>163</ele>
        <time>2016-09-13T05:15:03Z</time>
      </trkpt>
      <trkpt lat="45.76442" lon="4.8409">
        <ele>164</ele>
        <time>2016-09-13T05:15:06Z</time>
      </trkpt>
      <trkpt lat="45.76452" lon="4.8409">
        <ele>165</ele>
        <time>2016-09-13T05:15:12Z</time>
      </trkpt>
      <trkpt lat="45.76462" lon="4.84091">
        <ele>166</ele>
        <time>2016-09-13T05:15:18Z</time>
      </trkpt>
      <trkpt lat="45.76472" lon="4.8409">
        <ele>166</ele>
        <time>2016-09-13T05:15:24Z</time>
      </trkpt>
      <trkpt lat="45.76483" lon="4.84091">
        <ele>166</ele>
        <time>2016-09-13T05:15:30Z</time>
      </trkpt>
      <trkpt lat="45.76493" lon="4.84092">
        <ele>167</ele>
        <time>2016-09-13T05:15:36Z</time>
      </trkpt>
      <trkpt lat="45.76503" lon="4.84093">
        <ele>167</ele>
        <time>2016-09-13T05:15:42Z</time>
      </trkpt>
      <trkpt lat="45.76513" lon="4.84093">
        <ele>168</ele>
        <time>2016-09-13T05:15:48Z</time>
      </trkpt>
      <trkpt lat="45.76523" lon="4.84093">
        <ele>167</ele>
        <time>2016-09-13T05:15:54Z</time>
      </trkpt>
      <trkpt lat="45.76534" lon="4.84093">
        <ele>166</ele>
        <time>2016-09-13T05:16:00Z</time>
      </trkpt>
      <trkpt lat="45.76544" lon="4.84093">
        <ele>166</ele>
        <time>2016-09-13T05:16:06Z</time>
      </trkpt>
      <trkpt lat="45.76554" lon="4.84093">
        <ele>166</ele>
        <time>2016-09-13T05:16:12Z</time>
      </trkpt>
      <trkpt lat="45.76564" lon="4.84094">
        <ele>164</ele>
        <time>2016-09-13T05:16:18Z</time>
      </trkpt>
      <trkpt lat="45.76575" lon="4.84094">
        <ele>163</ele>
        <time>2016-09-13T05:16:25Z</time>
      </trkpt>
      <trkpt lat="45.76583" lon="4.84093">
        <ele>163</ele>
        <time>2016-09-13T05:16:30Z</time>
      </trkpt>
      <trkpt lat="45.76594" lon="4.84094">
        <ele>162</ele>
        <time>2016-09-13T05:16:36Z</time>
      </trkpt>
      <trkpt lat="45.76611" lon="4.84092">
        <ele>160</ele>
        <time>2016-09-13T05:16:46Z</time>
      </trkpt>
      <trkpt lat="45.76614" lon="4.84092">
        <ele>160</ele>
        <time>2016-09-13T05:16:48Z</time>
      </trkpt>
      <trkpt lat="45.76624" lon="4.8409">
        <ele>160</ele>
        <time>2016-09-13T05:16:54Z</time>
      </trkpt>
      <trkpt lat="45.76635" lon="4.84088">
        <ele>160</ele>
        <time>2016-09-13T05:17:00Z</time>
      </trkpt>
      <trkpt lat="45.76645" lon="4.84087">
        <ele>161</ele>
        <time>2016-09-13T05:17:06Z</time>
      </trkpt>
      <trkpt lat="45.76659" lon="4.84085">
        <ele>162</ele>
        <time>2016-09-13T05:17:14Z</time>
      </trkpt>
      <trkpt lat="45.76666" lon="4.84084">
        <ele>161</ele>
        <time>2016-09-13T05:17:18Z</time>
      </trkpt>
      <trkpt lat="45.76675" lon="4.84084">
        <ele>161</ele>
        <time>2016-09-13T05:17:24Z</time>
      </trkpt>
      <trkpt lat="45.76686" lon="4.84082">
        <ele>161</ele>
        <time>2016-09-13T05:17:30Z</time>
      </trkpt>
      <trkpt lat="45.76696" lon="4.84082">
        <ele>162</ele>
        <time>2016-09-13T05:17:36Z</time>
      </trkpt>
      <trkpt lat="45.76707" lon="4.8408">
        <ele>162</ele>
        <time>2016-09-13T05:17:42Z</time>
      </trkpt>
      <trkpt lat="45.76717" lon="4.84078">
        <ele>162</ele>
        <time>2016-09-13T05:17:48Z</time>
      </trkpt>
      <trkpt lat="45.76736" lon="4.84075">
        <ele>162</ele>
        <time>2016-09-13T05:17:59Z</time>
      </trkpt>
      <trkpt lat="45.76738" lon="4.84075">
        <ele>162</ele>
        <time>2016-09-13T05:18:00Z</time>
      </trkpt>
      <trkpt lat="45.76748" lon="4.84073">
        <ele>163</ele>
        <time>2016-09-13T05:18:06Z</time>
      </trkpt>
      <trkpt lat="45.76761" lon="4.84073">
        <ele>162</ele>
        <time>2016-09-13T05:18:13Z</time>
      </trkpt>
      <trkpt lat="45.76769" lon="4.84071">
        <ele>163</ele>
        <time>2016-09-13T05:18:18Z</time>
      </trkpt>
      <trkpt lat="45.7678" lon="4.84071">
        <ele>164</ele>
        <time>2016-09-13T05:18:24Z</time>
      </trkpt>
      <trkpt lat="45.7679" lon="4.84071">
        <ele>163</ele>
        <time>2016-09-13T05:18:30Z</time>
      </trkpt>
      <trkpt lat="45.76801" lon="4.84071">
        <ele>162</ele>
        <time>2016-09-13T05:18:36Z</time>
      </trkpt>
      <trkpt lat="45.76811" lon="4.8407">
        <ele>162</ele>
        <time>2016-09-13T05:18:42Z</time>
      </trkpt>
      <trkpt lat="45.76821" lon="4.84068">
        <ele>162</ele>
        <time>2016-09-13T05:18:48Z</time>
      </trkpt>
      <trkpt lat="45.76831" lon="4.84069">
        <ele>163</ele>
        <time>2016-09-13T05:18:54Z</time>
      </trkpt>
      <trkpt lat="45.76842" lon="4.84068">
        <ele>163</ele>
        <time>2016-09-13T05:19:00Z</time>
      </trkpt>
      <trkpt lat="45.76854" lon="4.84067">
        <ele>163</ele>
        <time>2016-09-13T05:19:07Z</time>
      </trkpt>
      <trkpt lat="45.76862" lon="4.84068">
        <ele>163</ele>
        <time>2016-09-13T05:19:12Z</time>
      </trkpt>
      <trkpt lat="45.76879" lon="4.84066">
        <ele>160</ele>
        <time>2016-09-13T05:19:23Z</time>
      </trkpt>
      <trkpt lat="45.76886" lon="4.84065">
        <ele>162</ele>
        <time>2016-09-13T05:19:27Z</time>
      </trkpt>
      <trkpt lat="45.76891" lon="4.84064">
        <ele>164</ele>
        <time>2016-09-13T05:19:30Z</time>
      </trkpt>
      <trkpt lat="45.76902" lon="4.84062">
        <ele>166</ele>
        <time>2016-09-13T05:19:36Z</time>
      </trkpt>
      <trkpt lat="45.76912" lon="4.84059">
        <ele>166</ele>
        <time>2016-09-13T05:19:42Z</time>
      </trkpt>
      <trkpt lat="45.76921" lon="4.84058">
        <ele>167</ele>
        <time>2016-09-13T05:19:48Z</time>
      </trkpt>
      <trkpt lat="45.76934" lon="4.84058">
        <ele>168</ele>
        <time>2016-09-13T05:19:55Z</time>
      </trkpt>
      <trkpt lat="45.7695" lon="4.84057">
        <ele>169</ele>
        <time>2016-09-13T05:20:05Z</time>
      </trkpt>
      <trkpt lat="45.76952" lon="4.84057">
        <ele>170</ele>
        <time>2016-09-13T05:20:06Z</time>
      </trkpt>
      <trkpt lat="45.76962" lon="4.84059">
        <ele>167</ele>
        <time>2016-09-13T05:20:12Z</time>
      </trkpt>
      <trkpt lat="45.7698" lon="4.84063">
        <ele>162</ele>
        <time>2016-09-13T05:20:23Z</time>
      </trkpt>
      <trkpt lat="45.76983" lon="4.84064">
        <ele>161</ele>
        <time>2016-09-13T05:20:25Z</time>
      </trkpt>
      <trkpt lat="45.76994" lon="4.84066">
        <ele>163</ele>
        <time>2016-09-13T05:20:32Z</time>
      </trkpt>
      <trkpt lat="45.77001" lon="4.84066">
        <ele>165</ele>
        <time>2016-09-13T05:20:36Z</time>
      </trkpt>
      <trkpt lat="45.77011" lon="4.84065">
        <ele>166</ele>
        <time>2016-09-13T05:20:42Z</time>
      </trkpt>
      <trkpt lat="45.7703" lon="4.84067">
        <ele>163</ele>
        <time>2016-09-13T05:20:53Z</time>
      </trkpt>
      <trkpt lat="45.77032" lon="4.84067">
        <ele>163</ele>
        <time>2016-09-13T05:20:54Z</time>
      </trkpt>
      <trkpt lat="45.77046" lon="4.84067">
        <ele>165</ele>
        <time>2016-09-13T05:21:03Z</time>
      </trkpt>
      <trkpt lat="45.77053" lon="4.84067">
        <ele>166</ele>
        <time>2016-09-13T05:21:07Z</time>
      </trkpt>
      <trkpt lat="45.77061" lon="4.84066">
        <ele>165</ele>
        <time>2016-09-13T05:21:12Z</time>
      </trkpt>
      <trkpt lat="45.77071" lon="4.84066">
        <ele>166</ele>
        <time>2016-09-13T05:21:18Z</time>
      </trkpt>
      <trkpt lat="45.77084" lon="4.84067">
        <ele>167</ele>
        <time>2016-09-13T05:21:25Z</time>
      </trkpt>
      <trkpt lat="45.77093" lon="4.84065">
        <ele>167</ele>
        <time>2016-09-13T05:21:30Z</time>
      </trkpt>
      <trkpt lat="45.77104" lon="4.84064">
        <ele>170</ele>
        <time>2016-09-13T05:21:36Z</time>
      </trkpt>
      <trkpt lat="45.77122" lon="4.84064">
        <ele>170</ele>
        <time>2016-09-13T05:21:46Z</time>
      </trkpt>
      <trkpt lat="45.77125" lon="4.84064">
        <ele>169</ele>
        <time>2016-09-13T05:21:48Z</time>
      </trkpt>
      <trkpt lat="45.77136" lon="4.84064">
        <ele>170</ele>
        <time>2016-09-13T05:21:54Z</time>
      </trkpt>
      <trkpt lat="45.77146" lon="4.84065">
        <ele>168</ele>
        <time>2016-09-13T05:22:00Z</time>
      </trkpt>
      <trkpt lat="45.77156" lon="4.84065">
        <ele>168</ele>
        <time>2016-09-13T05:22:06Z</time>
      </trkpt>
      <trkpt lat="45.77171" lon="4.84066">
        <ele>166</ele>
        <time>2016-09-13T05:22:16Z</time>
      </trkpt>
      <trkpt lat="45.77174" lon="4.84066">
        <ele>166</ele>
        <time>2016-09-13T05:22:18Z</time>
      </trkpt>
      <trkpt lat="45.77184" lon="4.84066">
        <ele>167</ele>
        <time>2016-09-13T05:22:24Z</time>
      </trkpt>
      <trkpt lat="45.77195" lon="4.84065">
        <ele>169</ele>
        <time>2016-09-13T05:22:30Z</time>
      </trkpt>
      <trkpt lat="45.77206" lon="4.84064">
        <ele>169</ele>
        <time>2016-09-13T05:22:36Z</time>
      </trkpt>
      <trkpt lat="45.77214" lon="4.84064">
        <ele>169</ele>
        <time>2016-09-13T05:22:42Z</time>
      </trkpt>
      <trkpt lat="45.77225" lon="4.84066">
        <ele>167</ele>
        <time>2016-09-13T05:22:48Z</time>
      </trkpt>
      <trkpt lat="45.77233" lon="4.84068">
        <ele>169</ele>
        <time>2016-09-13T05:22:54Z</time>
      </trkpt>
      <trkpt lat="45.77265" lon="4.84076">
        <ele>171</ele>
        <time>2016-09-13T05:23:07Z</time>
      </trkpt>
      <trkpt lat="45.77271" lon="4.84075">
        <ele>172</ele>
        <time>2016-09-13T05:23:12Z</time>
      </trkpt>
      <trkpt lat="45.77277" lon="4.84077">
        <ele>170</ele>
        <time>2016-09-13T05:23:16Z</time>
      </trkpt>
      <trkpt lat="45.77283" lon="4.84079">
        <ele>168</ele>
        <time>2016-09-13T05:23:20Z</time>
      </trkpt>
      <trkpt lat="45.77291" lon="4.84083">
        <ele>169</ele>
        <time>2016-09-13T05:23:26Z</time>
      </trkpt>
      <trkpt lat="45.773" lon="4.84088">
        <ele>168</ele>
        <time>2016-09-13T05:23:32Z</time>
      </trkpt>
      <trkpt lat="45.77314" lon="4.84099">
        <ele>164</ele>
        <time>2016-09-13T05:23:42Z</time>
      </trkpt>
      <trkpt lat="45.77318" lon="4.84101">
        <ele>165</ele>
        <time>2016-09-13T05:23:44Z</time>
      </trkpt>
      <trkpt lat="45.77329" lon="4.84106">
        <ele>168</ele>
        <time>2016-09-13T05:23:50Z</time>
      </trkpt>
      <trkpt lat="45.77338" lon="4.84113">
        <ele>164</ele>
        <time>2016-09-13T05:23:56Z</time>
      </trkpt>
      <trkpt lat="45.77347" lon="4.8412">
        <ele>166</ele>
        <time>2016-09-13T05:24:02Z</time>
      </trkpt>
      <trkpt lat="45.77364" lon="4.8413">
        <ele>168</ele>
        <time>2016-09-13T05:24:13Z</time>
      </trkpt>
      <trkpt lat="45.77366" lon="4.84131">
        <ele>167</ele>
        <time>2016-09-13T05:24:14Z</time>
      </trkpt>
      <trkpt lat="45.77375" lon="4.84138">
        <ele>173</ele>
        <time>2016-09-13T05:24:20Z</time>
      </trkpt>
      <trkpt lat="45.77384" lon="4.84145">
        <ele>168</ele>
        <time>2016-09-13T05:24:26Z</time>
      </trkpt>
      <trkpt lat="45.77399" lon="4.84157">
        <ele>166</ele>
        <time>2016-09-13T05:24:36Z</time>
      </trkpt>
      <trkpt lat="45.77405" lon="4.8416">
        <ele>167</ele>
        <time>2016-09-13T05:24:40Z</time>
      </trkpt>
      <trkpt lat="45.77411" lon="4.84164">
        <ele>167</ele>
        <time>2016-09-13T05:24:44Z</time>
      </trkpt>
      <trkpt lat="45.77421" lon="4.84169">
        <ele>170</ele>
        <time>2016-09-13T05:24:50Z</time>
      </trkpt>
      <trkpt lat="45.77431" lon="4.84177">
        <ele>168</ele>
        <time>2016-09-13T05:24:56Z</time>
      </trkpt>
      <trkpt lat="45.7745" lon="4.84191">
        <ele>170</ele>
        <time>2016-09-13T05:25:08Z</time>
      </trkpt>
      <trkpt lat="45.77453" lon="4.84193">
        <ele>171</ele>
        <time>2016-09-13T05:25:10Z</time>
      </trkpt>
      <trkpt lat="45.77462" lon="4.84198">
        <ele>172</ele>
        <time>2016-09-13T05:25:16Z</time>
      </trkpt>
      <trkpt lat="45.77473" lon="4.84204">
        <ele>171</ele>
        <time>2016-09-13T05:25:23Z</time>
      </trkpt>
      <trkpt lat="45.7748" lon="4.84211">
        <ele>171</ele>
        <time>2016-09-13T05:25:28Z</time>
      </trkpt>
      <trkpt lat="45.7749" lon="4.84218">
        <ele>171</ele>
        <time>2016-09-13T05:25:35Z</time>
      </trkpt>
      <trkpt lat="45.775" lon="4.84227">
        <ele>169</ele>
        <time>2016-09-13T05:25:43Z</time>
      </trkpt>
      <trkpt lat="45.77506" lon="4.84232">
        <ele>169</ele>
        <time>2016-09-13T05:25:47Z</time>
      </trkpt>
      <trkpt lat="45.77515" lon="4.84237">
        <ele>171</ele>
        <time>2016-09-13T05:25:53Z</time>
      </trkpt>
      <trkpt lat="45.77529" lon="4.84244">
        <ele>169</ele>
        <time>2016-09-13T05:26:01Z</time>
      </trkpt>
      <trkpt lat="45.77535" lon="4.84248">
        <ele>170</ele>
        <time>2016-09-13T05:26:05Z</time>
      </trkpt>
      <trkpt lat="45.77546" lon="4.84252">
        <ele>170</ele>
        <time>2016-09-13T05:26:11Z</time>
      </trkpt>
      <trkpt lat="45.77555" lon="4.84262">
        <ele>171</ele>
        <time>2016-09-13T05:26:18Z</time>
      </trkpt>
      <trkpt lat="45.77566" lon="4.8427">
        <ele>175</ele>
        <time>2016-09-13T05:26:25Z</time>
      </trkpt>
      <trkpt lat="45.77581" lon="4.84281">
        <ele>177</ele>
        <time>2016-09-13T05:26:34Z</time>
      </trkpt>
      <trkpt lat="45.77591" lon="4.84287">
        <ele>179</ele>
        <time>2016-09-13T05:26:40Z</time>
      </trkpt>
      <trkpt lat="45.77592" lon="4.84288">
        <ele>179</ele>
        <time>2016-09-13T05:26:41Z</time>
      </trkpt>
      <trkpt lat="45.77602" lon="4.84295">
        <ele>176</ele>
        <time>2016-09-13T05:26:47Z</time>
      </trkpt>
      <trkpt lat="45.77617" lon="4.84309">
        <ele>171</ele>
        <time>2016-09-13T05:26:58Z</time>
      </trkpt>
      <trkpt lat="45.77619" lon="4.8431">
        <ele>171</ele>
        <time>2016-09-13T05:26:59Z</time>
      </trkpt>
      <trkpt lat="45.77627" lon="4.84318">
        <ele>170</ele>
        <time>2016-09-13T05:27:05Z</time>
      </trkpt>
      <trkpt lat="45.77641" lon="4.84329">
        <ele>170</ele>
        <time>2016-09-13T05:27:13Z</time>
      </trkpt>
      <trkpt lat="45.77648" lon="4.84332">
        <ele>170</ele>
        <time>2016-09-13T05:27:17Z</time>
      </trkpt>
      <trkpt lat="45.77662" lon="4.84343">
        <ele>169</ele>
        <time>2016-09-13T05:27:27Z</time>
      </trkpt>
      <trkpt lat="45.77665" lon="4.84344">
        <ele>171</ele>
        <time>2016-09-13T05:27:29Z</time>
      </trkpt>
      <trkpt lat="45.77672" lon="4.84351">
        <ele>174</ele>
        <time>2016-09-13T05:27:35Z</time>
      </trkpt>
      <trkpt lat="45.77686" lon="4.84357">
        <ele>173</ele>
        <time>2016-09-13T05:27:43Z</time>
      </trkpt>
      <trkpt lat="45.77701" lon="4.84364">
        <ele>171</ele>
        <time>2016-09-13T05:27:51Z</time>
      </trkpt>
      <trkpt lat="45.77704" lon="4.84365">
        <ele>171</ele>
        <time>2016-09-13T05:27:53Z</time>
      </trkpt>
      <trkpt lat="45.77717" lon="4.84369">
        <ele>171</ele>
        <time>2016-09-13T05:28:01Z</time>
      </trkpt>
      <trkpt lat="45.77724" lon="4.84371">
        <ele>170</ele>
        <time>2016-09-13T05:28:05Z</time>
      </trkpt>
      <trkpt lat="45.77734" lon="4.8437">
        <ele>171</ele>
        <time>2016-09-13T05:28:11Z</time>
      </trkpt>
      <trkpt lat="45.77744" lon="4.84368">
        <ele>169</ele>
        <time>2016-09-13T05:28:17Z</time>
      </trkpt>
      <trkpt lat="45.77756" lon="4.84364">
        <ele>170</ele>
        <time>2016-09-13T05:28:24Z</time>
      </trkpt>
      <trkpt lat="45.77767" lon="4.84362">
        <ele>172</ele>
        <time>2016-09-13T05:28:31Z</time>
      </trkpt>
      <trkpt lat="45.77774" lon="4.8436">
        <ele>172</ele>
        <time>2016-09-13T05:28:36Z</time>
      </trkpt>
      <trkpt lat="45.77793" lon="4.84361">
        <ele>172</ele>
        <time>2016-09-13T05:28:46Z</time>
      </trkpt>
      <trkpt lat="45.77797" lon="4.84362">
        <ele>172</ele>
        <time>2016-09-13T05:28:48Z</time>
      </trkpt>
      <trkpt lat="45.77807" lon="4.84368">
        <ele>170</ele>
        <time>2016-09-13T05:28:55Z</time>
      </trkpt>
      <trkpt lat="45.77812" lon="4.84371">
        <ele>170</ele>
        <time>2016-09-13T05:28:59Z</time>
      </trkpt>
      <trkpt lat="45.77819" lon="4.84377">
        <ele>171</ele>
        <time>2016-09-13T05:29:05Z</time>
      </trkpt>
      <trkpt lat="45.77832" lon="4.84396">
        <ele>168</ele>
        <time>2016-09-13T05:29:14Z</time>
      </trkpt>
      <trkpt lat="45.77841" lon="4.84399">
        <ele>169</ele>
        <time>2016-09-13T05:29:19Z</time>
      </trkpt>
      <trkpt lat="45.77853" lon="4.844">
        <ele>168</ele>
        <time>2016-09-13T05:29:25Z</time>
      </trkpt>
      <trkpt lat="45.77859" lon="4.84404">
        <ele>167</ele>
        <time>2016-09-13T05:29:29Z</time>
      </trkpt>
      <trkpt lat="45.77869" lon="4.8441">
        <ele>169</ele>
        <time>2016-09-13T05:29:35Z</time>
      </trkpt>
      <trkpt lat="45.7788" lon="4.84417">
        <ele>168</ele>
        <time>2016-09-13T05:29:42Z</time>
      </trkpt>
      <trkpt lat="45.77895" lon="4.84423">
        <ele>168</ele>
        <time>2016-09-13T05:29:51Z</time>
      </trkpt>
      <trkpt lat="45.77898" lon="4.84426">
        <ele>169</ele>
        <time>2016-09-13T05:29:53Z</time>
      </trkpt>
      <trkpt lat="45.77909" lon="4.84435">
        <ele>168</ele>
        <time>2016-09-13T05:30:01Z</time>
      </trkpt>
      <trkpt lat="45.77915" lon="4.8444">
        <ele>167</ele>
        <time>2016-09-13T05:30:05Z</time>
      </trkpt>
      <trkpt lat="45.77925" lon="4.84445">
        <ele>170</ele>
        <time>2016-09-13T05:30:11Z</time>
      </trkpt>
      <trkpt lat="45.77935" lon="4.84452">
        <ele>169</ele>
        <time>2016-09-13T05:30:17Z</time>
      </trkpt>
      <trkpt lat="45.77943" lon="4.84459">
        <ele>171</ele>
        <time>2016-09-13T05:30:23Z</time>
      </trkpt>
      <trkpt lat="45.77955" lon="4.84467">
        <ele>168</ele>
        <time>2016-09-13T05:30:32Z</time>
      </trkpt>
      <trkpt lat="45.77959" lon="4.84471">
        <ele>170</ele>
        <time>2016-09-13T05:30:35Z</time>
      </trkpt>
      <trkpt lat="45.77969" lon="4.84477">
        <ele>169</ele>
        <time>2016-09-13T05:30:41Z</time>
      </trkpt>
      <trkpt lat="45.77978" lon="4.84483">
        <ele>167</ele>
        <time>2016-09-13T05:30:47Z</time>
      </trkpt>
      <trkpt lat="45.77987" lon="4.8449">
        <ele>165</ele>
        <time>2016-09-13T05:30:53Z</time>
      </trkpt>
      <trkpt lat="45.77995" lon="4.84498">
        <ele>167</ele>
        <time>2016-09-13T05:30:59Z</time>
      </trkpt>
      <trkpt lat="45.78004" lon="4.84505">
        <ele>167</ele>
        <time>2016-09-13T05:31:05Z</time>
      </trkpt>
      <trkpt lat="45.78013" lon="4.84511">
        <ele>166</ele>
        <time>2016-09-13T05:31:11Z</time>
      </trkpt>
      <trkpt lat="45.78025" lon="4.84521">
        <ele>169</ele>
        <time>2016-09-13T05:31:19Z</time>
      </trkpt>
      <trkpt lat="45.78032" lon="4.84528">
        <ele>170</ele>
        <time>2016-09-13T05:31:24Z</time>
      </trkpt>
      <trkpt lat="45.78039" lon="4.84537">
        <ele>169</ele>
        <time>2016-09-13T05:31:29Z</time>
      </trkpt>
      <trkpt lat="45.78056" lon="4.84551">
        <ele>168</ele>
        <time>2016-09-13T05:31:40Z</time>
      </trkpt>
      <trkpt lat="45.78058" lon="4.84552">
        <ele>168</ele>
        <time>2016-09-13T05:31:41Z</time>
      </trkpt>
      <trkpt lat="45.78074" lon="4.84567">
        <ele>168</ele>
        <time>2016-09-13T05:31:52Z</time>
      </trkpt>
      <trkpt lat="45.78081" lon="4.84578">
        <ele>168</ele>
        <time>2016-09-13T05:31:58Z</time>
      </trkpt>
      <trkpt lat="45.78082" lon="4.8458">
        <ele>169</ele>
        <time>2016-09-13T05:31:59Z</time>
      </trkpt>
      <trkpt lat="45.78094" lon="4.8459">
        <ele>168</ele>
        <time>2016-09-13T05:32:07Z</time>
      </trkpt>
      <trkpt lat="45.781" lon="4.84596">
        <ele>169</ele>
        <time>2016-09-13T05:32:11Z</time>
      </trkpt>
      <trkpt lat="45.78108" lon="4.84603">
        <ele>167</ele>
        <time>2016-09-13T05:32:17Z</time>
      </trkpt>
      <trkpt lat="45.78118" lon="4.84611">
        <ele>168</ele>
        <time>2016-09-13T05:32:24Z</time>
      </trkpt>
      <trkpt lat="45.78125" lon="4.84619">
        <ele>168</ele>
        <time>2016-09-13T05:32:29Z</time>
      </trkpt>
      <trkpt lat="45.78134" lon="4.84627">
        <ele>168</ele>
        <time>2016-09-13T05:32:35Z</time>
      </trkpt>
      <trkpt lat="45.78144" lon="4.84635">
        <ele>169</ele>
        <time>2016-09-13T05:32:42Z</time>
      </trkpt>
      <trkpt lat="45.78151" lon="4.84642">
        <ele>170</ele>
        <time>2016-09-13T05:32:47Z</time>
      </trkpt>
      <trkpt lat="45.78163" lon="4.84653">
        <ele>173</ele>
        <time>2016-09-13T05:32:55Z</time>
      </trkpt>
      <trkpt lat="45.78169" lon="4.84657">
        <ele>173</ele>
        <time>2016-09-13T05:32:59Z</time>
      </trkpt>
      <trkpt lat="45.7818" lon="4.84664">
        <ele>172</ele>
        <time>2016-09-13T05:33:07Z</time>
      </trkpt>
      <trkpt lat="45.7819" lon="4.84669">
        <ele>170</ele>
        <time>2016-09-13T05:33:13Z</time>
      </trkpt>
      <trkpt lat="45.78197" lon="4.84672">
        <ele>168</ele>
        <time>2016-09-13T05:33:17Z</time>
      </trkpt>
      <trkpt lat="45.7821" lon="4.84679">
        <ele>170</ele>
        <time>2016-09-13T05:33:25Z</time>
      </trkpt>
      <trkpt lat="45.78221" lon="4.84688">
        <ele>170</ele>
        <time>2016-09-13T05:33:32Z</time>
      </trkpt>
      <trkpt lat="45.78225" lon="4.84692">
        <ele>169</ele>
        <time>2016-09-13T05:33:35Z</time>
      </trkpt>
      <trkpt lat="45.78234" lon="4.84698">
        <ele>170</ele>
        <time>2016-09-13T05:33:41Z</time>
      </trkpt>
      <trkpt lat="45.78242" lon="4.84705">
        <ele>172</ele>
        <time>2016-09-13T05:33:47Z</time>
      </trkpt>
      <trkpt lat="45.78257" lon="4.8472">
        <ele>171</ele>
        <time>2016-09-13T05:33:58Z</time>
      </trkpt>
      <trkpt lat="45.78258" lon="4.84721">
        <ele>171</ele>
        <time>2016-09-13T05:33:59Z</time>
      </trkpt>
      <trkpt lat="45.78273" lon="4.84736">
        <ele>172</ele>
        <time>2016-09-13T05:34:09Z</time>
      </trkpt>
      <trkpt lat="45.78276" lon="4.84739">
        <ele>172</ele>
        <time>2016-09-13T05:34:11Z</time>
      </trkpt>
      <trkpt lat="45.78284" lon="4.84748">
        <ele>172</ele>
        <time>2016-09-13T05:34:17Z</time>
      </trkpt>
      <trkpt lat="45.78294" lon="4.84757">
        <ele>172</ele>
        <time>2016-09-13T05:34:24Z</time>
      </trkpt>
      <trkpt lat="45.783" lon="4.84765">
        <ele>171</ele>
        <time>2016-09-13T05:34:29Z</time>
      </trkpt>
      <trkpt lat="45.7831" lon="4.84779">
        <ele>169</ele>
        <time>2016-09-13T05:34:38Z</time>
      </trkpt>
      <trkpt lat="45.78315" lon="4.84785">
        <ele>168</ele>
        <time>2016-09-13T05:34:42Z</time>
      </trkpt>
      <trkpt lat="45.78321" lon="4.84793">
        <ele>168</ele>
        <time>2016-09-13T05:34:47Z</time>
      </trkpt>
      <trkpt lat="45.78329" lon="4.84803">
        <ele>169</ele>
        <time>2016-09-13T05:34:53Z</time>
      </trkpt>
      <trkpt lat="45.78339" lon="4.84815">
        <ele>168</ele>
        <time>2016-09-13T05:35:00Z</time>
      </trkpt>
      <trkpt lat="45.78346" lon="4.84824">
        <ele>168</ele>
        <time>2016-09-13T05:35:05Z</time>
      </trkpt>
      <trkpt lat="45.78354" lon="4.84834">
        <ele>168</ele>
        <time>2016-09-13T05:35:11Z</time>
      </trkpt>
      <trkpt lat="45.78361" lon="4.84844">
        <ele>168</ele>
        <time>2016-09-13T05:35:17Z</time>
      </trkpt>
      <trkpt lat="45.78368" lon="4.84856">
        <ele>169</ele>
        <time>2016-09-13T05:35:23Z</time>
      </trkpt>
      <trkpt lat="45.78379" lon="4.84872">
        <ele>169</ele>
        <time>2016-09-13T05:35:32Z</time>
      </trkpt>
      <trkpt lat="45.78382" lon="4.84877">
        <ele>168</ele>
        <time>2016-09-13T05:35:35Z</time>
      </trkpt>
      <trkpt lat="45.78389" lon="4.84887">
        <ele>169</ele>
        <time>2016-09-13T05:35:41Z</time>
      </trkpt>
      <trkpt lat="45.78394" lon="4.84898">
        <ele>167</ele>
        <time>2016-09-13T05:35:47Z</time>
      </trkpt>
      <trkpt lat="45.784" lon="4.84908">
        <ele>168</ele>
        <time>2016-09-13T05:35:53Z</time>
      </trkpt>
      <trkpt lat="45.78412" lon="4.84927">
        <ele>169</ele>
        <time>2016-09-13T05:36:03Z</time>
      </trkpt>
      <trkpt lat="45.78415" lon="4.8493">
        <ele>168</ele>
        <time>2016-09-13T05:36:05Z</time>
      </trkpt>
      <trkpt lat="45.78424" lon="4.84944">
        <ele>168</ele>
        <time>2016-09-13T05:36:12Z</time>
      </trkpt>
      <trkpt lat="45.7843" lon="4.84954">
        <ele>167</ele>
        <time>2016-09-13T05:36:17Z</time>
      </trkpt>
      <trkpt lat="45.78436" lon="4.84966">
        <ele>167</ele>
        <time>2016-09-13T05:36:23Z</time>
      </trkpt>
      <trkpt lat="45.78443" lon="4.84977">
        <ele>167</ele>
        <time>2016-09-13T05:36:29Z</time>
      </trkpt>
      <trkpt lat="45.7845" lon="4.84987">
        <ele>168</ele>
        <time>2016-09-13T05:36:35Z</time>
      </trkpt>
      <trkpt lat="45.78461" lon="4.85009">
        <ele>169</ele>
        <time>2016-09-13T05:36:45Z</time>
      </trkpt>
      <trkpt lat="45.78463" lon="4.85013">
        <ele>169</ele>
        <time>2016-09-13T05:36:47Z</time>
      </trkpt>
      <trkpt lat="45.78475" lon="4.85032">
        <ele>169</ele>
        <time>2016-09-13T05:36:57Z</time>
      </trkpt>
      <trkpt lat="45.78478" lon="4.8504">
        <ele>170</ele>
        <time>2016-09-13T05:37:01Z</time>
      </trkpt>
      <trkpt lat="45.78483" lon="4.8505">
        <ele>169</ele>
        <time>2016-09-13T05:37:06Z</time>
      </trkpt>
      <trkpt lat="45.78487" lon="4.85061">
        <ele>169</ele>
        <time>2016-09-13T05:37:11Z</time>
      </trkpt>
      <trkpt lat="45.78491" lon="4.85073">
        <ele>169</ele>
        <time>2016-09-13T05:37:17Z</time>
      </trkpt>
      <trkpt lat="45.78497" lon="4.85086">
        <ele>167</ele>
        <time>2016-09-13T05:37:24Z</time>
      </trkpt>
      <trkpt lat="45.78502" lon="4.85096">
        <ele>166</ele>
        <time>2016-09-13T05:37:29Z</time>
      </trkpt>
      <trkpt lat="45.78508" lon="4.85108">
        <ele>164</ele>
        <time>2016-09-13T05:37:35Z</time>
      </trkpt>
      <trkpt lat="45.78518" lon="4.85128">
        <ele>165</ele>
        <time>2016-09-13T05:37:45Z</time>
      </trkpt>
      <trkpt lat="45.7852" lon="4.85134">
        <ele>165</ele>
        <time>2016-09-13T05:37:48Z</time>
      </trkpt>
      <trkpt lat="45.78525" lon="4.85144">
        <ele>166</ele>
        <time>2016-09-13T05:37:53Z</time>
      </trkpt>
      <trkpt lat="45.78529" lon="4.85157">
        <ele>165</ele>
        <time>2016-09-13T05:37:59Z</time>
      </trkpt>
      <trkpt lat="45.78534" lon="4.85168">
        <ele>163</ele>
        <time>2016-09-13T05:38:05Z</time>
      </trkpt>
      <trkpt lat="45.7854" lon="4.85189">
        <ele>166</ele>
        <time>2016-09-13T05:38:14Z</time>
      </trkpt>
      <trkpt lat="45.78544" lon="4.85198">
        <ele>165</ele>
        <time>2016-09-13T05:38:18Z</time>
      </trkpt>
      <trkpt lat="45.78548" lon="4.85208">
        <ele>165</ele>
        <time>2016-09-13T05:38:23Z</time>
      </trkpt>
      <trkpt lat="45.78552" lon="4.85223">
        <ele>165</ele>
        <time>2016-09-13T05:38:29Z</time>
      </trkpt>
      <trkpt lat="45.78557" lon="4.85236">
        <ele>165</ele>
        <time>2016-09-13T05:38:35Z</time>
      </trkpt>
      <trkpt lat="45.78565" lon="4.85255">
        <ele>167</ele>
        <time>2016-09-13T05:38:43Z</time>
      </trkpt>
      <trkpt lat="45.78566" lon="4.85264">
        <ele>166</ele>
        <time>2016-09-13T05:38:47Z</time>
      </trkpt>
      <trkpt lat="45.78569" lon="4.85278">
        <ele>167</ele>
        <time>2016-09-13T05:38:53Z</time>
      </trkpt>
      <trkpt lat="45.78573" lon="4.85291">
        <ele>167</ele>
        <time>2016-09-13T05:38:59Z</time>
      </trkpt>
      <trkpt lat="45.78577" lon="4.85307">
        <ele>165</ele>
        <time>2016-09-13T05:39:06Z</time>
      </trkpt>
      <trkpt lat="45.7858" lon="4.85325">
        <ele>164</ele>
        <time>2016-09-13T05:39:14Z</time>
      </trkpt>
      <trkpt lat="45.78585" lon="4.85339">
        <ele>164</ele>
        <time>2016-09-13T05:39:20Z</time>
      </trkpt>
      <trkpt lat="45.78587" lon="4.85345">
        <ele>165</ele>
        <time>2016-09-13T05:39:23Z</time>
      </trkpt>
      <trkpt lat="45.7859" lon="4.85359">
        <ele>166</ele>
        <time>2016-09-13T05:39:29Z</time>
      </trkpt>
      <trkpt lat="45.78594" lon="4.85376">
        <ele>167</ele>
        <time>2016-09-13T05:39:36Z</time>
      </trkpt>
      <trkpt lat="45.78598" lon="4.85392">
        <ele>167</ele>
        <time>2016-09-13T05:39:43Z</time>
      </trkpt>
      <trkpt lat="45.78601" lon="4.85402">
        <ele>169</ele>
        <time>2016-09-13T05:39:47Z</time>
      </trkpt>
      <trkpt lat="45.78605" lon="4.85425">
        <ele>168</ele>
        <time>2016-09-13T05:39:57Z</time>
      </trkpt>
      <trkpt lat="45.78607" lon="4.85433">
        <ele>169</ele>
        <time>2016-09-13T05:40:00Z</time>
      </trkpt>
      <trkpt lat="45.78611" lon="4.85451">
        <ele>168</ele>
        <time>2016-09-13T05:40:08Z</time>
      </trkpt>
      <trkpt lat="45.78611" lon="4.85457">
        <ele>167</ele>
        <time>2016-09-13T05:40:11Z</time>
      </trkpt>
      <trkpt lat="45.78622" lon="4.85461">
        <ele>170</ele>
        <time>2016-09-13T05:40:21Z</time>
      </trkpt>
      <trkpt lat="45.78629" lon="4.85461">
        <ele>170</ele>
        <time>2016-09-13T05:40:25Z</time>
      </trkpt>
      <trkpt lat="45.78635" lon="4.85461">
        <ele>170</ele>
        <time>2016-09-13T05:40:29Z</time>
      </trkpt>
      <trkpt lat="45.78644" lon="4.8546">
        <ele>171</ele>
        <time>2016-09-13T05:40:35Z</time>
      </trkpt>
      <trkpt lat="45.78655" lon="4.85456">
        <ele>174</ele>
        <time>2016-09-13T05:40:42Z</time>
      </trkpt>
      <trkpt lat="45.78664" lon="4.85454">
        <ele>174</ele>
        <time>2016-09-13T05:40:47Z</time>
      </trkpt>
      <trkpt lat="45.78674" lon="4.85451">
        <ele>173</ele>
        <time>2016-09-13T05:40:53Z</time>
      </trkpt>
      <trkpt lat="45.78684" lon="4.85451">
        <ele>174</ele>
        <time>2016-09-13T05:40:59Z</time>
      </trkpt>
      <trkpt lat="45.78694" lon="4.85451">
        <ele>175</ele>
        <time>2016-09-13T05:41:05Z</time>
      </trkpt>
      <trkpt lat="45.78704" lon="4.85448">
        <ele>174</ele>
        <time>2016-09-13T05:41:11Z</time>
      </trkpt>
      <trkpt lat="45.78713" lon="4.85445">
        <ele>175</ele>
        <time>2016-09-13T05:41:17Z</time>
      </trkpt>
      <trkpt lat="45.78723" lon="4.85443">
        <ele>175</ele>
        <time>2016-09-13T05:41:23Z</time>
      </trkpt>
      <trkpt lat="45.78734" lon="4.85442">
        <ele>174</ele>
        <time>2016-09-13T05:41:29Z</time>
      </trkpt>
      <trkpt lat="45.78744" lon="4.85441">
        <ele>174</ele>
        <time>2016-09-13T05:41:35Z</time>
      </trkpt>
      <trkpt lat="45.78753" lon="4.85439">
        <ele>174</ele>
        <time>2016-09-13T05:41:41Z</time>
      </trkpt>
      <trkpt lat="45.78763" lon="4.85437">
        <ele>175</ele>
        <time>2016-09-13T05:41:47Z</time>
      </trkpt>
      <trkpt lat="45.78772" lon="4.85435">
        <ele>175</ele>
        <time>2016-09-13T05:41:53Z</time>
      </trkpt>
      <trkpt lat="45.78782" lon="4.85432">
        <ele>175</ele>
        <time>2016-09-13T05:41:59Z</time>
      </trkpt>
      <trkpt lat="45.78793" lon="4.85431">
        <ele>175</ele>
        <time>2016-09-13T05:42:05Z</time>
      </trkpt>
      <trkpt lat="45.78803" lon="4.85427">
        <ele>174</ele>
        <time>2016-09-13T05:42:11Z</time>
      </trkpt>
      <trkpt lat="45.78811" lon="4.85419">
        <ele>174</ele>
        <time>2016-09-13T05:42:17Z</time>
      </trkpt>
      <trkpt lat="45.78816" lon="4.85412">
        <ele>177</ele>
        <time>2016-09-13T05:42:25Z</time>
      </trkpt>
      <trkpt lat="45.78817" lon="4.85411">
        <ele>176</ele>
        <time>2016-09-13T05:42:30Z</time>
      </trkpt>
      <trkpt lat="45.78824" lon="4.85407">
        <ele>176</ele>
        <time>2016-09-13T05:42:35Z</time>
      </trkpt>
      <trkpt lat="45.78833" lon="4.854">
        <ele>175</ele>
        <time>2016-09-13T05:42:41Z</time>
      </trkpt>
      <trkpt lat="45.7884" lon="4.85392">
        <ele>174</ele>
        <time>2016-09-13T05:42:47Z</time>
      </trkpt>
      <trkpt lat="45.78843" lon="4.85378">
        <ele>175</ele>
        <time>2016-09-13T05:42:53Z</time>
      </trkpt>
      <trkpt lat="45.78846" lon="4.85366">
        <ele>177</ele>
        <time>2016-09-13T05:43:01Z</time>
      </trkpt>
      <trkpt lat="45.78847" lon="4.85358">
        <ele>177</ele>
        <time>2016-09-13T05:43:05Z</time>
      </trkpt>
      <trkpt lat="45.78853" lon="4.85343">
        <ele>176</ele>
        <time>2016-09-13T05:43:13Z</time>
      </trkpt>
      <trkpt lat="45.78858" lon="4.85328">
        <ele>178</ele>
        <time>2016-09-13T05:43:20Z</time>
      </trkpt>
      <trkpt lat="45.7886" lon="4.85323">
        <ele>176</ele>
        <time>2016-09-13T05:43:23Z</time>
      </trkpt>
      <trkpt lat="45.78864" lon="4.85311">
        <ele>176</ele>
        <time>2016-09-13T05:43:29Z</time>
      </trkpt>
      <trkpt lat="45.7887" lon="4.85297">
        <ele>180</ele>
        <time>2016-09-13T05:43:35Z</time>
      </trkpt>
      <trkpt lat="45.78887" lon="4.85286">
        <ele>179</ele>
        <time>2016-09-13T05:43:46Z</time>
      </trkpt>
      <trkpt lat="45.78893" lon="4.85288">
        <ele>179</ele>
        <time>2016-09-13T05:43:48Z</time>
      </trkpt>
      <trkpt lat="45.78908" lon="4.85289">
        <ele>176</ele>
        <time>2016-09-13T05:43:56Z</time>
      </trkpt>
      <trkpt lat="45.78909" lon="4.85282">
        <ele>185</ele>
        <time>2016-09-13T05:44:01Z</time>
      </trkpt>
      <trkpt lat="45.78915" lon="4.85282">
        <ele>187</ele>
        <time>2016-09-13T05:44:06Z</time>
      </trkpt>
      <trkpt lat="45.78929" lon="4.85284">
        <ele>185</ele>
        <time>2016-09-13T05:44:16Z</time>
      </trkpt>
      <trkpt lat="45.78931" lon="4.85284">
        <ele>188</ele>
        <time>2016-09-13T05:44:18Z</time>
      </trkpt>
      <trkpt lat="45.78937" lon="4.85281">
        <ele>186</ele>
        <time>2016-09-13T05:44:24Z</time>
      </trkpt>
      <trkpt lat="45.78948" lon="4.85273">
        <ele>184</ele>
        <time>2016-09-13T05:44:30Z</time>
      </trkpt>
      <trkpt lat="45.78952" lon="4.85255">
        <ele>183</ele>
        <time>2016-09-13T05:44:37Z</time>
      </trkpt>
      <trkpt lat="45.78943" lon="4.85249">
        <ele>183</ele>
        <time>2016-09-13T05:44:42Z</time>
      </trkpt>
      <trkpt lat="45.78932" lon="4.8523">
        <ele>198</ele>
        <time>2016-09-13T05:44:52Z</time>
      </trkpt>
      <trkpt lat="45.78932" lon="4.85214">
        <ele>198</ele>
        <time>2016-09-13T05:44:59Z</time>
      </trkpt>
      <trkpt lat="45.78932" lon="4.85211">
        <ele>198</ele>
        <time>2016-09-13T05:45:00Z</time>
      </trkpt>
      <trkpt lat="45.78928" lon="4.85199">
        <ele>201</ele>
        <time>2016-09-13T05:45:06Z</time>
      </trkpt>
      <trkpt lat="45.78924" lon="4.85186">
        <ele>202</ele>
        <time>2016-09-13T05:45:13Z</time>
      </trkpt>
      <trkpt lat="45.78923" lon="4.85173">
        <ele>205</ele>
        <time>2016-09-13T05:45:18Z</time>
      </trkpt>
      <trkpt lat="45.7892" lon="4.8516">
        <ele>208</ele>
        <time>2016-09-13T05:45:24Z</time>
      </trkpt>
      <trkpt lat="45.78918" lon="4.85139">
        <ele>209</ele>
        <time>2016-09-13T05:45:33Z</time>
      </trkpt>
      <trkpt lat="45.78915" lon="4.85126">
        <ele>207</ele>
        <time>2016-09-13T05:45:40Z</time>
      </trkpt>
      <trkpt lat="45.78911" lon="4.85115">
        <ele>206</ele>
        <time>2016-09-13T05:45:45Z</time>
      </trkpt>
      <trkpt lat="45.78908" lon="4.85106">
        <ele>207</ele>
        <time>2016-09-13T05:45:50Z</time>
      </trkpt>
      <trkpt lat="45.78906" lon="4.85098">
        <ele>206</ele>
        <time>2016-09-13T05:45:54Z</time>
      </trkpt>
      <trkpt lat="45.78901" lon="4.85077">
        <ele>211</ele>
        <time>2016-09-13T05:46:04Z</time>
      </trkpt>
      <trkpt lat="45.789" lon="4.85073">
        <ele>210</ele>
        <time>2016-09-13T05:46:06Z</time>
      </trkpt>
      <trkpt lat="45.78897" lon="4.85059">
        <ele>212</ele>
        <time>2016-09-13T05:46:12Z</time>
      </trkpt>
      <trkpt lat="45.78904" lon="4.85047">
        <ele>215</ele>
        <time>2016-09-13T05:46:18Z</time>
      </trkpt>
      <trkpt lat="45.78914" lon="4.85033">
        <ele>221</ele>
        <time>2016-09-13T05:46:25Z</time>
      </trkpt>
      <trkpt lat="45.78912" lon="4.85025">
        <ele>223</ele>
        <time>2016-09-13T05:46:30Z</time>
      </trkpt>
      <trkpt lat="45.78922" lon="4.8501">
        <ele>223</ele>
        <time>2016-09-13T05:46:38Z</time>
      </trkpt>
      <trkpt lat="45.78934" lon="4.84995">
        <ele>227</ele>
        <time>2016-09-13T05:46:47Z</time>
      </trkpt>
      <trkpt lat="45.78936" lon="4.84995">
        <ele>228</ele>
        <time>2016-09-13T05:46:49Z</time>
      </trkpt>
      <trkpt lat="45.78949" lon="4.84991">
        <ele>224</ele>
        <time>2016-09-13T05:46:58Z</time>
      </trkpt>
      <trkpt lat="45.78948" lon="4.84986">
        <ele>221</ele>
        <time>2016-09-13T05:47:05Z</time>
      </trkpt>
      <trkpt lat="45.78944" lon="4.84986">
        <ele>224</ele>
        <time>2016-09-13T05:47:07Z</time>
      </trkpt>
      <trkpt lat="45.78924" lon="4.84987">
        <ele>228</ele>
        <time>2016-09-13T05:47:17Z</time>
      </trkpt>
      <trkpt lat="45.78919" lon="4.84979">
        <ele>233</ele>
        <time>2016-09-13T05:47:22Z</time>
      </trkpt>
      <trkpt lat="45.78918" lon="4.84972">
        <ele>234</ele>
        <time>2016-09-13T05:47:25Z</time>
      </trkpt>
      <trkpt lat="45.78919" lon="4.84959">
        <ele>235</ele>
        <time>2016-09-13T05:47:31Z</time>
      </trkpt>
      <trkpt lat="45.78922" lon="4.84947">
        <ele>238</ele>
        <time>2016-09-13T05:47:37Z</time>
      </trkpt>
      <trkpt lat="45.78923" lon="4.84936">
        <ele>240</ele>
        <time>2016-09-13T05:47:43Z</time>
      </trkpt>
      <trkpt lat="45.78923" lon="4.84921">
        <ele>243</ele>
        <time>2016-09-13T05:47:50Z</time>
      </trkpt>
      <trkpt lat="45.78925" lon="4.84904">
        <ele>249</ele>
        <time>2016-09-13T05:47:58Z</time>
      </trkpt>
      <trkpt lat="45.78922" lon="4.84894">
        <ele>248</ele>
        <time>2016-09-13T05:48:02Z</time>
      </trkpt>
      <trkpt lat="45.78923" lon="4.8488">
        <ele>251</ele>
        <time>2016-09-13T05:48:07Z</time>
      </trkpt>
      <trkpt lat="45.78933" lon="4.84874">
        <ele>248</ele>
        <time>2016-09-13T05:48:13Z</time>
      </trkpt>
      <trkpt lat="45.78937" lon="4.84867">
        <ele>248</ele>
        <time>2016-09-13T05:48:19Z</time>
      </trkpt>
      <trkpt lat="45.78933" lon="4.8485">
        <ele>248</ele>
        <time>2016-09-13T05:48:26Z</time>
      </trkpt>
      <trkpt lat="45.78932" lon="4.84827">
        <ele>251</ele>
        <time>2016-09-13T05:48:35Z</time>
      </trkpt>
      <trkpt lat="45.78935" lon="4.8481">
        <ele>253</ele>
        <time>2016-09-13T05:48:42Z</time>
      </trkpt>
      <trkpt lat="45.78934" lon="4.84808">
        <ele>252</ele>
        <time>2016-09-13T05:48:43Z</time>
      </trkpt>
      <trkpt lat="45.78936" lon="4.84794">
        <ele>253</ele>
        <time>2016-09-13T05:48:49Z</time>
      </trkpt>
      <trkpt lat="45.78934" lon="4.84778">
        <ele>252</ele>
        <time>2016-09-13T05:48:56Z</time>
      </trkpt>
      <trkpt lat="45.78933" lon="4.84762">
        <ele>252</ele>
        <time>2016-09-13T05:49:02Z</time>
      </trkpt>
      <trkpt lat="45.78937" lon="4.84751">
        <ele>252</ele>
        <time>2016-09-13T05:49:07Z</time>
      </trkpt>
      <trkpt lat="45.78939" lon="4.84735">
        <ele>252</ele>
        <time>2016-09-13T05:49:14Z</time>
      </trkpt>
      <trkpt lat="45.78939" lon="4.84718">
        <ele>253</ele>
        <time>2016-09-13T05:49:21Z</time>
      </trkpt>
      <trkpt lat="45.78938" lon="4.84706">
        <ele>255</ele>
        <time>2016-09-13T05:49:26Z</time>
      </trkpt>
      <trkpt lat="45.78937" lon="4.84694">
        <ele>254</ele>
        <time>2016-09-13T05:49:31Z</time>
      </trkpt>
      <trkpt lat="45.78937" lon="4.84675">
        <ele>253</ele>
        <time>2016-09-13T05:49:39Z</time>
      </trkpt>
      <trkpt lat="45.78937" lon="4.84665">
        <ele>253</ele>
        <time>2016-09-13T05:49:43Z</time>
      </trkpt>
      <trkpt lat="45.78935" lon="4.84643">
        <ele>254</ele>
        <time>2016-09-13T05:49:52Z</time>
      </trkpt>
      <trkpt lat="45.78935" lon="4.84635">
        <ele>254</ele>
        <time>2016-09-13T05:49:55Z</time>
      </trkpt>
      <trkpt lat="45.78931" lon="4.84611">
        <ele>251</ele>
        <time>2016-09-13T05:50:05Z</time>
      </trkpt>
      <trkpt lat="45.78929" lon="4.84599">
        <ele>252</ele>
        <time>2016-09-13T05:50:10Z</time>
      </trkpt>
      <trkpt lat="45.78928" lon="4.84592">
        <ele>251</ele>
        <time>2016-09-13T05:50:13Z</time>
      </trkpt>
      <trkpt lat="45.78921" lon="4.84568">
        <ele>249</ele>
        <time>2016-09-13T05:50:23Z</time>
      </trkpt>
      <trkpt lat="45.78918" lon="4.84561">
        <ele>249</ele>
        <time>2016-09-13T05:50:26Z</time>
      </trkpt>
      <trkpt lat="45.78914" lon="4.84551">
        <ele>248</ele>
        <time>2016-09-13T05:50:31Z</time>
      </trkpt>
      <trkpt lat="45.7891" lon="4.84534">
        <ele>250</ele>
        <time>2016-09-13T05:50:39Z</time>
      </trkpt>
      <trkpt lat="45.78905" lon="4.84527">
        <ele>247</ele>
        <time>2016-09-13T05:50:43Z</time>
      </trkpt>
      <trkpt lat="45.78897" lon="4.84515">
        <ele>246</ele>
        <time>2016-09-13T05:50:49Z</time>
      </trkpt>
      <trkpt lat="45.78893" lon="4.84501">
        <ele>248</ele>
        <time>2016-09-13T05:50:56Z</time>
      </trkpt>
      <trkpt lat="45.78885" lon="4.84482">
        <ele>248</ele>
        <time>2016-09-13T05:51:05Z</time>
      </trkpt>
      <trkpt lat="45.78883" lon="4.84478">
        <ele>247</ele>
        <time>2016-09-13T05:51:07Z</time>
      </trkpt>
      <trkpt lat="45.78873" lon="4.84464">
        <ele>249</ele>
        <time>2016-09-13T05:51:15Z</time>
      </trkpt>
      <trkpt lat="45.78862" lon="4.84452">
        <ele>249</ele>
        <time>2016-09-13T05:51:23Z</time>
      </trkpt>
      <trkpt lat="45.78857" lon="4.84448">
        <ele>249</ele>
        <time>2016-09-13T05:51:26Z</time>
      </trkpt>
      <trkpt lat="45.78847" lon="4.84435">
        <ele>249</ele>
        <time>2016-09-13T05:51:34Z</time>
      </trkpt>
      <trkpt lat="45.78843" lon="4.84423">
        <ele>251</ele>
        <time>2016-09-13T05:51:40Z</time>
      </trkpt>
      <trkpt lat="45.7884" lon="4.84417">
        <ele>249</ele>
        <time>2016-09-13T05:51:43Z</time>
      </trkpt>
      <trkpt lat="45.78834" lon="4.844">
        <ele>251</ele>
        <time>2016-09-13T05:51:52Z</time>
      </trkpt>
      <trkpt lat="45.78831" lon="4.84393">
        <ele>250</ele>
        <time>2016-09-13T05:51:55Z</time>
      </trkpt>
      <trkpt lat="45.78826" lon="4.84378">
        <ele>252</ele>
        <time>2016-09-13T05:52:02Z</time>
      </trkpt>
      <trkpt lat="45.78819" lon="4.8437">
        <ele>251</ele>
        <time>2016-09-13T05:52:07Z</time>
      </trkpt>
      <trkpt lat="45.7881" lon="4.84351">
        <ele>252</ele>
        <time>2016-09-13T05:52:18Z</time>
      </trkpt>
      <trkpt lat="45.78809" lon="4.84349">
        <ele>253</ele>
        <time>2016-09-13T05:52:19Z</time>
      </trkpt>
      <trkpt lat="45.78813" lon="4.84336">
        <ele>252</ele>
        <time>2016-09-13T05:52:25Z</time>
      </trkpt>
      <trkpt lat="45.78825" lon="4.84319">
        <ele>258</ele>
        <time>2016-09-13T05:52:34Z</time>
      </trkpt>
      <trkpt lat="45.78826" lon="4.84312">
        <ele>256</ele>
        <time>2016-09-13T05:52:37Z</time>
      </trkpt>
      <trkpt lat="45.78833" lon="4.84302">
        <ele>255</ele>
        <time>2016-09-13T05:52:43Z</time>
      </trkpt>
      <trkpt lat="45.78847" lon="4.84288">
        <ele>254</ele>
        <time>2016-09-13T05:52:54Z</time>
      </trkpt>
      <trkpt lat="45.78853" lon="4.8428">
        <ele>256</ele>
        <time>2016-09-13T05:52:59Z</time>
      </trkpt>
      <trkpt lat="45.78856" lon="4.84276">
        <ele>256</ele>
        <time>2016-09-13T05:53:01Z</time>
      </trkpt>
      <trkpt lat="45.78863" lon="4.84265">
        <ele>257</ele>
        <time>2016-09-13T05:53:07Z</time>
      </trkpt>
      <trkpt lat="45.78871" lon="4.84255">
        <ele>257</ele>
        <time>2016-09-13T05:53:13Z</time>
      </trkpt>
      <trkpt lat="45.78878" lon="4.84244">
        <ele>256</ele>
        <time>2016-09-13T05:53:19Z</time>
      </trkpt>
      <trkpt lat="45.78886" lon="4.84233">
        <ele>256</ele>
        <time>2016-09-13T05:53:26Z</time>
      </trkpt>
      <trkpt lat="45.78897" lon="4.84215">
        <ele>253</ele>
        <time>2016-09-13T05:53:36Z</time>
      </trkpt>
      <trkpt lat="45.78899" lon="4.84214">
        <ele>253</ele>
        <time>2016-09-13T05:53:37Z</time>
      </trkpt>
      <trkpt lat="45.7891" lon="4.84198">
        <ele>256</ele>
        <time>2016-09-13T05:53:46Z</time>
      </trkpt>
      <trkpt lat="45.78914" lon="4.84192">
        <ele>257</ele>
        <time>2016-09-13T05:53:49Z</time>
      </trkpt>
      <trkpt lat="45.78921" lon="4.84181">
        <ele>256</ele>
        <time>2016-09-13T05:53:55Z</time>
      </trkpt>
      <trkpt lat="45.78929" lon="4.84172">
        <ele>252</ele>
        <time>2016-09-13T05:54:02Z</time>
      </trkpt>
      <trkpt lat="45.78935" lon="4.84166">
        <ele>249</ele>
        <time>2016-09-13T05:54:07Z</time>
      </trkpt>
      <trkpt lat="45.78942" lon="4.84155">
        <ele>251</ele>
        <time>2016-09-13T05:54:13Z</time>
      </trkpt>
      <trkpt lat="45.7895" lon="4.84144">
        <ele>249</ele>
        <time>2016-09-13T05:54:19Z</time>
      </trkpt>
      <trkpt lat="45.78961" lon="4.8413">
        <ele>247</ele>
        <time>2016-09-13T05:54:28Z</time>
      </trkpt>
      <trkpt lat="45.78971" lon="4.84121">
        <ele>247</ele>
        <time>2016-09-13T05:54:35Z</time>
      </trkpt>
      <trkpt lat="45.78974" lon="4.84123">
        <ele>249</ele>
        <time>2016-09-13T05:54:37Z</time>
      </trkpt>
      <trkpt lat="45.78982" lon="4.84118">
        <ele>248</ele>
        <time>2016-09-13T05:54:44Z</time>
      </trkpt>
      <trkpt lat="45.78982" lon="4.84103">
        <ele>248</ele>
        <time>2016-09-13T05:54:50Z</time>
      </trkpt>
      <trkpt lat="45.78986" lon="4.84092">
        <ele>248</ele>
        <time>2016-09-13T05:54:55Z</time>
      </trkpt>
      <trkpt lat="45.78993" lon="4.8408">
        <ele>247</ele>
        <time>2016-09-13T05:55:01Z</time>
      </trkpt>
      <trkpt lat="45.79" lon="4.84069">
        <ele>248</ele>
        <time>2016-09-13T05:55:07Z</time>
      </trkpt>
      <trkpt lat="45.79006" lon="4.84057">
        <ele>244</ele>
        <time>2016-09-13T05:55:13Z</time>
      </trkpt>
      <trkpt lat="45.79012" lon="4.84048">
        <ele>245</ele>
        <time>2016-09-13T05:55:19Z</time>
      </trkpt>
      <trkpt lat="45.79024" lon="4.8403">
        <ele>251</ele>
        <time>2016-09-13T05:55:29Z</time>
      </trkpt>
      <trkpt lat="45.79027" lon="4.84025">
        <ele>250</ele>
        <time>2016-09-13T05:55:31Z</time>
      </trkpt>
      <trkpt lat="45.79035" lon="4.84001">
        <ele>256</ele>
        <time>2016-09-13T05:55:40Z</time>
      </trkpt>
      <trkpt lat="45.79042" lon="4.83992">
        <ele>260</ele>
        <time>2016-09-13T05:55:45Z</time>
      </trkpt>
      <trkpt lat="45.79046" lon="4.83984">
        <ele>259</ele>
        <time>2016-09-13T05:55:49Z</time>
      </trkpt>
      <trkpt lat="45.79052" lon="4.83974">
        <ele>256</ele>
        <time>2016-09-13T05:55:55Z</time>
      </trkpt>
      <trkpt lat="45.79061" lon="4.83963">
        <ele>252</ele>
        <time>2016-09-13T05:56:03Z</time>
      </trkpt>
      <trkpt lat="45.79071" lon="4.83948">
        <ele>248</ele>
        <time>2016-09-13T05:56:12Z</time>
      </trkpt>
      <trkpt lat="45.79073" lon="4.83944">
        <ele>245</ele>
        <time>2016-09-13T05:56:14Z</time>
      </trkpt>
      <trkpt lat="45.79078" lon="4.83934">
        <ele>243</ele>
        <time>2016-09-13T05:56:20Z</time>
      </trkpt>
      <trkpt lat="45.79084" lon="4.83925">
        <ele>243</ele>
        <time>2016-09-13T05:56:25Z</time>
      </trkpt>
      <trkpt lat="45.79091" lon="4.83915">
        <ele>243</ele>
        <time>2016-09-13T05:56:31Z</time>
      </trkpt>
      <trkpt lat="45.79098" lon="4.83899">
        <ele>243</ele>
        <time>2016-09-13T05:56:38Z</time>
      </trkpt>
      <trkpt lat="45.79105" lon="4.83888">
        <ele>244</ele>
        <time>2016-09-13T05:56:44Z</time>
      </trkpt>
      <trkpt lat="45.7911" lon="4.8388">
        <ele>241</ele>
        <time>2016-09-13T05:56:49Z</time>
      </trkpt>
      <trkpt lat="45.79115" lon="4.83869">
        <ele>239</ele>
        <time>2016-09-13T05:56:55Z</time>
      </trkpt>
      <trkpt lat="45.79124" lon="4.83847">
        <ele>242</ele>
        <time>2016-09-13T05:57:06Z</time>
      </trkpt>
      <trkpt lat="45.79125" lon="4.83845">
        <ele>241</ele>
        <time>2016-09-13T05:57:07Z</time>
      </trkpt>
      <trkpt lat="45.79133" lon="4.83827">
        <ele>244</ele>
        <time>2016-09-13T05:57:15Z</time>
      </trkpt>
      <trkpt lat="45.79138" lon="4.83817">
        <ele>242</ele>
        <time>2016-09-13T05:57:20Z</time>
      </trkpt>
      <trkpt lat="45.79143" lon="4.83807">
        <ele>242</ele>
        <time>2016-09-13T05:57:25Z</time>
      </trkpt>
      <trkpt lat="45.79151" lon="4.8379">
        <ele>239</ele>
        <time>2016-09-13T05:57:34Z</time>
      </trkpt>
      <trkpt lat="45.79153" lon="4.83784">
        <ele>241</ele>
        <time>2016-09-13T05:57:37Z</time>
      </trkpt>
      <trkpt lat="45.79159" lon="4.83772">
        <ele>241</ele>
        <time>2016-09-13T05:57:43Z</time>
      </trkpt>
      <trkpt lat="45.79165" lon="4.83761">
        <ele>241</ele>
        <time>2016-09-13T05:57:49Z</time>
      </trkpt>
      <trkpt lat="45.79165" lon="4.83762">
        <ele>241</ele>
        <time>2016-09-13T05:57:55Z</time>
      </trkpt>
      <trkpt lat="45.79168" lon="4.83758">
        <ele>239</ele>
        <time>2016-09-13T05:58:01Z</time>
      </trkpt>
      <trkpt lat="45.79174" lon="4.83734">
        <ele>237</ele>
        <time>2016-09-13T05:58:12Z</time>
      </trkpt>
      <trkpt lat="45.79176" lon="4.8373">
        <ele>236</ele>
        <time>2016-09-13T05:58:14Z</time>
      </trkpt>
      <trkpt lat="45.79181" lon="4.8371">
        <ele>237</ele>
        <time>2016-09-13T05:58:23Z</time>
      </trkpt>
      <trkpt lat="45.79182" lon="4.83705">
        <ele>238</ele>
        <time>2016-09-13T05:58:25Z</time>
      </trkpt>
      <trkpt lat="45.79187" lon="4.83684">
        <ele>236</ele>
        <time>2016-09-13T05:58:34Z</time>
      </trkpt>
      <trkpt lat="45.79189" lon="4.83675">
        <ele>236</ele>
        <time>2016-09-13T05:58:38Z</time>
      </trkpt>
      <trkpt lat="45.7919" lon="4.83661">
        <ele>235</ele>
        <time>2016-09-13T05:58:44Z</time>
      </trkpt>
      <trkpt lat="45.7919" lon="4.83649">
        <ele>235</ele>
        <time>2016-09-13T05:58:49Z</time>
      </trkpt>
      <trkpt lat="45.79193" lon="4.83637">
        <ele>233</ele>
        <time>2016-09-13T05:58:55Z</time>
      </trkpt>
      <trkpt lat="45.792" lon="4.8362">
        <ele>234</ele>
        <time>2016-09-13T05:59:03Z</time>
      </trkpt>
      <trkpt lat="45.79204" lon="4.83598">
        <ele>238</ele>
        <time>2016-09-13T05:59:12Z</time>
      </trkpt>
      <trkpt lat="45.79203" lon="4.83594">
        <ele>238</ele>
        <time>2016-09-13T05:59:14Z</time>
      </trkpt>
      <trkpt lat="45.79203" lon="4.83579">
        <ele>235</ele>
        <time>2016-09-13T05:59:21Z</time>
      </trkpt>
      <trkpt lat="45.79204" lon="4.83557">
        <ele>234</ele>
        <time>2016-09-13T05:59:30Z</time>
      </trkpt>
      <trkpt lat="45.79203" lon="4.83547">
        <ele>234</ele>
        <time>2016-09-13T05:59:34Z</time>
      </trkpt>
      <trkpt lat="45.79203" lon="4.8354">
        <ele>233</ele>
        <time>2016-09-13T05:59:37Z</time>
      </trkpt>
      <trkpt lat="45.79204" lon="4.83515">
        <ele>235</ele>
        <time>2016-09-13T05:59:47Z</time>
      </trkpt>
      <trkpt lat="45.79205" lon="4.8351">
        <ele>234</ele>
        <time>2016-09-13T05:59:49Z</time>
      </trkpt>
      <trkpt lat="45.79211" lon="4.83499">
        <ele>234</ele>
        <time>2016-09-13T05:59:55Z</time>
      </trkpt>
      <trkpt lat="45.79217" lon="4.83487">
        <ele>237</ele>
        <time>2016-09-13T06:00:01Z</time>
      </trkpt>
      <trkpt lat="45.79234" lon="4.83465">
        <ele>237</ele>
        <time>2016-09-13T06:00:12Z</time>
      </trkpt>
      <trkpt lat="45.79245" lon="4.83465">
        <ele>235</ele>
        <time>2016-09-13T06:00:18Z</time>
      </trkpt>
      <trkpt lat="45.79246" lon="4.83465">
        <ele>233</ele>
        <time>2016-09-13T06:00:19Z</time>
      </trkpt>
      <trkpt lat="45.79255" lon="4.83459">
        <ele>232</ele>
        <time>2016-09-13T06:00:25Z</time>
      </trkpt>
      <trkpt lat="45.79271" lon="4.8344">
        <ele>232</ele>
        <time>2016-09-13T06:00:36Z</time>
      </trkpt>
      <trkpt lat="45.79274" lon="4.83437">
        <ele>229</ele>
        <time>2016-09-13T06:00:38Z</time>
      </trkpt>
      <trkpt lat="45.7928" lon="4.83428">
        <ele>228</ele>
        <time>2016-09-13T06:00:43Z</time>
      </trkpt>
      <trkpt lat="45.79288" lon="4.83418">
        <ele>227</ele>
        <time>2016-09-13T06:00:49Z</time>
      </trkpt>
      <trkpt lat="45.79295" lon="4.83408">
        <ele>224</ele>
        <time>2016-09-13T06:00:56Z</time>
      </trkpt>
      <trkpt lat="45.79301" lon="4.83403">
        <ele>220</ele>
        <time>2016-09-13T06:01:01Z</time>
      </trkpt>
      <trkpt lat="45.79305" lon="4.83394">
        <ele>222</ele>
        <time>2016-09-13T06:01:07Z</time>
      </trkpt>
      <trkpt lat="45.79319" lon="4.83381">
        <ele>225</ele>
        <time>2016-09-13T06:01:17Z</time>
      </trkpt>
      <trkpt lat="45.79323" lon="4.8338">
        <ele>228</ele>
        <time>2016-09-13T06:01:19Z</time>
      </trkpt>
      <trkpt lat="45.79334" lon="4.83378">
        <ele>227</ele>
        <time>2016-09-13T06:01:25Z</time>
      </trkpt>
      <trkpt lat="45.79353" lon="4.83366">
        <ele>231</ele>
        <time>2016-09-13T06:01:33Z</time>
      </trkpt>
      <trkpt lat="45.7936" lon="4.83359">
        <ele>228</ele>
        <time>2016-09-13T06:01:37Z</time>
      </trkpt>
      <trkpt lat="45.79366" lon="4.8335">
        <ele>227</ele>
        <time>2016-09-13T06:01:43Z</time>
      </trkpt>
      <trkpt lat="45.79372" lon="4.83339">
        <ele>227</ele>
        <time>2016-09-13T06:01:49Z</time>
      </trkpt>
      <trkpt lat="45.79381" lon="4.8333">
        <ele>225</ele>
        <time>2016-09-13T06:01:55Z</time>
      </trkpt>
      <trkpt lat="45.79398" lon="4.83335">
        <ele>227</ele>
        <time>2016-09-13T06:02:04Z</time>
      </trkpt>
      <trkpt lat="45.79421" lon="4.83335">
        <ele>229</ele>
        <time>2016-09-13T06:02:09Z</time>
      </trkpt>
      <trkpt lat="45.79435" lon="4.83304">
        <ele>225</ele>
        <time>2016-09-13T06:02:18Z</time>
      </trkpt>
      <trkpt lat="45.79432" lon="4.83297">
        <ele>224</ele>
        <time>2016-09-13T06:02:20Z</time>
      </trkpt>
      <trkpt lat="45.79418" lon="4.83277">
        <ele>218</ele>
        <time>2016-09-13T06:02:26Z</time>
      </trkpt>
      <trkpt lat="45.79422" lon="4.8325">
        <ele>215</ele>
        <time>2016-09-13T06:02:37Z</time>
      </trkpt>
      <trkpt lat="45.7942" lon="4.83246">
        <ele>211</ele>
        <time>2016-09-13T06:02:39Z</time>
      </trkpt>
      <trkpt lat="45.79423" lon="4.83227">
        <ele>209</ele>
        <time>2016-09-13T06:02:49Z</time>
      </trkpt>
      <trkpt lat="45.79423" lon="4.83225">
        <ele>209</ele>
        <time>2016-09-13T06:02:50Z</time>
      </trkpt>
      <trkpt lat="45.79424" lon="4.83209">
        <ele>206</ele>
        <time>2016-09-13T06:02:58Z</time>
      </trkpt>
      <trkpt lat="45.79425" lon="4.832">
        <ele>206</ele>
        <time>2016-09-13T06:03:02Z</time>
      </trkpt>
      <trkpt lat="45.79427" lon="4.83187">
        <ele>204</ele>
        <time>2016-09-13T06:03:08Z</time>
      </trkpt>
      <trkpt lat="45.79436" lon="4.83165">
        <ele>198</ele>
        <time>2016-09-13T06:03:18Z</time>
      </trkpt>
      <trkpt lat="45.79435" lon="4.83156">
        <ele>198</ele>
        <time>2016-09-13T06:03:21Z</time>
      </trkpt>
      <trkpt lat="45.79434" lon="4.83143">
        <ele>196</ele>
        <time>2016-09-13T06:03:26Z</time>
      </trkpt>
      <trkpt lat="45.79435" lon="4.83128">
        <ele>198</ele>
        <time>2016-09-13T06:03:32Z</time>
      </trkpt>
      <trkpt lat="45.79438" lon="4.83114">
        <ele>196</ele>
        <time>2016-09-13T06:03:38Z</time>
      </trkpt>
      <trkpt lat="45.79446" lon="4.83089">
        <ele>195</ele>
        <time>2016-09-13T06:03:49Z</time>
      </trkpt>
      <trkpt lat="45.79446" lon="4.83087">
        <ele>194</ele>
        <time>2016-09-13T06:03:50Z</time>
      </trkpt>
      <trkpt lat="45.79449" lon="4.83062">
        <ele>190</ele>
        <time>2016-09-13T06:04:01Z</time>
      </trkpt>
      <trkpt lat="45.79449" lon="4.8306">
        <ele>189</ele>
        <time>2016-09-13T06:04:02Z</time>
      </trkpt>
      <trkpt lat="45.79449" lon="4.83043">
        <ele>192</ele>
        <time>2016-09-13T06:04:09Z</time>
      </trkpt>
      <trkpt lat="45.79453" lon="4.83032">
        <ele>194</ele>
        <time>2016-09-13T06:04:14Z</time>
      </trkpt>
      <trkpt lat="45.79451" lon="4.83008">
        <ele>190</ele>
        <time>2016-09-13T06:04:24Z</time>
      </trkpt>
      <trkpt lat="45.79444" lon="4.82995">
        <ele>185</ele>
        <time>2016-09-13T06:04:30Z</time>
      </trkpt>
      <trkpt lat="45.79441" lon="4.8299">
        <ele>185</ele>
        <time>2016-09-13T06:04:32Z</time>
      </trkpt>
      <trkpt lat="45.79433" lon="4.82972">
        <ele>183</ele>
        <time>2016-09-13T06:04:40Z</time>
      </trkpt>
      <trkpt lat="45.79426" lon="4.82957">
        <ele>183</ele>
        <time>2016-09-13T06:04:47Z</time>
      </trkpt>
      <trkpt lat="45.79428" lon="4.82938">
        <ele>183</ele>
        <time>2016-09-13T06:04:55Z</time>
      </trkpt>
      <trkpt lat="45.79427" lon="4.82934">
        <ele>183</ele>
        <time>2016-09-13T06:04:57Z</time>
      </trkpt>
      <trkpt lat="45.79422" lon="4.82925">
        <ele>183</ele>
        <time>2016-09-13T06:05:02Z</time>
      </trkpt>
      <trkpt lat="45.79416" lon="4.82914">
        <ele>182</ele>
        <time>2016-09-13T06:05:08Z</time>
      </trkpt>
      <trkpt lat="45.7941" lon="4.82901">
        <ele>181</ele>
        <time>2016-09-13T06:05:15Z</time>
      </trkpt>
      <trkpt lat="45.79402" lon="4.8288">
        <ele>177</ele>
        <time>2016-09-13T06:05:25Z</time>
      </trkpt>
      <trkpt lat="45.79401" lon="4.8287">
        <ele>176</ele>
        <time>2016-09-13T06:05:29Z</time>
      </trkpt>
      <trkpt lat="45.79401" lon="4.82862">
        <ele>177</ele>
        <time>2016-09-13T06:05:32Z</time>
      </trkpt>
      <trkpt lat="45.79403" lon="4.82848">
        <ele>175</ele>
        <time>2016-09-13T06:05:38Z</time>
      </trkpt>
      <trkpt lat="45.79409" lon="4.82836">
        <ele>173</ele>
        <time>2016-09-13T06:05:44Z</time>
      </trkpt>
      <trkpt lat="45.79422" lon="4.82819">
        <ele>167</ele>
        <time>2016-09-13T06:05:55Z</time>
      </trkpt>
      <trkpt lat="45.79427" lon="4.82813">
        <ele>165</ele>
        <time>2016-09-13T06:05:59Z</time>
      </trkpt>
      <trkpt lat="45.79435" lon="4.82801">
        <ele>165</ele>
        <time>2016-09-13T06:06:06Z</time>
      </trkpt>
      <trkpt lat="45.79439" lon="4.82799">
        <ele>165</ele>
        <time>2016-09-13T06:06:08Z</time>
      </trkpt>
      <trkpt lat="45.79444" lon="4.828">
        <ele>165</ele>
        <time>2016-09-13T06:06:18Z</time>
      </trkpt>
      <trkpt lat="45.79447" lon="4.82806">
        <ele>164</ele>
        <time>2016-09-13T06:06:24Z</time>
      </trkpt>
      <trkpt lat="45.7945" lon="4.8281">
        <ele>164</ele>
        <time>2016-09-13T06:06:26Z</time>
      </trkpt>
      <trkpt lat="45.79458" lon="4.82814">
        <ele>167</ele>
        <time>2016-09-13T06:06:32Z</time>
      </trkpt>
      <trkpt lat="45.79472" lon="4.82817">
        <ele>170</ele>
        <time>2016-09-13T06:06:41Z</time>
      </trkpt>
      <trkpt lat="45.79475" lon="4.82822">
        <ele>171</ele>
        <time>2016-09-13T06:06:44Z</time>
      </trkpt>
      <trkpt lat="45.79482" lon="4.82832">
        <ele>171</ele>
        <time>2016-09-13T06:06:50Z</time>
      </trkpt>
      <trkpt lat="45.79488" lon="4.82844">
        <ele>171</ele>
        <time>2016-09-13T06:06:56Z</time>
      </trkpt>
      <trkpt lat="45.79494" lon="4.82854">
        <ele>170</ele>
        <time>2016-09-13T06:07:02Z</time>
      </trkpt>
      <trkpt lat="45.79499" lon="4.82865">
        <ele>169</ele>
        <time>2016-09-13T06:07:08Z</time>
      </trkpt>
      <trkpt lat="45.79504" lon="4.82877">
        <ele>169</ele>
        <time>2016-09-13T06:07:14Z</time>
      </trkpt>
      <trkpt lat="45.7951" lon="4.82888">
        <ele>169</ele>
        <time>2016-09-13T06:07:20Z</time>
      </trkpt>
      <trkpt lat="45.79515" lon="4.82901">
        <ele>169</ele>
        <time>2016-09-13T06:07:26Z</time>
      </trkpt>
      <trkpt lat="45.79522" lon="4.82915">
        <ele>169</ele>
        <time>2016-09-13T06:07:33Z</time>
      </trkpt>
      <trkpt lat="45.79526" lon="4.82925">
        <ele>169</ele>
        <time>2016-09-13T06:07:38Z</time>
      </trkpt>
      <trkpt lat="45.79534" lon="4.82942">
        <ele>171</ele>
        <time>2016-09-13T06:07:46Z</time>
      </trkpt>
      <trkpt lat="45.79538" lon="4.82951">
        <ele>170</ele>
        <time>2016-09-13T06:07:50Z</time>
      </trkpt>
      <trkpt lat="45.79544" lon="4.82963">
        <ele>169</ele>
        <time>2016-09-13T06:07:56Z</time>
      </trkpt>
      <trkpt lat="45.79548" lon="4.82976">
        <ele>169</ele>
        <time>2016-09-13T06:08:02Z</time>
      </trkpt>
      <trkpt lat="45.79553" lon="4.82988">
        <ele>169</ele>
        <time>2016-09-13T06:08:08Z</time>
      </trkpt>
      <trkpt lat="45.79561" lon="4.83004">
        <ele>168</ele>
        <time>2016-09-13T06:08:16Z</time>
      </trkpt>
      <trkpt lat="45.79564" lon="4.83012">
        <ele>169</ele>
        <time>2016-09-13T06:08:20Z</time>
      </trkpt>
      <trkpt lat="45.7957" lon="4.83025">
        <ele>169</ele>
        <time>2016-09-13T06:08:26Z</time>
      </trkpt>
      <trkpt lat="45.79575" lon="4.83038">
        <ele>168</ele>
        <time>2016-09-13T06:08:32Z</time>
      </trkpt>
      <trkpt lat="45.79579" lon="4.8305">
        <ele>169</ele>
        <time>2016-09-13T06:08:38Z</time>
      </trkpt>
      <trkpt lat="45.79584" lon="4.83062">
        <ele>169</ele>
        <time>2016-09-13T06:08:44Z</time>
      </trkpt>
      <trkpt lat="45.79589" lon="4.83077">
        <ele>170</ele>
        <time>2016-09-13T06:08:50Z</time>
      </trkpt>
      <trkpt lat="45.79593" lon="4.83095">
        <ele>172</ele>
        <time>2016-09-13T06:08:58Z</time>
      </trkpt>
      <trkpt lat="45.79596" lon="4.83104">
        <ele>172</ele>
        <time>2016-09-13T06:09:02Z</time>
      </trkpt>
      <trkpt lat="45.79599" lon="4.83117">
        <ele>174</ele>
        <time>2016-09-13T06:09:08Z</time>
      </trkpt>
      <trkpt lat="45.79602" lon="4.83131">
        <ele>174</ele>
        <time>2016-09-13T06:09:14Z</time>
      </trkpt>
      <trkpt lat="45.79605" lon="4.83144">
        <ele>174</ele>
        <time>2016-09-13T06:09:20Z</time>
      </trkpt>
      <trkpt lat="45.79606" lon="4.8316">
        <ele>174</ele>
        <time>2016-09-13T06:09:27Z</time>
      </trkpt>
      <trkpt lat="45.79606" lon="4.8317">
        <ele>174</ele>
        <time>2016-09-13T06:09:32Z</time>
      </trkpt>
      <trkpt lat="45.79614" lon="4.8317">
        <ele>170</ele>
        <time>2016-09-13T06:09:39Z</time>
      </trkpt>
      <trkpt lat="45.79621" lon="4.83162">
        <ele>169</ele>
        <time>2016-09-13T06:09:45Z</time>
      </trkpt>
      <trkpt lat="45.7963" lon="4.83155">
        <ele>169</ele>
        <time>2016-09-13T06:09:51Z</time>
      </trkpt>
      <trkpt lat="45.79638" lon="4.83151">
        <ele>167</ele>
        <time>2016-09-13T06:09:56Z</time>
      </trkpt>
      <trkpt lat="45.79647" lon="4.83145">
        <ele>168</ele>
        <time>2016-09-13T06:10:02Z</time>
      </trkpt>
      <trkpt lat="45.79657" lon="4.83139">
        <ele>168</ele>
        <time>2016-09-13T06:10:08Z</time>
      </trkpt>
      <trkpt lat="45.79669" lon="4.83133">
        <ele>167</ele>
        <time>2016-09-13T06:10:16Z</time>
      </trkpt>
      <trkpt lat="45.79676" lon="4.83129">
        <ele>168</ele>
        <time>2016-09-13T06:10:20Z</time>
      </trkpt>
      <trkpt lat="45.79689" lon="4.83122">
        <ele>167</ele>
        <time>2016-09-13T06:10:28Z</time>
      </trkpt>
      <trkpt lat="45.79695" lon="4.83117">
        <ele>167</ele>
        <time>2016-09-13T06:10:32Z</time>
      </trkpt>
      <trkpt lat="45.79703" lon="4.83109">
        <ele>166</ele>
        <time>2016-09-13T06:10:38Z</time>
      </trkpt>
      <trkpt lat="45.79694" lon="4.83097">
        <ele>163</ele>
        <time>2016-09-13T06:10:46Z</time>
      </trkpt>
      <trkpt lat="45.79684" lon="4.83078">
        <ele>161</ele>
        <time>2016-09-13T06:10:55Z</time>
      </trkpt>
      <trkpt lat="45.79685" lon="4.83075">
        <ele>162</ele>
        <time>2016-09-13T06:10:56Z</time>
      </trkpt>
      <trkpt lat="45.79697" lon="4.83063">
        <ele>164</ele>
        <time>2016-09-13T06:11:03Z</time>
      </trkpt>
      <trkpt lat="45.79706" lon="4.83073">
        <ele>167</ele>
        <time>2016-09-13T06:11:10Z</time>
      </trkpt>
      <trkpt lat="45.79709" lon="4.83078">
        <ele>167</ele>
        <time>2016-09-13T06:11:14Z</time>
      </trkpt>
      <trkpt lat="45.79711" lon="4.83091">
        <ele>165</ele>
        <time>2016-09-13T06:11:20Z</time>
      </trkpt>
      <trkpt lat="45.79712" lon="4.83118">
        <ele>164</ele>
        <time>2016-09-13T06:11:31Z</time>
      </trkpt>
      <trkpt lat="45.79712" lon="4.83132">
        <ele>169</ele>
        <time>2016-09-13T06:11:36Z</time>
      </trkpt>
      <trkpt lat="45.79712" lon="4.83137">
        <ele>169</ele>
        <time>2016-09-13T06:11:38Z</time>
      </trkpt>
      <trkpt lat="45.79712" lon="4.83154">
        <ele>170</ele>
        <time>2016-09-13T06:11:44Z</time>
      </trkpt>
      <trkpt lat="45.79714" lon="4.8318">
        <ele>168</ele>
        <time>2016-09-13T06:11:54Z</time>
      </trkpt>
      <trkpt lat="45.79715" lon="4.8319">
        <ele>168</ele>
        <time>2016-09-13T06:11:58Z</time>
      </trkpt>
      <trkpt lat="45.79716" lon="4.83199">
        <ele>168</ele>
        <time>2016-09-13T06:12:02Z</time>
      </trkpt>
      <trkpt lat="45.79719" lon="4.83212">
        <ele>168</ele>
        <time>2016-09-13T06:12:08Z</time>
      </trkpt>
      <trkpt lat="45.79724" lon="4.83228">
        <ele>166</ele>
        <time>2016-09-13T06:12:16Z</time>
      </trkpt>
      <trkpt lat="45.79729" lon="4.83239">
        <ele>168</ele>
        <time>2016-09-13T06:12:22Z</time>
      </trkpt>
      <trkpt lat="45.79731" lon="4.83248">
        <ele>169</ele>
        <time>2016-09-13T06:12:26Z</time>
      </trkpt>
      <trkpt lat="45.79733" lon="4.83264">
        <ele>168</ele>
        <time>2016-09-13T06:12:33Z</time>
      </trkpt>
      <trkpt lat="45.79727" lon="4.83277">
        <ele>170</ele>
        <time>2016-09-13T06:12:39Z</time>
      </trkpt>
      <trkpt lat="45.79727" lon="4.83284">
        <ele>172</ele>
        <time>2016-09-13T06:12:44Z</time>
      </trkpt>
      <trkpt lat="45.79732" lon="4.83295">
        <ele>170</ele>
        <time>2016-09-13T06:12:50Z</time>
      </trkpt>
      <trkpt lat="45.79738" lon="4.83315">
        <ele>165</ele>
        <time>2016-09-13T06:12:59Z</time>
      </trkpt>
      <trkpt lat="45.79743" lon="4.8332">
        <ele>165</ele>
        <time>2016-09-13T06:13:03Z</time>
      </trkpt>
      <trkpt lat="45.7975" lon="4.83326">
        <ele>165</ele>
        <time>2016-09-13T06:13:09Z</time>
      </trkpt>
      <trkpt lat="45.79752" lon="4.83335">
        <ele>165</ele>
        <time>2016-09-13T06:13:14Z</time>
      </trkpt>
      <trkpt lat="45.79756" lon="4.83355">
        <ele>170</ele>
        <time>2016-09-13T06:13:21Z</time>
      </trkpt>
      <trkpt lat="45.79758" lon="4.83364">
        <ele>169</ele>
        <time>2016-09-13T06:13:26Z</time>
      </trkpt>
      <trkpt lat="45.79766" lon="4.83374">
        <ele>171</ele>
        <time>2016-09-13T06:13:32Z</time>
      </trkpt>
      <trkpt lat="45.79769" lon="4.8339">
        <ele>166</ele>
        <time>2016-09-13T06:13:39Z</time>
      </trkpt>
      <trkpt lat="45.79773" lon="4.83402">
        <ele>167</ele>
        <time>2016-09-13T06:13:45Z</time>
      </trkpt>
      <trkpt lat="45.79778" lon="4.83413">
        <ele>172</ele>
        <time>2016-09-13T06:13:50Z</time>
      </trkpt>
      <trkpt lat="45.79785" lon="4.83425">
        <ele>174</ele>
        <time>2016-09-13T06:13:56Z</time>
      </trkpt>
      <trkpt lat="45.79795" lon="4.8343">
        <ele>175</ele>
        <time>2016-09-13T06:14:02Z</time>
      </trkpt>
      <trkpt lat="45.79805" lon="4.8343">
        <ele>172</ele>
        <time>2016-09-13T06:14:08Z</time>
      </trkpt>
      <trkpt lat="45.7981" lon="4.8344">
        <ele>171</ele>
        <time>2016-09-13T06:14:14Z</time>
      </trkpt>
      <trkpt lat="45.79813" lon="4.83453">
        <ele>171</ele>
        <time>2016-09-13T06:14:20Z</time>
      </trkpt>
      <trkpt lat="45.79822" lon="4.83457">
        <ele>172</ele>
        <time>2016-09-13T06:14:26Z</time>
      </trkpt>
      <trkpt lat="45.79844" lon="4.83454">
        <ele>173</ele>
        <time>2016-09-13T06:14:41Z</time>
      </trkpt>
      <trkpt lat="45.79846" lon="4.83453">
        <ele>172</ele>
        <time>2016-09-13T06:14:42Z</time>
      </trkpt>
      <trkpt lat="45.79855" lon="4.83451">
        <ele>169</ele>
        <time>2016-09-13T06:14:49Z</time>
      </trkpt>
      <trkpt lat="45.798" lon="4.83465">
        <ele>166</ele>
        <time>2016-09-13T06:15:05Z</time>
      </trkpt>
      <trkpt lat="45.79794" lon="4.83458">
        <ele>164</ele>
        <time>2016-09-13T06:15:12Z</time>
      </trkpt>
      <trkpt lat="45.7979" lon="4.83452">
        <ele>163</ele>
        <time>2016-09-13T06:15:17Z</time>
      </trkpt>
      <trkpt lat="45.79779" lon="4.83445">
        <ele>165</ele>
        <time>2016-09-13T06:15:24Z</time>
      </trkpt>
      <trkpt lat="45.79776" lon="4.83433">
        <ele>166</ele>
        <time>2016-09-13T06:15:28Z</time>
      </trkpt>
      <trkpt lat="45.79774" lon="4.83423">
        <ele>161</ele>
        <time>2016-09-13T06:15:32Z</time>
      </trkpt>
      <trkpt lat="45.79768" lon="4.834">
        <ele>165</ele>
        <time>2016-09-13T06:15:41Z</time>
      </trkpt>
      <trkpt lat="45.79766" lon="4.83395">
        <ele>165</ele>
        <time>2016-09-13T06:15:43Z</time>
      </trkpt>
      <trkpt lat="45.79756" lon="4.83377">
        <ele>164</ele>
        <time>2016-09-13T06:15:52Z</time>
      </trkpt>
      <trkpt lat="45.79753" lon="4.83368">
        <ele>167</ele>
        <time>2016-09-13T06:15:56Z</time>
      </trkpt>
      <trkpt lat="45.79752" lon="4.83355">
        <ele>167</ele>
        <time>2016-09-13T06:16:01Z</time>
      </trkpt>
      <trkpt lat="45.79746" lon="4.83334">
        <ele>164</ele>
        <time>2016-09-13T06:16:12Z</time>
      </trkpt>
      <trkpt lat="45.79745" lon="4.8333">
        <ele>166</ele>
        <time>2016-09-13T06:16:14Z</time>
      </trkpt>
      <trkpt lat="45.79738" lon="4.83323">
        <ele>169</ele>
        <time>2016-09-13T06:16:19Z</time>
      </trkpt>
      <trkpt lat="45.79729" lon="4.83303">
        <ele>173</ele>
        <time>2016-09-13T06:16:28Z</time>
      </trkpt>
      <trkpt lat="45.79724" lon="4.83293">
        <ele>171</ele>
        <time>2016-09-13T06:16:33Z</time>
      </trkpt>
      <trkpt lat="45.79729" lon="4.83276">
        <ele>169</ele>
        <time>2016-09-13T06:16:40Z</time>
      </trkpt>
      <trkpt lat="45.7973" lon="4.83268">
        <ele>171</ele>
        <time>2016-09-13T06:16:43Z</time>
      </trkpt>
      <trkpt lat="45.7973" lon="4.83254">
        <ele>166</ele>
        <time>2016-09-13T06:16:49Z</time>
      </trkpt>
      <trkpt lat="45.79724" lon="4.83236">
        <ele>171</ele>
        <time>2016-09-13T06:16:57Z</time>
      </trkpt>
      <trkpt lat="45.79721" lon="4.83227">
        <ele>171</ele>
        <time>2016-09-13T06:17:01Z</time>
      </trkpt>
      <trkpt lat="45.79716" lon="4.83207">
        <ele>176</ele>
        <time>2016-09-13T06:17:09Z</time>
      </trkpt>
      <trkpt lat="45.79716" lon="4.83195">
        <ele>173</ele>
        <time>2016-09-13T06:17:15Z</time>
      </trkpt>
      <trkpt lat="45.79714" lon="4.83186">
        <ele>174</ele>
        <time>2016-09-13T06:17:19Z</time>
      </trkpt>
      <trkpt lat="45.79712" lon="4.83163">
        <ele>173</ele>
        <time>2016-09-13T06:17:27Z</time>
      </trkpt>
      <trkpt lat="45.79713" lon="4.83154">
        <ele>170</ele>
        <time>2016-09-13T06:17:31Z</time>
      </trkpt>
      <trkpt lat="45.79714" lon="4.83136">
        <ele>172</ele>
        <time>2016-09-13T06:17:40Z</time>
      </trkpt>
      <trkpt lat="45.79713" lon="4.83117">
        <ele>171</ele>
        <time>2016-09-13T06:17:48Z</time>
      </trkpt>
      <trkpt lat="45.79714" lon="4.83115">
        <ele>172</ele>
        <time>2016-09-13T06:17:49Z</time>
      </trkpt>
      <trkpt lat="45.79713" lon="4.83103">
        <ele>170</ele>
        <time>2016-09-13T06:17:55Z</time>
      </trkpt>
      <trkpt lat="45.79707" lon="4.83093">
        <ele>167</ele>
        <time>2016-09-13T06:18:02Z</time>
      </trkpt>
      <trkpt lat="45.79696" lon="4.83071">
        <ele>170</ele>
        <time>2016-09-13T06:18:12Z</time>
      </trkpt>
      <trkpt lat="45.79695" lon="4.8307">
        <ele>170</ele>
        <time>2016-09-13T06:18:13Z</time>
      </trkpt>
      <trkpt lat="45.79684" lon="4.83075">
        <ele>172</ele>
        <time>2016-09-13T06:18:19Z</time>
      </trkpt>
      <trkpt lat="45.79694" lon="4.83094">
        <ele>178</ele>
        <time>2016-09-13T06:18:27Z</time>
      </trkpt>
      <trkpt lat="45.79706" lon="4.83108">
        <ele>184</ele>
        <time>2016-09-13T06:18:36Z</time>
      </trkpt>
      <trkpt lat="45.79706" lon="4.83109">
        <ele>184</ele>
        <time>2016-09-13T06:18:37Z</time>
      </trkpt>
      <trkpt lat="45.7969" lon="4.83118">
        <ele>175</ele>
        <time>2016-09-13T06:18:47Z</time>
      </trkpt>
      <trkpt lat="45.79687" lon="4.83119">
        <ele>176</ele>
        <time>2016-09-13T06:18:49Z</time>
      </trkpt>
      <trkpt lat="45.79677" lon="4.83126">
        <ele>175</ele>
        <time>2016-09-13T06:18:55Z</time>
      </trkpt>
      <trkpt lat="45.79664" lon="4.83134">
        <ele>172</ele>
        <time>2016-09-13T06:19:02Z</time>
      </trkpt>
      <trkpt lat="45.79653" lon="4.83143">
        <ele>171</ele>
        <time>2016-09-13T06:19:10Z</time>
      </trkpt>
      <trkpt lat="45.79648" lon="4.83146">
        <ele>170</ele>
        <time>2016-09-13T06:19:13Z</time>
      </trkpt>
      <trkpt lat="45.79639" lon="4.83153">
        <ele>169</ele>
        <time>2016-09-13T06:19:19Z</time>
      </trkpt>
      <trkpt lat="45.79631" lon="4.83158">
        <ele>167</ele>
        <time>2016-09-13T06:19:25Z</time>
      </trkpt>
      <trkpt lat="45.79622" lon="4.83163">
        <ele>167</ele>
        <time>2016-09-13T06:19:31Z</time>
      </trkpt>
      <trkpt lat="45.79611" lon="4.83169">
        <ele>166</ele>
        <time>2016-09-13T06:19:38Z</time>
      </trkpt>
      <trkpt lat="45.79604" lon="4.83166">
        <ele>167</ele>
        <time>2016-09-13T06:19:43Z</time>
      </trkpt>
      <trkpt lat="45.79603" lon="4.83152">
        <ele>168</ele>
        <time>2016-09-13T06:19:49Z</time>
      </trkpt>
      <trkpt lat="45.79601" lon="4.83136">
        <ele>167</ele>
        <time>2016-09-13T06:19:56Z</time>
      </trkpt>
      <trkpt lat="45.79599" lon="4.83126">
        <ele>168</ele>
        <time>2016-09-13T06:20:01Z</time>
      </trkpt>
      <trkpt lat="45.79596" lon="4.83112">
        <ele>168</ele>
        <time>2016-09-13T06:20:07Z</time>
      </trkpt>
      <trkpt lat="45.79593" lon="4.83096">
        <ele>169</ele>
        <time>2016-09-13T06:20:14Z</time>
      </trkpt>
      <trkpt lat="45.79591" lon="4.83084">
        <ele>168</ele>
        <time>2016-09-13T06:20:19Z</time>
      </trkpt>
      <trkpt lat="45.79585" lon="4.83062">
        <ele>168</ele>
        <time>2016-09-13T06:20:29Z</time>
      </trkpt>
      <trkpt lat="45.7958" lon="4.83046">
        <ele>167</ele>
        <time>2016-09-13T06:20:36Z</time>
      </trkpt>
      <trkpt lat="45.79579" lon="4.83044">
        <ele>168</ele>
        <time>2016-09-13T06:20:37Z</time>
      </trkpt>
      <trkpt lat="45.79574" lon="4.8303">
        <ele>168</ele>
        <time>2016-09-13T06:20:43Z</time>
      </trkpt>
      <trkpt lat="45.79568" lon="4.83018">
        <ele>169</ele>
        <time>2016-09-13T06:20:49Z</time>
      </trkpt>
      <trkpt lat="45.79559" lon="4.82995">
        <ele>168</ele>
        <time>2016-09-13T06:21:00Z</time>
      </trkpt>
      <trkpt lat="45.79558" lon="4.82993">
        <ele>168</ele>
        <time>2016-09-13T06:21:01Z</time>
      </trkpt>
      <trkpt lat="45.79552" lon="4.82978">
        <ele>168</ele>
        <time>2016-09-13T06:21:08Z</time>
      </trkpt>
      <trkpt lat="45.79549" lon="4.82968">
        <ele>167</ele>
        <time>2016-09-13T06:21:13Z</time>
      </trkpt>
      <trkpt lat="45.79543" lon="4.82956">
        <ele>168</ele>
        <time>2016-09-13T06:21:19Z</time>
      </trkpt>
      <trkpt lat="45.79535" lon="4.82937">
        <ele>169</ele>
        <time>2016-09-13T06:21:29Z</time>
      </trkpt>
      <trkpt lat="45.79533" lon="4.82933">
        <ele>169</ele>
        <time>2016-09-13T06:21:31Z</time>
      </trkpt>
      <trkpt lat="45.79522" lon="4.82911">
        <ele>169</ele>
        <time>2016-09-13T06:21:42Z</time>
      </trkpt>
      <trkpt lat="45.79518" lon="4.82901">
        <ele>168</ele>
        <time>2016-09-13T06:21:47Z</time>
      </trkpt>
      <trkpt lat="45.79516" lon="4.82893">
        <ele>169</ele>
        <time>2016-09-13T06:21:51Z</time>
      </trkpt>
      <trkpt lat="45.79513" lon="4.82888">
        <ele>166</ele>
        <time>2016-09-13T06:21:55Z</time>
      </trkpt>
      <trkpt lat="45.79512" lon="4.82874">
        <ele>163</ele>
        <time>2016-09-13T06:22:04Z</time>
      </trkpt>
      <trkpt lat="45.79511" lon="4.82866">
        <ele>163</ele>
        <time>2016-09-13T06:22:07Z</time>
      </trkpt>
      <trkpt lat="45.79506" lon="4.82853">
        <ele>165</ele>
        <time>2016-09-13T06:22:13Z</time>
      </trkpt>
      <trkpt lat="45.79497" lon="4.82831">
        <ele>166</ele>
        <time>2016-09-13T06:22:24Z</time>
      </trkpt>
      <trkpt lat="45.79496" lon="4.82829">
        <ele>166</ele>
        <time>2016-09-13T06:22:25Z</time>
      </trkpt>
      <trkpt lat="45.7949" lon="4.82817">
        <ele>164</ele>
        <time>2016-09-13T06:22:31Z</time>
      </trkpt>
      <trkpt lat="45.79483" lon="4.82806">
        <ele>164</ele>
        <time>2016-09-13T06:22:37Z</time>
      </trkpt>
      <trkpt lat="45.79477" lon="4.82795">
        <ele>163</ele>
        <time>2016-09-13T06:22:43Z</time>
      </trkpt>
      <trkpt lat="45.7947" lon="4.82782">
        <ele>163</ele>
        <time>2016-09-13T06:22:50Z</time>
      </trkpt>
      <trkpt lat="45.79465" lon="4.82772">
        <ele>162</ele>
        <time>2016-09-13T06:22:55Z</time>
      </trkpt>
      <trkpt lat="45.79459" lon="4.82761">
        <ele>161</ele>
        <time>2016-09-13T06:23:01Z</time>
      </trkpt>
      <trkpt lat="45.79451" lon="4.82748">
        <ele>162</ele>
        <time>2016-09-13T06:23:08Z</time>
      </trkpt>
      <trkpt lat="45.79445" lon="4.82739">
        <ele>161</ele>
        <time>2016-09-13T06:23:13Z</time>
      </trkpt>
      <trkpt lat="45.79439" lon="4.8273">
        <ele>163</ele>
        <time>2016-09-13T06:23:19Z</time>
      </trkpt>
      <trkpt lat="45.79429" lon="4.82716">
        <ele>164</ele>
        <time>2016-09-13T06:23:27Z</time>
      </trkpt>
      <trkpt lat="45.79424" lon="4.82707">
        <ele>164</ele>
        <time>2016-09-13T06:23:32Z</time>
      </trkpt>
      <trkpt lat="45.79417" lon="4.82698">
        <ele>164</ele>
        <time>2016-09-13T06:23:38Z</time>
      </trkpt>
      <trkpt lat="45.79404" lon="4.82696">
        <ele>166</ele>
        <time>2016-09-13T06:23:46Z</time>
      </trkpt>
      <trkpt lat="45.79391" lon="4.82689">
        <ele>169</ele>
        <time>2016-09-13T06:23:53Z</time>
      </trkpt>
      <trkpt lat="45.79389" lon="4.82686">
        <ele>168</ele>
        <time>2016-09-13T06:23:55Z</time>
      </trkpt>
      <trkpt lat="45.79381" lon="4.82679">
        <ele>166</ele>
        <time>2016-09-13T06:24:01Z</time>
      </trkpt>
      <trkpt lat="45.79372" lon="4.8267">
        <ele>166</ele>
        <time>2016-09-13T06:24:08Z</time>
      </trkpt>
      <trkpt lat="45.79361" lon="4.82657">
        <ele>167</ele>
        <time>2016-09-13T06:24:17Z</time>
      </trkpt>
      <trkpt lat="45.7936" lon="4.82653">
        <ele>167</ele>
        <time>2016-09-13T06:24:19Z</time>
      </trkpt>
      <trkpt lat="45.79355" lon="4.82643">
        <ele>165</ele>
        <time>2016-09-13T06:24:27Z</time>
      </trkpt>
      <trkpt lat="45.79351" lon="4.82634">
        <ele>164</ele>
        <time>2016-09-13T06:24:32Z</time>
      </trkpt>
      <trkpt lat="45.79347" lon="4.82623">
        <ele>163</ele>
        <time>2016-09-13T06:24:37Z</time>
      </trkpt>
      <trkpt lat="45.79337" lon="4.82605">
        <ele>161</ele>
        <time>2016-09-13T06:24:46Z</time>
      </trkpt>
      <trkpt lat="45.79334" lon="4.82597">
        <ele>162</ele>
        <time>2016-09-13T06:24:50Z</time>
      </trkpt>
      <trkpt lat="45.79322" lon="4.82584">
        <ele>162</ele>
        <time>2016-09-13T06:25:00Z</time>
      </trkpt>
      <trkpt lat="45.79321" lon="4.82583">
        <ele>162</ele>
        <time>2016-09-13T06:25:01Z</time>
      </trkpt>
      <trkpt lat="45.79313" lon="4.82573">
        <ele>159</ele>
        <time>2016-09-13T06:25:07Z</time>
      </trkpt>
      <trkpt lat="45.79307" lon="4.82563">
        <ele>159</ele>
        <time>2016-09-13T06:25:13Z</time>
      </trkpt>
      <trkpt lat="45.79304" lon="4.82551">
        <ele>160</ele>
        <time>2016-09-13T06:25:19Z</time>
      </trkpt>
      <trkpt lat="45.79292" lon="4.82529">
        <ele>161</ele>
        <time>2016-09-13T06:25:30Z</time>
      </trkpt>
      <trkpt lat="45.79287" lon="4.82518">
        <ele>162</ele>
        <time>2016-09-13T06:25:35Z</time>
      </trkpt>
      <trkpt lat="45.79286" lon="4.82514">
        <ele>161</ele>
        <time>2016-09-13T06:25:37Z</time>
      </trkpt>
      <trkpt lat="45.79276" lon="4.82503">
        <ele>161</ele>
        <time>2016-09-13T06:25:44Z</time>
      </trkpt>
      <trkpt lat="45.7927" lon="4.82492">
        <ele>161</ele>
        <time>2016-09-13T06:25:50Z</time>
      </trkpt>
      <trkpt lat="45.79264" lon="4.82484">
        <ele>161</ele>
        <time>2016-09-13T06:25:55Z</time>
      </trkpt>
      <trkpt lat="45.79257" lon="4.82473">
        <ele>163</ele>
        <time>2016-09-13T06:26:01Z</time>
      </trkpt>
      <trkpt lat="45.79249" lon="4.82463">
        <ele>165</ele>
        <time>2016-09-13T06:26:07Z</time>
      </trkpt>
      <trkpt lat="45.7924" lon="4.82443">
        <ele>165</ele>
        <time>2016-09-13T06:26:17Z</time>
      </trkpt>
      <trkpt lat="45.79238" lon="4.82439">
        <ele>164</ele>
        <time>2016-09-13T06:26:19Z</time>
      </trkpt>
      <trkpt lat="45.79231" lon="4.82424">
        <ele>165</ele>
        <time>2016-09-13T06:26:27Z</time>
      </trkpt>
      <trkpt lat="45.79227" lon="4.82417">
        <ele>164</ele>
        <time>2016-09-13T06:26:31Z</time>
      </trkpt>
      <trkpt lat="45.7922" lon="4.82406">
        <ele>164</ele>
        <time>2016-09-13T06:26:37Z</time>
      </trkpt>
      <trkpt lat="45.79212" lon="4.82395">
        <ele>165</ele>
        <time>2016-09-13T06:26:43Z</time>
      </trkpt>
      <trkpt lat="45.79207" lon="4.82383">
        <ele>164</ele>
        <time>2016-09-13T06:26:49Z</time>
      </trkpt>
      <trkpt lat="45.79202" lon="4.82373">
        <ele>164</ele>
        <time>2016-09-13T06:26:55Z</time>
      </trkpt>
      <trkpt lat="45.79199" lon="4.82359">
        <ele>165</ele>
        <time>2016-09-13T06:27:01Z</time>
      </trkpt>
      <trkpt lat="45.79195" lon="4.82346">
        <ele>166</ele>
        <time>2016-09-13T06:27:07Z</time>
      </trkpt>
      <trkpt lat="45.79189" lon="4.82334">
        <ele>165</ele>
        <time>2016-09-13T06:27:13Z</time>
      </trkpt>
      <trkpt lat="45.79183" lon="4.82323">
        <ele>166</ele>
        <time>2016-09-13T06:27:19Z</time>
      </trkpt>
      <trkpt lat="45.79175" lon="4.82314">
        <ele>166</ele>
        <time>2016-09-13T06:27:25Z</time>
      </trkpt>
      <trkpt lat="45.79169" lon="4.82303">
        <ele>166</ele>
        <time>2016-09-13T06:27:31Z</time>
      </trkpt>
      <trkpt lat="45.79161" lon="4.82293">
        <ele>165</ele>
        <time>2016-09-13T06:27:37Z</time>
      </trkpt>
      <trkpt lat="45.79149" lon="4.82276">
        <ele>164</ele>
        <time>2016-09-13T06:27:47Z</time>
      </trkpt>
      <trkpt lat="45.79147" lon="4.82272">
        <ele>165</ele>
        <time>2016-09-13T06:27:49Z</time>
      </trkpt>
      <trkpt lat="45.79139" lon="4.82261">
        <ele>165</ele>
        <time>2016-09-13T06:27:55Z</time>
      </trkpt>
      <trkpt lat="45.79133" lon="4.82248">
        <ele>162</ele>
        <time>2016-09-13T06:28:03Z</time>
      </trkpt>
      <trkpt lat="45.79128" lon="4.8224">
        <ele>165</ele>
        <time>2016-09-13T06:28:07Z</time>
      </trkpt>
      <trkpt lat="45.79117" lon="4.82225">
        <ele>167</ele>
        <time>2016-09-13T06:28:16Z</time>
      </trkpt>
      <trkpt lat="45.79113" lon="4.8222">
        <ele>167</ele>
        <time>2016-09-13T06:28:19Z</time>
      </trkpt>
      <trkpt lat="45.79103" lon="4.822">
        <ele>164</ele>
        <time>2016-09-13T06:28:30Z</time>
      </trkpt>
      <trkpt lat="45.79102" lon="4.82198">
        <ele>164</ele>
        <time>2016-09-13T06:28:31Z</time>
      </trkpt>
      <trkpt lat="45.79094" lon="4.82184">
        <ele>164</ele>
        <time>2016-09-13T06:28:39Z</time>
      </trkpt>
      <trkpt lat="45.79088" lon="4.82178">
        <ele>164</ele>
        <time>2016-09-13T06:28:43Z</time>
      </trkpt>
      <trkpt lat="45.79079" lon="4.82164">
        <ele>165</ele>
        <time>2016-09-13T06:28:51Z</time>
      </trkpt>
      <trkpt lat="45.79075" lon="4.82155">
        <ele>164</ele>
        <time>2016-09-13T06:28:55Z</time>
      </trkpt>
      <trkpt lat="45.79066" lon="4.82144">
        <ele>164</ele>
        <time>2016-09-13T06:29:02Z</time>
      </trkpt>
      <trkpt lat="45.79058" lon="4.82133">
        <ele>164</ele>
        <time>2016-09-13T06:29:09Z</time>
      </trkpt>
      <trkpt lat="45.79051" lon="4.82124">
        <ele>164</ele>
        <time>2016-09-13T06:29:15Z</time>
      </trkpt>
      <trkpt lat="45.79043" lon="4.82111">
        <ele>165</ele>
        <time>2016-09-13T06:29:22Z</time>
      </trkpt>
      <trkpt lat="45.79033" lon="4.82101">
        <ele>165</ele>
        <time>2016-09-13T06:29:29Z</time>
      </trkpt>
      <trkpt lat="45.79028" lon="4.82094">
        <ele>165</ele>
        <time>2016-09-13T06:29:33Z</time>
      </trkpt>
      <trkpt lat="45.79021" lon="4.82085">
        <ele>164</ele>
        <time>2016-09-13T06:29:39Z</time>
      </trkpt>
      <trkpt lat="45.79008" lon="4.82078">
        <ele>167</ele>
        <time>2016-09-13T06:29:45Z</time>
      </trkpt>
      <trkpt lat="45.78999" lon="4.82069">
        <ele>163</ele>
        <time>2016-09-13T06:29:51Z</time>
      </trkpt>
      <trkpt lat="45.78989" lon="4.82052">
        <ele>162</ele>
        <time>2016-09-13T06:30:02Z</time>
      </trkpt>
      <trkpt lat="45.78988" lon="4.8205">
        <ele>162</ele>
        <time>2016-09-13T06:30:03Z</time>
      </trkpt>
      <trkpt lat="45.78982" lon="4.82041">
        <ele>160</ele>
        <time>2016-09-13T06:30:09Z</time>
      </trkpt>
      <trkpt lat="45.78976" lon="4.82031">
        <ele>161</ele>
        <time>2016-09-13T06:30:15Z</time>
      </trkpt>
      <trkpt lat="45.78961" lon="4.8202">
        <ele>163</ele>
        <time>2016-09-13T06:30:25Z</time>
      </trkpt>
      <trkpt lat="45.78956" lon="4.82014">
        <ele>165</ele>
        <time>2016-09-13T06:30:28Z</time>
      </trkpt>
      <trkpt lat="45.7895" lon="4.82006">
        <ele>164</ele>
        <time>2016-09-13T06:30:33Z</time>
      </trkpt>
      <trkpt lat="45.78936" lon="4.82001">
        <ele>164</ele>
        <time>2016-09-13T06:30:40Z</time>
      </trkpt>
      <trkpt lat="45.78929" lon="4.81993">
        <ele>165</ele>
        <time>2016-09-13T06:30:45Z</time>
      </trkpt>
      <trkpt lat="45.78923" lon="4.81982">
        <ele>160</ele>
        <time>2016-09-13T06:30:52Z</time>
      </trkpt>
      <trkpt lat="45.78919" lon="4.81976">
        <ele>160</ele>
        <time>2016-09-13T06:30:57Z</time>
      </trkpt>
      <trkpt lat="45.78905" lon="4.81968">
        <ele>160</ele>
        <time>2016-09-13T06:31:05Z</time>
      </trkpt>
      <trkpt lat="45.78894" lon="4.81952">
        <ele>163</ele>
        <time>2016-09-13T06:31:14Z</time>
      </trkpt>
      <trkpt lat="45.78892" lon="4.8195">
        <ele>163</ele>
        <time>2016-09-13T06:31:15Z</time>
      </trkpt>
      <trkpt lat="45.78883" lon="4.81941">
        <ele>163</ele>
        <time>2016-09-13T06:31:21Z</time>
      </trkpt>
      <trkpt lat="45.78873" lon="4.81917">
        <ele>163</ele>
        <time>2016-09-13T06:31:32Z</time>
      </trkpt>
      <trkpt lat="45.78873" lon="4.81916">
        <ele>162</ele>
        <time>2016-09-13T06:31:33Z</time>
      </trkpt>
      <trkpt lat="45.7886" lon="4.81905">
        <ele>161</ele>
        <time>2016-09-13T06:31:42Z</time>
      </trkpt>
      <trkpt lat="45.78856" lon="4.81901">
        <ele>161</ele>
        <time>2016-09-13T06:31:45Z</time>
      </trkpt>
      <trkpt lat="45.78848" lon="4.81889">
        <ele>160</ele>
        <time>2016-09-13T06:31:52Z</time>
      </trkpt>
      <trkpt lat="45.78842" lon="4.8188">
        <ele>159</ele>
        <time>2016-09-13T06:31:57Z</time>
      </trkpt>
      <trkpt lat="45.78834" lon="4.81872">
        <ele>156</ele>
        <time>2016-09-13T06:32:03Z</time>
      </trkpt>
      <trkpt lat="45.78825" lon="4.81865">
        <ele>156</ele>
        <time>2016-09-13T06:32:09Z</time>
      </trkpt>
      <trkpt lat="45.78818" lon="4.81852">
        <ele>160</ele>
        <time>2016-09-13T06:32:16Z</time>
      </trkpt>
      <trkpt lat="45.78807" lon="4.8184">
        <ele>163</ele>
        <time>2016-09-13T06:32:24Z</time>
      </trkpt>
      <trkpt lat="45.78801" lon="4.81834">
        <ele>164</ele>
        <time>2016-09-13T06:32:28Z</time>
      </trkpt>
      <trkpt lat="45.78793" lon="4.81824">
        <ele>164</ele>
        <time>2016-09-13T06:32:34Z</time>
      </trkpt>
      <trkpt lat="45.78784" lon="4.81813">
        <ele>164</ele>
        <time>2016-09-13T06:32:41Z</time>
      </trkpt>
      <trkpt lat="45.78774" lon="4.81796">
        <ele>163</ele>
        <time>2016-09-13T06:32:50Z</time>
      </trkpt>
      <trkpt lat="45.78772" lon="4.81793">
        <ele>163</ele>
        <time>2016-09-13T06:32:52Z</time>
      </trkpt>
      <trkpt lat="45.78766" lon="4.81784">
        <ele>164</ele>
        <time>2016-09-13T06:32:57Z</time>
      </trkpt>
      <trkpt lat="45.78759" lon="4.81773">
        <ele>164</ele>
        <time>2016-09-13T06:33:03Z</time>
      </trkpt>
      <trkpt lat="45.78749" lon="4.81761">
        <ele>165</ele>
        <time>2016-09-13T06:33:11Z</time>
      </trkpt>
      <trkpt lat="45.78743" lon="4.81756">
        <ele>165</ele>
        <time>2016-09-13T06:33:15Z</time>
      </trkpt>
      <trkpt lat="45.78734" lon="4.81747">
        <ele>163</ele>
        <time>2016-09-13T06:33:21Z</time>
      </trkpt>
      <trkpt lat="45.78724" lon="4.81735">
        <ele>163</ele>
        <time>2016-09-13T06:33:29Z</time>
      </trkpt>
      <trkpt lat="45.7872" lon="4.81729">
        <ele>164</ele>
        <time>2016-09-13T06:33:33Z</time>
      </trkpt>
      <trkpt lat="45.78708" lon="4.81717">
        <ele>167</ele>
        <time>2016-09-13T06:33:41Z</time>
      </trkpt>
      <trkpt lat="45.78701" lon="4.81709">
        <ele>166</ele>
        <time>2016-09-13T06:33:46Z</time>
      </trkpt>
      <trkpt lat="45.78691" lon="4.817">
        <ele>167</ele>
        <time>2016-09-13T06:33:53Z</time>
      </trkpt>
      <trkpt lat="45.78685" lon="4.81688">
        <ele>167</ele>
        <time>2016-09-13T06:33:59Z</time>
      </trkpt>
      <trkpt lat="45.7868" lon="4.81683">
        <ele>167</ele>
        <time>2016-09-13T06:34:03Z</time>
      </trkpt>
      <trkpt lat="45.78671" lon="4.8168">
        <ele>162</ele>
        <time>2016-09-13T06:34:09Z</time>
      </trkpt>
      <trkpt lat="45.78664" lon="4.81673">
        <ele>163</ele>
        <time>2016-09-13T06:34:15Z</time>
      </trkpt>
      <trkpt lat="45.78657" lon="4.81666">
        <ele>163</ele>
        <time>2016-09-13T06:34:21Z</time>
      </trkpt>
      <trkpt lat="45.78647" lon="4.81661">
        <ele>164</ele>
        <time>2016-09-13T06:34:27Z</time>
      </trkpt>
      <trkpt lat="45.78637" lon="4.8166">
        <ele>162</ele>
        <time>2016-09-13T06:34:33Z</time>
      </trkpt>
      <trkpt lat="45.78628" lon="4.81653">
        <ele>164</ele>
        <time>2016-09-13T06:34:39Z</time>
      </trkpt>
      <trkpt lat="45.78618" lon="4.81649">
        <ele>162</ele>
        <time>2016-09-13T06:34:45Z</time>
      </trkpt>
      <trkpt lat="45.78602" lon="4.81641">
        <ele>166</ele>
        <time>2016-09-13T06:34:53Z</time>
      </trkpt>
      <trkpt lat="45.78589" lon="4.81632">
        <ele>164</ele>
        <time>2016-09-13T06:35:01Z</time>
      </trkpt>
      <trkpt lat="45.7858" lon="4.81627">
        <ele>164</ele>
        <time>2016-09-13T06:35:07Z</time>
      </trkpt>
      <trkpt lat="45.78578" lon="4.81623">
        <ele>165</ele>
        <time>2016-09-13T06:35:09Z</time>
      </trkpt>
      <trkpt lat="45.78569" lon="4.81618">
        <ele>165</ele>
        <time>2016-09-13T06:35:15Z</time>
      </trkpt>
      <trkpt lat="45.7856" lon="4.81611">
        <ele>164</ele>
        <time>2016-09-13T06:35:21Z</time>
      </trkpt>
      <trkpt lat="45.78545" lon="4.81597">
        <ele>165</ele>
        <time>2016-09-13T06:35:31Z</time>
      </trkpt>
      <trkpt lat="45.78543" lon="4.81594">
        <ele>165</ele>
        <time>2016-09-13T06:35:33Z</time>
      </trkpt>
      <trkpt lat="45.78535" lon="4.81585">
        <ele>162</ele>
        <time>2016-09-13T06:35:39Z</time>
      </trkpt>
      <trkpt lat="45.78522" lon="4.81579">
        <ele>164</ele>
        <time>2016-09-13T06:35:47Z</time>
      </trkpt>
      <trkpt lat="45.78513" lon="4.81571">
        <ele>164</ele>
        <time>2016-09-13T06:35:54Z</time>
      </trkpt>
      <trkpt lat="45.78507" lon="4.81567">
        <ele>165</ele>
        <time>2016-09-13T06:35:58Z</time>
      </trkpt>
      <trkpt lat="45.78499" lon="4.8156">
        <ele>165</ele>
        <time>2016-09-13T06:36:03Z</time>
      </trkpt>
      <trkpt lat="45.78489" lon="4.81551">
        <ele>165</ele>
        <time>2016-09-13T06:36:10Z</time>
      </trkpt>
      <trkpt lat="45.78484" lon="4.81543">
        <ele>162</ele>
        <time>2016-09-13T06:36:15Z</time>
      </trkpt>
      <trkpt lat="45.78476" lon="4.81536">
        <ele>164</ele>
        <time>2016-09-13T06:36:21Z</time>
      </trkpt>
      <trkpt lat="45.78461" lon="4.81525">
        <ele>164</ele>
        <time>2016-09-13T06:36:31Z</time>
      </trkpt>
      <trkpt lat="45.78458" lon="4.81521">
        <ele>165</ele>
        <time>2016-09-13T06:36:34Z</time>
      </trkpt>
      <trkpt lat="45.78448" lon="4.81508">
        <ele>162</ele>
        <time>2016-09-13T06:36:42Z</time>
      </trkpt>
      <trkpt lat="45.78445" lon="4.81502">
        <ele>162</ele>
        <time>2016-09-13T06:36:45Z</time>
      </trkpt>
      <trkpt lat="45.78438" lon="4.81493">
        <ele>161</ele>
        <time>2016-09-13T06:36:51Z</time>
      </trkpt>
      <trkpt lat="45.7843" lon="4.81486">
        <ele>161</ele>
        <time>2016-09-13T06:36:57Z</time>
      </trkpt>
      <trkpt lat="45.78416" lon="4.81473">
        <ele>160</ele>
        <time>2016-09-13T06:37:06Z</time>
      </trkpt>
      <trkpt lat="45.78409" lon="4.81468">
        <ele>159</ele>
        <time>2016-09-13T06:37:10Z</time>
      </trkpt>
      <trkpt lat="45.78392" lon="4.81459">
        <ele>160</ele>
        <time>2016-09-13T06:37:20Z</time>
      </trkpt>
      <trkpt lat="45.7839" lon="4.81459">
        <ele>159</ele>
        <time>2016-09-13T06:37:21Z</time>
      </trkpt>
      <trkpt lat="45.78381" lon="4.81454">
        <ele>161</ele>
        <time>2016-09-13T06:37:27Z</time>
      </trkpt>
      <trkpt lat="45.78364" lon="4.8144">
        <ele>165</ele>
        <time>2016-09-13T06:37:38Z</time>
      </trkpt>
      <trkpt lat="45.78362" lon="4.81437">
        <ele>163</ele>
        <time>2016-09-13T06:37:40Z</time>
      </trkpt>
      <trkpt lat="45.78353" lon="4.81426">
        <ele>164</ele>
        <time>2016-09-13T06:37:48Z</time>
      </trkpt>
      <trkpt lat="45.78345" lon="4.81425">
        <ele>164</ele>
        <time>2016-09-13T06:37:52Z</time>
      </trkpt>
      <trkpt lat="45.78328" lon="4.81413">
        <ele>162</ele>
        <time>2016-09-13T06:38:03Z</time>
      </trkpt>
      <trkpt lat="45.78327" lon="4.81412">
        <ele>161</ele>
        <time>2016-09-13T06:38:04Z</time>
      </trkpt>
      <trkpt lat="45.78319" lon="4.81403">
        <ele>158</ele>
        <time>2016-09-13T06:38:10Z</time>
      </trkpt>
      <trkpt lat="45.78312" lon="4.81394">
        <ele>157</ele>
        <time>2016-09-13T06:38:16Z</time>
      </trkpt>
      <trkpt lat="45.78305" lon="4.81384">
        <ele>158</ele>
        <time>2016-09-13T06:38:22Z</time>
      </trkpt>
      <trkpt lat="45.78293" lon="4.81376">
        <ele>159</ele>
        <time>2016-09-13T06:38:29Z</time>
      </trkpt>
      <trkpt lat="45.78287" lon="4.81369">
        <ele>160</ele>
        <time>2016-09-13T06:38:34Z</time>
      </trkpt>
      <trkpt lat="45.78277" lon="4.8136">
        <ele>161</ele>
        <time>2016-09-13T06:38:41Z</time>
      </trkpt>
      <trkpt lat="45.78268" lon="4.81354">
        <ele>163</ele>
        <time>2016-09-13T06:38:47Z</time>
      </trkpt>
      <trkpt lat="45.7826" lon="4.81345">
        <ele>162</ele>
        <time>2016-09-13T06:38:53Z</time>
      </trkpt>
      <trkpt lat="45.78252" lon="4.81337">
        <ele>162</ele>
        <time>2016-09-13T06:38:58Z</time>
      </trkpt>
      <trkpt lat="45.78243" lon="4.81329">
        <ele>161</ele>
        <time>2016-09-13T06:39:04Z</time>
      </trkpt>
      <trkpt lat="45.78235" lon="4.8132">
        <ele>164</ele>
        <time>2016-09-13T06:39:11Z</time>
      </trkpt>
      <trkpt lat="45.78224" lon="4.8131">
        <ele>163</ele>
        <time>2016-09-13T06:39:19Z</time>
      </trkpt>
      <trkpt lat="45.78216" lon="4.81307">
        <ele>163</ele>
        <time>2016-09-13T06:39:23Z</time>
      </trkpt>
      <trkpt lat="45.78206" lon="4.81301">
        <ele>161</ele>
        <time>2016-09-13T06:39:29Z</time>
      </trkpt>
      <trkpt lat="45.7819" lon="4.81289">
        <ele>163</ele>
        <time>2016-09-13T06:39:38Z</time>
      </trkpt>
      <trkpt lat="45.78184" lon="4.81285">
        <ele>160</ele>
        <time>2016-09-13T06:39:42Z</time>
      </trkpt>
      <trkpt lat="45.78175" lon="4.81274">
        <ele>161</ele>
        <time>2016-09-13T06:39:49Z</time>
      </trkpt>
      <trkpt lat="45.78168" lon="4.81264">
        <ele>161</ele>
        <time>2016-09-13T06:39:55Z</time>
      </trkpt>
      <trkpt lat="45.78164" lon="4.81261">
        <ele>160</ele>
        <time>2016-09-13T06:39:58Z</time>
      </trkpt>
      <trkpt lat="45.78152" lon="4.81249">
        <ele>161</ele>
        <time>2016-09-13T06:40:07Z</time>
      </trkpt>
      <trkpt lat="45.78145" lon="4.81239">
        <ele>164</ele>
        <time>2016-09-13T06:40:13Z</time>
      </trkpt>
      <trkpt lat="45.78141" lon="4.81235">
        <ele>164</ele>
        <time>2016-09-13T06:40:16Z</time>
      </trkpt>
      <trkpt lat="45.78131" lon="4.81228">
        <ele>166</ele>
        <time>2016-09-13T06:40:23Z</time>
      </trkpt>
      <trkpt lat="45.78119" lon="4.8122">
        <ele>165</ele>
        <time>2016-09-13T06:40:31Z</time>
      </trkpt>
      <trkpt lat="45.78106" lon="4.81212">
        <ele>165</ele>
        <time>2016-09-13T06:40:39Z</time>
      </trkpt>
      <trkpt lat="45.78099" lon="4.81208">
        <ele>164</ele>
        <time>2016-09-13T06:40:43Z</time>
      </trkpt>
      <trkpt lat="45.78086" lon="4.812">
        <ele>162</ele>
        <time>2016-09-13T06:40:51Z</time>
      </trkpt>
      <trkpt lat="45.78084" lon="4.81199">
        <ele>162</ele>
        <time>2016-09-13T06:40:52Z</time>
      </trkpt>
      <trkpt lat="45.78073" lon="4.81193">
        <ele>163</ele>
        <time>2016-09-13T06:40:59Z</time>
      </trkpt>
      <trkpt lat="45.78058" lon="4.81184">
        <ele>163</ele>
        <time>2016-09-13T06:41:09Z</time>
      </trkpt>
      <trkpt lat="45.78056" lon="4.81183">
        <ele>164</ele>
        <time>2016-09-13T06:41:10Z</time>
      </trkpt>
      <trkpt lat="45.78039" lon="4.81176">
        <ele>163</ele>
        <time>2016-09-13T06:41:20Z</time>
      </trkpt>
      <trkpt lat="45.78036" lon="4.81174">
        <ele>163</ele>
        <time>2016-09-13T06:41:22Z</time>
      </trkpt>
      <trkpt lat="45.78023" lon="4.8117">
        <ele>163</ele>
        <time>2016-09-13T06:41:30Z</time>
      </trkpt>
      <trkpt lat="45.78014" lon="4.81164">
        <ele>164</ele>
        <time>2016-09-13T06:41:36Z</time>
      </trkpt>
      <trkpt lat="45.78008" lon="4.81159">
        <ele>168</ele>
        <time>2016-09-13T06:41:40Z</time>
      </trkpt>
      <trkpt lat="45.77999" lon="4.81146">
        <ele>164</ele>
        <time>2016-09-13T06:41:48Z</time>
      </trkpt>
      <trkpt lat="45.77994" lon="4.81142">
        <ele>165</ele>
        <time>2016-09-13T06:41:52Z</time>
      </trkpt>
      <trkpt lat="45.77984" lon="4.8114">
        <ele>162</ele>
        <time>2016-09-13T06:41:58Z</time>
      </trkpt>
      <trkpt lat="45.77966" lon="4.81132">
        <ele>168</ele>
        <time>2016-09-13T06:42:06Z</time>
      </trkpt>
      <trkpt lat="45.77948" lon="4.81128">
        <ele>172</ele>
        <time>2016-09-13T06:42:15Z</time>
      </trkpt>
      <trkpt lat="45.77947" lon="4.81127">
        <ele>172</ele>
        <time>2016-09-13T06:42:16Z</time>
      </trkpt>
      <trkpt lat="45.77935" lon="4.8112">
        <ele>173</ele>
        <time>2016-09-13T06:42:24Z</time>
      </trkpt>
      <trkpt lat="45.77929" lon="4.81117">
        <ele>172</ele>
        <time>2016-09-13T06:42:28Z</time>
      </trkpt>
      <trkpt lat="45.77921" lon="4.8111">
        <ele>171</ele>
        <time>2016-09-13T06:42:34Z</time>
      </trkpt>
      <trkpt lat="45.77908" lon="4.81101">
        <ele>172</ele>
        <time>2016-09-13T06:42:43Z</time>
      </trkpt>
      <trkpt lat="45.77901" lon="4.81097">
        <ele>172</ele>
        <time>2016-09-13T06:42:47Z</time>
      </trkpt>
      <trkpt lat="45.77893" lon="4.81093">
        <ele>171</ele>
        <time>2016-09-13T06:42:52Z</time>
      </trkpt>
      <trkpt lat="45.77884" lon="4.81087">
        <ele>173</ele>
        <time>2016-09-13T06:42:58Z</time>
      </trkpt>
      <trkpt lat="45.77877" lon="4.81081">
        <ele>170</ele>
        <time>2016-09-13T06:43:04Z</time>
      </trkpt>
      <trkpt lat="45.77866" lon="4.81075">
        <ele>169</ele>
        <time>2016-09-13T06:43:11Z</time>
      </trkpt>
      <trkpt lat="45.77854" lon="4.81067">
        <ele>170</ele>
        <time>2016-09-13T06:43:18Z</time>
      </trkpt>
      <trkpt lat="45.77844" lon="4.8106">
        <ele>171</ele>
        <time>2016-09-13T06:43:24Z</time>
      </trkpt>
      <trkpt lat="45.77839" lon="4.81057">
        <ele>170</ele>
        <time>2016-09-13T06:43:28Z</time>
      </trkpt>
      <trkpt lat="45.77827" lon="4.81046">
        <ele>167</ele>
        <time>2016-09-13T06:43:37Z</time>
      </trkpt>
      <trkpt lat="45.77824" lon="4.81043">
        <ele>167</ele>
        <time>2016-09-13T06:43:40Z</time>
      </trkpt>
      <trkpt lat="45.77818" lon="4.81035">
        <ele>167</ele>
        <time>2016-09-13T06:43:46Z</time>
      </trkpt>
      <trkpt lat="45.77798" lon="4.81033">
        <ele>172</ele>
        <time>2016-09-13T06:43:56Z</time>
      </trkpt>
      <trkpt lat="45.77791" lon="4.81033">
        <ele>170</ele>
        <time>2016-09-13T06:44:00Z</time>
      </trkpt>
      <trkpt lat="45.77784" lon="4.81031">
        <ele>169</ele>
        <time>2016-09-13T06:44:05Z</time>
      </trkpt>
      <trkpt lat="45.77774" lon="4.81028">
        <ele>169</ele>
        <time>2016-09-13T06:44:12Z</time>
      </trkpt>
      <trkpt lat="45.77763" lon="4.81025">
        <ele>169</ele>
        <time>2016-09-13T06:44:18Z</time>
      </trkpt>
      <trkpt lat="45.77753" lon="4.81025">
        <ele>167</ele>
        <time>2016-09-13T06:44:24Z</time>
      </trkpt>
      <trkpt lat="45.77746" lon="4.81027">
        <ele>167</ele>
        <time>2016-09-13T06:44:28Z</time>
      </trkpt>
      <trkpt lat="45.77732" lon="4.81027">
        <ele>168</ele>
        <time>2016-09-13T06:44:34Z</time>
      </trkpt>
      <trkpt lat="45.7772" lon="4.81021">
        <ele>171</ele>
        <time>2016-09-13T06:44:41Z</time>
      </trkpt>
      <trkpt lat="45.77707" lon="4.81016">
        <ele>166</ele>
        <time>2016-09-13T06:44:50Z</time>
      </trkpt>
      <trkpt lat="45.77704" lon="4.81015">
        <ele>167</ele>
        <time>2016-09-13T06:44:52Z</time>
      </trkpt>
      <trkpt lat="45.77689" lon="4.8101">
        <ele>165</ele>
        <time>2016-09-13T06:45:02Z</time>
      </trkpt>
      <trkpt lat="45.77685" lon="4.81012">
        <ele>167</ele>
        <time>2016-09-13T06:45:05Z</time>
      </trkpt>
      <trkpt lat="45.77672" lon="4.8101">
        <ele>164</ele>
        <time>2016-09-13T06:45:12Z</time>
      </trkpt>
      <trkpt lat="45.77658" lon="4.8101">
        <ele>172</ele>
        <time>2016-09-13T06:45:20Z</time>
      </trkpt>
      <trkpt lat="45.77654" lon="4.8101">
        <ele>171</ele>
        <time>2016-09-13T06:45:22Z</time>
      </trkpt>
      <trkpt lat="45.77639" lon="4.81009">
        <ele>175</ele>
        <time>2016-09-13T06:45:30Z</time>
      </trkpt>
      <trkpt lat="45.77626" lon="4.81009">
        <ele>171</ele>
        <time>2016-09-13T06:45:37Z</time>
      </trkpt>
      <trkpt lat="45.77618" lon="4.81009">
        <ele>171</ele>
        <time>2016-09-13T06:45:42Z</time>
      </trkpt>
      <trkpt lat="45.77611" lon="4.81009">
        <ele>171</ele>
        <time>2016-09-13T06:45:46Z</time>
      </trkpt>
      <trkpt lat="45.77601" lon="4.8101">
        <ele>171</ele>
        <time>2016-09-13T06:45:52Z</time>
      </trkpt>
      <trkpt lat="45.77587" lon="4.8101">
        <ele>170</ele>
        <time>2016-09-13T06:46:00Z</time>
      </trkpt>
      <trkpt lat="45.7758" lon="4.81011">
        <ele>170</ele>
        <time>2016-09-13T06:46:04Z</time>
      </trkpt>
      <trkpt lat="45.77568" lon="4.81013">
        <ele>170</ele>
        <time>2016-09-13T06:46:11Z</time>
      </trkpt>
      <trkpt lat="45.7756" lon="4.81013">
        <ele>171</ele>
        <time>2016-09-13T06:46:16Z</time>
      </trkpt>
      <trkpt lat="45.7755" lon="4.81015">
        <ele>170</ele>
        <time>2016-09-13T06:46:22Z</time>
      </trkpt>
      <trkpt lat="45.77539" lon="4.81017">
        <ele>173</ele>
        <time>2016-09-13T06:46:29Z</time>
      </trkpt>
      <trkpt lat="45.77522" lon="4.81019">
        <ele>176</ele>
        <time>2016-09-13T06:46:39Z</time>
      </trkpt>
      <trkpt lat="45.77515" lon="4.81019">
        <ele>173</ele>
        <time>2016-09-13T06:46:43Z</time>
      </trkpt>
      <trkpt lat="45.77507" lon="4.81017">
        <ele>178</ele>
        <time>2016-09-13T06:46:47Z</time>
      </trkpt>
      <trkpt lat="45.77489" lon="4.81023">
        <ele>174</ele>
        <time>2016-09-13T06:46:57Z</time>
      </trkpt>
      <trkpt lat="45.77487" lon="4.81024">
        <ele>174</ele>
        <time>2016-09-13T06:46:59Z</time>
      </trkpt>
      <trkpt lat="45.77479" lon="4.8103">
        <ele>173</ele>
        <time>2016-09-13T06:47:05Z</time>
      </trkpt>
      <trkpt lat="45.77464" lon="4.8104">
        <ele>176</ele>
        <time>2016-09-13T06:47:16Z</time>
      </trkpt>
      <trkpt lat="45.77454" lon="4.81045">
        <ele>174</ele>
        <time>2016-09-13T06:47:22Z</time>
      </trkpt>
      <trkpt lat="45.77443" lon="4.81051">
        <ele>174</ele>
        <time>2016-09-13T06:47:29Z</time>
      </trkpt>
      <trkpt lat="45.7744" lon="4.81054">
        <ele>175</ele>
        <time>2016-09-13T06:47:31Z</time>
      </trkpt>
      <trkpt lat="45.77433" lon="4.8106">
        <ele>180</ele>
        <time>2016-09-13T06:47:36Z</time>
      </trkpt>
      <trkpt lat="45.77418" lon="4.81072">
        <ele>180</ele>
        <time>2016-09-13T06:47:45Z</time>
      </trkpt>
      <trkpt lat="45.77413" lon="4.81076">
        <ele>182</ele>
        <time>2016-09-13T06:47:48Z</time>
      </trkpt>
      <trkpt lat="45.77403" lon="4.81084">
        <ele>185</ele>
        <time>2016-09-13T06:47:54Z</time>
      </trkpt>
      <trkpt lat="45.77392" lon="4.81089">
        <ele>189</ele>
        <time>2016-09-13T06:48:00Z</time>
      </trkpt>
      <trkpt lat="45.77386" lon="4.81097">
        <ele>188</ele>
        <time>2016-09-13T06:48:06Z</time>
      </trkpt>
      <trkpt lat="45.77379" lon="4.81113">
        <ele>180</ele>
        <time>2016-09-13T06:48:15Z</time>
      </trkpt>
      <trkpt lat="45.77374" lon="4.81121">
        <ele>179</ele>
        <time>2016-09-13T06:48:19Z</time>
      </trkpt>
      <trkpt lat="45.7737" lon="4.81132">
        <ele>179</ele>
        <time>2016-09-13T06:48:24Z</time>
      </trkpt>
      <trkpt lat="45.77364" lon="4.81146">
        <ele>182</ele>
        <time>2016-09-13T06:48:30Z</time>
      </trkpt>
      <trkpt lat="45.77357" lon="4.81158">
        <ele>181</ele>
        <time>2016-09-13T06:48:36Z</time>
      </trkpt>
      <trkpt lat="45.77352" lon="4.8117">
        <ele>180</ele>
        <time>2016-09-13T06:48:42Z</time>
      </trkpt>
      <trkpt lat="45.77342" lon="4.8118">
        <ele>180</ele>
        <time>2016-09-13T06:48:48Z</time>
      </trkpt>
      <trkpt lat="45.77329" lon="4.81189">
        <ele>180</ele>
        <time>2016-09-13T06:48:54Z</time>
      </trkpt>
      <trkpt lat="45.77321" lon="4.81207">
        <ele>186</ele>
        <time>2016-09-13T06:49:03Z</time>
      </trkpt>
      <trkpt lat="45.77318" lon="4.81223">
        <ele>174</ele>
        <time>2016-09-13T06:49:10Z</time>
      </trkpt>
      <trkpt lat="45.77317" lon="4.81227">
        <ele>173</ele>
        <time>2016-09-13T06:49:12Z</time>
      </trkpt>
      <trkpt lat="45.77314" lon="4.81239">
        <ele>173</ele>
        <time>2016-09-13T06:49:18Z</time>
      </trkpt>
      <trkpt lat="45.77304" lon="4.81246">
        <ele>175</ele>
        <time>2016-09-13T06:49:24Z</time>
      </trkpt>
      <trkpt lat="45.77294" lon="4.81258">
        <ele>178</ele>
        <time>2016-09-13T06:49:31Z</time>
      </trkpt>
      <trkpt lat="45.77287" lon="4.81264">
        <ele>183</ele>
        <time>2016-09-13T06:49:36Z</time>
      </trkpt>
      <trkpt lat="45.77271" lon="4.81271">
        <ele>189</ele>
        <time>2016-09-13T06:49:45Z</time>
      </trkpt>
      <trkpt lat="45.77264" lon="4.8128">
        <ele>189</ele>
        <time>2016-09-13T06:49:50Z</time>
      </trkpt>
      <trkpt lat="45.77258" lon="4.81287">
        <ele>186</ele>
        <time>2016-09-13T06:49:54Z</time>
      </trkpt>
      <trkpt lat="45.77251" lon="4.81294">
        <ele>183</ele>
        <time>2016-09-13T06:50:00Z</time>
      </trkpt>
      <trkpt lat="45.77245" lon="4.81303">
        <ele>178</ele>
        <time>2016-09-13T06:50:06Z</time>
      </trkpt>
      <trkpt lat="45.77231" lon="4.81313">
        <ele>179</ele>
        <time>2016-09-13T06:50:15Z</time>
      </trkpt>
      <trkpt lat="45.77217" lon="4.81319">
        <ele>184</ele>
        <time>2016-09-13T06:50:23Z</time>
      </trkpt>
      <trkpt lat="45.7721" lon="4.81323">
        <ele>183</ele>
        <time>2016-09-13T06:50:27Z</time>
      </trkpt>
      <trkpt lat="45.77205" lon="4.81325">
        <ele>185</ele>
        <time>2016-09-13T06:50:30Z</time>
      </trkpt>
      <trkpt lat="45.77196" lon="4.81328">
        <ele>182</ele>
        <time>2016-09-13T06:50:36Z</time>
      </trkpt>
      <trkpt lat="45.77187" lon="4.81332">
        <ele>182</ele>
        <time>2016-09-13T06:50:42Z</time>
      </trkpt>
      <trkpt lat="45.77173" lon="4.81339">
        <ele>183</ele>
        <time>2016-09-13T06:50:50Z</time>
      </trkpt>
      <trkpt lat="45.77166" lon="4.81345">
        <ele>184</ele>
        <time>2016-09-13T06:50:54Z</time>
      </trkpt>
      <trkpt lat="45.77155" lon="4.81355">
        <ele>185</ele>
        <time>2016-09-13T06:51:01Z</time>
      </trkpt>
      <trkpt lat="45.77144" lon="4.8136">
        <ele>184</ele>
        <time>2016-09-13T06:51:07Z</time>
      </trkpt>
      <trkpt lat="45.77126" lon="4.81361">
        <ele>191</ele>
        <time>2016-09-13T06:51:17Z</time>
      </trkpt>
      <trkpt lat="45.77119" lon="4.81369">
        <ele>189</ele>
        <time>2016-09-13T06:51:23Z</time>
      </trkpt>
      <trkpt lat="45.77118" lon="4.81369">
        <ele>186</ele>
        <time>2016-09-13T06:51:24Z</time>
      </trkpt>
      <trkpt lat="45.77109" lon="4.81373">
        <ele>185</ele>
        <time>2016-09-13T06:51:31Z</time>
      </trkpt>
      <trkpt lat="45.77101" lon="4.81376">
        <ele>183</ele>
        <time>2016-09-13T06:51:36Z</time>
      </trkpt>
      <trkpt lat="45.77082" lon="4.81378">
        <ele>185</ele>
        <time>2016-09-13T06:51:47Z</time>
      </trkpt>
      <trkpt lat="45.77081" lon="4.81379">
        <ele>185</ele>
        <time>2016-09-13T06:51:48Z</time>
      </trkpt>
      <trkpt lat="45.77071" lon="4.81383">
        <ele>185</ele>
        <time>2016-09-13T06:51:54Z</time>
      </trkpt>
      <trkpt lat="45.77063" lon="4.8139">
        <ele>181</ele>
        <time>2016-09-13T06:52:00Z</time>
      </trkpt>
      <trkpt lat="45.7705" lon="4.81392">
        <ele>189</ele>
        <time>2016-09-13T06:52:06Z</time>
      </trkpt>
      <trkpt lat="45.77036" lon="4.81395">
        <ele>184</ele>
        <time>2016-09-13T06:52:13Z</time>
      </trkpt>
      <trkpt lat="45.77031" lon="4.81397">
        <ele>180</ele>
        <time>2016-09-13T06:52:18Z</time>
      </trkpt>
      <trkpt lat="45.77025" lon="4.81397">
        <ele>180</ele>
        <time>2016-09-13T06:52:24Z</time>
      </trkpt>
      <trkpt lat="45.76992" lon="4.81407">
        <ele>169</ele>
        <time>2016-09-13T06:52:43Z</time>
      </trkpt>
      <trkpt lat="45.76989" lon="4.81411">
        <ele>163</ele>
        <time>2016-09-13T06:52:48Z</time>
      </trkpt>
      <trkpt lat="45.76985" lon="4.81414">
        <ele>167</ele>
        <time>2016-09-13T06:52:51Z</time>
      </trkpt>
      <trkpt lat="45.76975" lon="4.81417">
        <ele>175</ele>
        <time>2016-09-13T06:52:56Z</time>
      </trkpt>
      <trkpt lat="45.76958" lon="4.81425">
        <ele>178</ele>
        <time>2016-09-13T06:53:06Z</time>
      </trkpt>
      <trkpt lat="45.76954" lon="4.81425">
        <ele>180</ele>
        <time>2016-09-13T06:53:08Z</time>
      </trkpt>
      <trkpt lat="45.76935" lon="4.81436">
        <ele>184</ele>
        <time>2016-09-13T06:53:19Z</time>
      </trkpt>
      <trkpt lat="45.76933" lon="4.81437">
        <ele>183</ele>
        <time>2016-09-13T06:53:20Z</time>
      </trkpt>
      <trkpt lat="45.76925" lon="4.81442">
        <ele>180</ele>
        <time>2016-09-13T06:53:26Z</time>
      </trkpt>
      <trkpt lat="45.76915" lon="4.81448">
        <ele>176</ele>
        <time>2016-09-13T06:53:33Z</time>
      </trkpt>
      <trkpt lat="45.76907" lon="4.81452">
        <ele>179</ele>
        <time>2016-09-13T06:53:38Z</time>
      </trkpt>
      <trkpt lat="45.76894" lon="4.81459">
        <ele>182</ele>
        <time>2016-09-13T06:53:45Z</time>
      </trkpt>
      <trkpt lat="45.76887" lon="4.81464">
        <ele>178</ele>
        <time>2016-09-13T06:53:50Z</time>
      </trkpt>
      <trkpt lat="45.76878" lon="4.81471">
        <ele>177</ele>
        <time>2016-09-13T06:53:56Z</time>
      </trkpt>
      <trkpt lat="45.76868" lon="4.81479">
        <ele>180</ele>
        <time>2016-09-13T06:54:02Z</time>
      </trkpt>
      <trkpt lat="45.7685" lon="4.81496">
        <ele>187</ele>
        <time>2016-09-13T06:54:13Z</time>
      </trkpt>
      <trkpt lat="45.76844" lon="4.815">
        <ele>183</ele>
        <time>2016-09-13T06:54:17Z</time>
      </trkpt>
      <trkpt lat="45.76841" lon="4.81503">
        <ele>183</ele>
        <time>2016-09-13T06:54:20Z</time>
      </trkpt>
      <trkpt lat="45.76829" lon="4.81519">
        <ele>182</ele>
        <time>2016-09-13T06:54:31Z</time>
      </trkpt>
      <trkpt lat="45.76828" lon="4.81523">
        <ele>181</ele>
        <time>2016-09-13T06:54:33Z</time>
      </trkpt>
      <trkpt lat="45.76824" lon="4.81533">
        <ele>182</ele>
        <time>2016-09-13T06:54:39Z</time>
      </trkpt>
      <trkpt lat="45.76816" lon="4.81548">
        <ele>186</ele>
        <time>2016-09-13T06:54:47Z</time>
      </trkpt>
      <trkpt lat="45.76813" lon="4.81558">
        <ele>174</ele>
        <time>2016-09-13T06:54:52Z</time>
      </trkpt>
      <trkpt lat="45.7681" lon="4.8157">
        <ele>176</ele>
        <time>2016-09-13T06:54:57Z</time>
      </trkpt>
      <trkpt lat="45.76803" lon="4.8158">
        <ele>178</ele>
        <time>2016-09-13T06:55:02Z</time>
      </trkpt>
      <trkpt lat="45.76792" lon="4.81599">
        <ele>178</ele>
        <time>2016-09-13T06:55:12Z</time>
      </trkpt>
      <trkpt lat="45.76785" lon="4.81613">
        <ele>174</ele>
        <time>2016-09-13T06:55:19Z</time>
      </trkpt>
      <trkpt lat="45.76783" lon="4.81618">
        <ele>174</ele>
        <time>2016-09-13T06:55:21Z</time>
      </trkpt>
      <trkpt lat="45.76781" lon="4.81637">
        <ele>171</ele>
        <time>2016-09-13T06:55:29Z</time>
      </trkpt>
      <trkpt lat="45.76779" lon="4.81644">
        <ele>172</ele>
        <time>2016-09-13T06:55:32Z</time>
      </trkpt>
      <trkpt lat="45.76775" lon="4.81658">
        <ele>171</ele>
        <time>2016-09-13T06:55:38Z</time>
      </trkpt>
      <trkpt lat="45.76767" lon="4.81682">
        <ele>172</ele>
        <time>2016-09-13T06:55:49Z</time>
      </trkpt>
      <trkpt lat="45.76765" lon="4.81693">
        <ele>171</ele>
        <time>2016-09-13T06:55:54Z</time>
      </trkpt>
      <trkpt lat="45.76765" lon="4.81698">
        <ele>171</ele>
        <time>2016-09-13T06:55:56Z</time>
      </trkpt>
      <trkpt lat="45.76763" lon="4.81711">
        <ele>171</ele>
        <time>2016-09-13T06:56:02Z</time>
      </trkpt>
      <trkpt lat="45.76761" lon="4.81725">
        <ele>169</ele>
        <time>2016-09-13T06:56:08Z</time>
      </trkpt>
      <trkpt lat="45.76757" lon="4.81738">
        <ele>169</ele>
        <time>2016-09-13T06:56:14Z</time>
      </trkpt>
      <trkpt lat="45.76753" lon="4.81752">
        <ele>169</ele>
        <time>2016-09-13T06:56:20Z</time>
      </trkpt>
      <trkpt lat="45.76748" lon="4.81776">
        <ele>169</ele>
        <time>2016-09-13T06:56:30Z</time>
      </trkpt>
      <trkpt lat="45.76748" lon="4.8178">
        <ele>169</ele>
        <time>2016-09-13T06:56:32Z</time>
      </trkpt>
      <trkpt lat="45.76747" lon="4.81795">
        <ele>168</ele>
        <time>2016-09-13T06:56:38Z</time>
      </trkpt>
      <trkpt lat="45.76746" lon="4.8181">
        <ele>167</ele>
        <time>2016-09-13T06:56:44Z</time>
      </trkpt>
      <trkpt lat="45.76743" lon="4.81826">
        <ele>167</ele>
        <time>2016-09-13T06:56:51Z</time>
      </trkpt>
      <trkpt lat="45.76742" lon="4.8184">
        <ele>166</ele>
        <time>2016-09-13T06:56:57Z</time>
      </trkpt>
      <trkpt lat="45.76743" lon="4.81855">
        <ele>166</ele>
        <time>2016-09-13T06:57:03Z</time>
      </trkpt>
      <trkpt lat="45.76746" lon="4.81877">
        <ele>165</ele>
        <time>2016-09-13T06:57:12Z</time>
      </trkpt>
      <trkpt lat="45.76747" lon="4.81882">
        <ele>165</ele>
        <time>2016-09-13T06:57:14Z</time>
      </trkpt>
      <trkpt lat="45.76748" lon="4.81897">
        <ele>166</ele>
        <time>2016-09-13T06:57:20Z</time>
      </trkpt>
      <trkpt lat="45.76748" lon="4.81911">
        <ele>167</ele>
        <time>2016-09-13T06:57:26Z</time>
      </trkpt>
      <trkpt lat="45.76753" lon="4.8193">
        <ele>166</ele>
        <time>2016-09-13T06:57:34Z</time>
      </trkpt>
      <trkpt lat="45.76756" lon="4.81944">
        <ele>165</ele>
        <time>2016-09-13T06:57:40Z</time>
      </trkpt>
      <trkpt lat="45.76758" lon="4.81958">
        <ele>166</ele>
        <time>2016-09-13T06:57:46Z</time>
      </trkpt>
      <trkpt lat="45.76759" lon="4.81967">
        <ele>165</ele>
        <time>2016-09-13T06:57:50Z</time>
      </trkpt>
      <trkpt lat="45.76762" lon="4.81981">
        <ele>166</ele>
        <time>2016-09-13T06:57:56Z</time>
      </trkpt>
      <trkpt lat="45.76766" lon="4.82005">
        <ele>167</ele>
        <time>2016-09-13T06:58:06Z</time>
      </trkpt>
      <trkpt lat="45.76766" lon="4.8201">
        <ele>167</ele>
        <time>2016-09-13T06:58:08Z</time>
      </trkpt>
      <trkpt lat="45.76767" lon="4.82024">
        <ele>169</ele>
        <time>2016-09-13T06:58:14Z</time>
      </trkpt>
      <trkpt lat="45.76769" lon="4.82042">
        <ele>170</ele>
        <time>2016-09-13T06:58:22Z</time>
      </trkpt>
      <trkpt lat="45.76769" lon="4.82053">
        <ele>171</ele>
        <time>2016-09-13T06:58:27Z</time>
      </trkpt>
      <trkpt lat="45.76772" lon="4.82065">
        <ele>171</ele>
        <time>2016-09-13T06:58:32Z</time>
      </trkpt>
      <trkpt lat="45.76773" lon="4.82089">
        <ele>171</ele>
        <time>2016-09-13T06:58:42Z</time>
      </trkpt>
      <trkpt lat="45.76774" lon="4.82094">
        <ele>171</ele>
        <time>2016-09-13T06:58:44Z</time>
      </trkpt>
      <trkpt lat="45.76778" lon="4.82111">
        <ele>171</ele>
        <time>2016-09-13T06:58:52Z</time>
      </trkpt>
      <trkpt lat="45.76786" lon="4.82132">
        <ele>169</ele>
        <time>2016-09-13T06:59:01Z</time>
      </trkpt>
      <trkpt lat="45.76787" lon="4.82134">
        <ele>169</ele>
        <time>2016-09-13T06:59:02Z</time>
      </trkpt>
      <trkpt lat="45.76793" lon="4.82148">
        <ele>169</ele>
        <time>2016-09-13T06:59:08Z</time>
      </trkpt>
      <trkpt lat="45.76802" lon="4.82172">
        <ele>169</ele>
        <time>2016-09-13T06:59:18Z</time>
      </trkpt>
      <trkpt lat="45.76803" lon="4.82181">
        <ele>169</ele>
        <time>2016-09-13T06:59:22Z</time>
      </trkpt>
      <trkpt lat="45.76806" lon="4.8219">
        <ele>169</ele>
        <time>2016-09-13T06:59:26Z</time>
      </trkpt>
      <trkpt lat="45.76806" lon="4.82203">
        <ele>169</ele>
        <time>2016-09-13T06:59:32Z</time>
      </trkpt>
      <trkpt lat="45.76809" lon="4.82217">
        <ele>169</ele>
        <time>2016-09-13T06:59:38Z</time>
      </trkpt>
      <trkpt lat="45.76812" lon="4.82234">
        <ele>168</ele>
        <time>2016-09-13T06:59:45Z</time>
      </trkpt>
      <trkpt lat="45.76815" lon="4.82251">
        <ele>166</ele>
        <time>2016-09-13T06:59:53Z</time>
      </trkpt>
      <trkpt lat="45.76817" lon="4.82266">
        <ele>166</ele>
        <time>2016-09-13T06:59:59Z</time>
      </trkpt>
      <trkpt lat="45.76818" lon="4.82273">
        <ele>165</ele>
        <time>2016-09-13T07:00:02Z</time>
      </trkpt>
      <trkpt lat="45.7682" lon="4.82287">
        <ele>166</ele>
        <time>2016-09-13T07:00:08Z</time>
      </trkpt>
      <trkpt lat="45.76821" lon="4.823">
        <ele>164</ele>
        <time>2016-09-13T07:00:14Z</time>
      </trkpt>
      <trkpt lat="45.76822" lon="4.82314">
        <ele>165</ele>
        <time>2016-09-13T07:00:20Z</time>
      </trkpt>
      <trkpt lat="45.76824" lon="4.82328">
        <ele>164</ele>
        <time>2016-09-13T07:00:26Z</time>
      </trkpt>
      <trkpt lat="45.76824" lon="4.82343">
        <ele>165</ele>
        <time>2016-09-13T07:00:32Z</time>
      </trkpt>
      <trkpt lat="45.76824" lon="4.82359">
        <ele>165</ele>
        <time>2016-09-13T07:00:38Z</time>
      </trkpt>
      <trkpt lat="45.76825" lon="4.82379">
        <ele>164</ele>
        <time>2016-09-13T07:00:46Z</time>
      </trkpt>
      <trkpt lat="45.76826" lon="4.82391">
        <ele>165</ele>
        <time>2016-09-13T07:00:51Z</time>
      </trkpt>
      <trkpt lat="45.76827" lon="4.82402">
        <ele>166</ele>
        <time>2016-09-13T07:00:56Z</time>
      </trkpt>
      <trkpt lat="45.76827" lon="4.82424">
        <ele>166</ele>
        <time>2016-09-13T07:01:05Z</time>
      </trkpt>
      <trkpt lat="45.76828" lon="4.82431">
        <ele>165</ele>
        <time>2016-09-13T07:01:08Z</time>
      </trkpt>
      <trkpt lat="45.7683" lon="4.82446">
        <ele>166</ele>
        <time>2016-09-13T07:01:14Z</time>
      </trkpt>
      <trkpt lat="45.76831" lon="4.8246">
        <ele>165</ele>
        <time>2016-09-13T07:01:20Z</time>
      </trkpt>
      <trkpt lat="45.76833" lon="4.82479">
        <ele>166</ele>
        <time>2016-09-13T07:01:28Z</time>
      </trkpt>
      <trkpt lat="45.76834" lon="4.82488">
        <ele>166</ele>
        <time>2016-09-13T07:01:32Z</time>
      </trkpt>
      <trkpt lat="45.76835" lon="4.82509">
        <ele>164</ele>
        <time>2016-09-13T07:01:41Z</time>
      </trkpt>
      <trkpt lat="45.76837" lon="4.82517">
        <ele>164</ele>
        <time>2016-09-13T07:01:44Z</time>
      </trkpt>
      <trkpt lat="45.76838" lon="4.82536">
        <ele>164</ele>
        <time>2016-09-13T07:01:52Z</time>
      </trkpt>
      <trkpt lat="45.76838" lon="4.82546">
        <ele>163</ele>
        <time>2016-09-13T07:01:56Z</time>
      </trkpt>
      <trkpt lat="45.76838" lon="4.82563">
        <ele>163</ele>
        <time>2016-09-13T07:02:03Z</time>
      </trkpt>
      <trkpt lat="45.76836" lon="4.82573">
        <ele>164</ele>
        <time>2016-09-13T07:02:08Z</time>
      </trkpt>
      <trkpt lat="45.76835" lon="4.82587">
        <ele>165</ele>
        <time>2016-09-13T07:02:14Z</time>
      </trkpt>
      <trkpt lat="45.76833" lon="4.82601">
        <ele>166</ele>
        <time>2016-09-13T07:02:20Z</time>
      </trkpt>
      <trkpt lat="45.76831" lon="4.82615">
        <ele>166</ele>
        <time>2016-09-13T07:02:26Z</time>
      </trkpt>
      <trkpt lat="45.76828" lon="4.8264">
        <ele>167</ele>
        <time>2016-09-13T07:02:36Z</time>
      </trkpt>
      <trkpt lat="45.76827" lon="4.82648">
        <ele>167</ele>
        <time>2016-09-13T07:02:39Z</time>
      </trkpt>
      <trkpt lat="45.76825" lon="4.82662">
        <ele>167</ele>
        <time>2016-09-13T07:02:45Z</time>
      </trkpt>
      <trkpt lat="45.76821" lon="4.82675">
        <ele>167</ele>
        <time>2016-09-13T07:02:51Z</time>
      </trkpt>
      <trkpt lat="45.76816" lon="4.82694">
        <ele>167</ele>
        <time>2016-09-13T07:02:59Z</time>
      </trkpt>
      <trkpt lat="45.76813" lon="4.82705">
        <ele>167</ele>
        <time>2016-09-13T07:03:04Z</time>
      </trkpt>
      <trkpt lat="45.76809" lon="4.82724">
        <ele>167</ele>
        <time>2016-09-13T07:03:13Z</time>
      </trkpt>
      <trkpt lat="45.76808" lon="4.82729">
        <ele>168</ele>
        <time>2016-09-13T07:03:15Z</time>
      </trkpt>
      <trkpt lat="45.76804" lon="4.82742">
        <ele>169</ele>
        <time>2016-09-13T07:03:21Z</time>
      </trkpt>
      <trkpt lat="45.76802" lon="4.82754">
        <ele>167</ele>
        <time>2016-09-13T07:03:27Z</time>
      </trkpt>
      <trkpt lat="45.76798" lon="4.82767">
        <ele>169</ele>
        <time>2016-09-13T07:03:33Z</time>
      </trkpt>
      <trkpt lat="45.76794" lon="4.82781">
        <ele>171</ele>
        <time>2016-09-13T07:03:39Z</time>
      </trkpt>
      <trkpt lat="45.76785" lon="4.82803">
        <ele>173</ele>
        <time>2016-09-13T07:03:49Z</time>
      </trkpt>
      <trkpt lat="45.76784" lon="4.82804">
        <ele>173</ele>
        <time>2016-09-13T07:03:51Z</time>
      </trkpt>
      <trkpt lat="45.76778" lon="4.82814">
        <ele>176</ele>
        <time>2016-09-13T07:03:58Z</time>
      </trkpt>
      <trkpt lat="45.76771" lon="4.82826">
        <ele>180</ele>
        <time>2016-09-13T07:04:03Z</time>
      </trkpt>
      <trkpt lat="45.76759" lon="4.8285">
        <ele>179</ele>
        <time>2016-09-13T07:04:14Z</time>
      </trkpt>
      <trkpt lat="45.76755" lon="4.82857">
        <ele>178</ele>
        <time>2016-09-13T07:04:18Z</time>
      </trkpt>
      <trkpt lat="45.76753" lon="4.82864">
        <ele>176</ele>
        <time>2016-09-13T07:04:21Z</time>
      </trkpt>
      <trkpt lat="45.76747" lon="4.82876">
        <ele>174</ele>
        <time>2016-09-13T07:04:27Z</time>
      </trkpt>
      <trkpt lat="45.76741" lon="4.82889">
        <ele>173</ele>
        <time>2016-09-13T07:04:33Z</time>
      </trkpt>
      <trkpt lat="45.76735" lon="4.82901">
        <ele>172</ele>
        <time>2016-09-13T07:04:39Z</time>
      </trkpt>
      <trkpt lat="45.76726" lon="4.8292">
        <ele>170</ele>
        <time>2016-09-13T07:04:50Z</time>
      </trkpt>
      <trkpt lat="45.76726" lon="4.82922">
        <ele>169</ele>
        <time>2016-09-13T07:04:51Z</time>
      </trkpt>
      <trkpt lat="45.76722" lon="4.82934">
        <ele>163</ele>
        <time>2016-09-13T07:04:57Z</time>
      </trkpt>
      <trkpt lat="45.76717" lon="4.82945">
        <ele>157</ele>
        <time>2016-09-13T07:05:03Z</time>
      </trkpt>
      <trkpt lat="45.7671" lon="4.82955">
        <ele>159</ele>
        <time>2016-09-13T07:05:09Z</time>
      </trkpt>
      <trkpt lat="45.76699" lon="4.82965">
        <ele>160</ele>
        <time>2016-09-13T07:05:16Z</time>
      </trkpt>
      <trkpt lat="45.76693" lon="4.82973">
        <ele>161</ele>
        <time>2016-09-13T07:05:21Z</time>
      </trkpt>
      <trkpt lat="45.76686" lon="4.82982">
        <ele>163</ele>
        <time>2016-09-13T07:05:27Z</time>
      </trkpt>
      <trkpt lat="45.76678" lon="4.82992">
        <ele>163</ele>
        <time>2016-09-13T07:05:33Z</time>
      </trkpt>
      <trkpt lat="45.7666" lon="4.82993">
        <ele>166</ele>
        <time>2016-09-13T07:05:45Z</time>
      </trkpt>
      <trkpt lat="45.76656" lon="4.83002">
        <ele>167</ele>
        <time>2016-09-13T07:05:48Z</time>
      </trkpt>
      <trkpt lat="45.76646" lon="4.83021">
        <ele>168</ele>
        <time>2016-09-13T07:05:57Z</time>
      </trkpt>
      <trkpt lat="45.76643" lon="4.83023">
        <ele>168</ele>
        <time>2016-09-13T07:05:59Z</time>
      </trkpt>
      <trkpt lat="45.76625" lon="4.83034">
        <ele>172</ele>
        <time>2016-09-13T07:06:09Z</time>
      </trkpt>
      <trkpt lat="45.76621" lon="4.83037">
        <ele>178</ele>
        <time>2016-09-13T07:06:11Z</time>
      </trkpt>
      <trkpt lat="45.76611" lon="4.83045">
        <ele>173</ele>
        <time>2016-09-13T07:06:17Z</time>
      </trkpt>
      <trkpt lat="45.76595" lon="4.83065">
        <ele>176</ele>
        <time>2016-09-13T07:06:28Z</time>
      </trkpt>
      <trkpt lat="45.7659" lon="4.83069">
        <ele>177</ele>
        <time>2016-09-13T07:06:31Z</time>
      </trkpt>
      <trkpt lat="45.76575" lon="4.83077">
        <ele>185</ele>
        <time>2016-09-13T07:06:39Z</time>
      </trkpt>
      <trkpt lat="45.76572" lon="4.83079">
        <ele>186</ele>
        <time>2016-09-13T07:06:41Z</time>
      </trkpt>
      <trkpt lat="45.76564" lon="4.83089">
        <ele>186</ele>
        <time>2016-09-13T07:06:48Z</time>
      </trkpt>
      <trkpt lat="45.76557" lon="4.83098">
        <ele>188</ele>
        <time>2016-09-13T07:06:53Z</time>
      </trkpt>
      <trkpt lat="45.76542" lon="4.83109">
        <ele>176</ele>
        <time>2016-09-13T07:07:04Z</time>
      </trkpt>
      <trkpt lat="45.76541" lon="4.8311">
        <ele>177</ele>
        <time>2016-09-13T07:07:05Z</time>
      </trkpt>
      <trkpt lat="45.76534" lon="4.83118">
        <ele>172</ele>
        <time>2016-09-13T07:07:11Z</time>
      </trkpt>
      <trkpt lat="45.76526" lon="4.83119">
        <ele>177</ele>
        <time>2016-09-13T07:07:17Z</time>
      </trkpt>
      <trkpt lat="45.76516" lon="4.83124">
        <ele>178</ele>
        <time>2016-09-13T07:07:23Z</time>
      </trkpt>
      <trkpt lat="45.765" lon="4.83127">
        <ele>183</ele>
        <time>2016-09-13T07:07:32Z</time>
      </trkpt>
      <trkpt lat="45.76492" lon="4.83124">
        <ele>180</ele>
        <time>2016-09-13T07:07:37Z</time>
      </trkpt>
      <trkpt lat="45.76485" lon="4.8312">
        <ele>181</ele>
        <time>2016-09-13T07:07:41Z</time>
      </trkpt>
      <trkpt lat="45.76476" lon="4.83119">
        <ele>180</ele>
        <time>2016-09-13T07:07:47Z</time>
      </trkpt>
      <trkpt lat="45.76467" lon="4.8312">
        <ele>171</ele>
        <time>2016-09-13T07:07:53Z</time>
      </trkpt>
      <trkpt lat="45.76459" lon="4.83122">
        <ele>166</ele>
        <time>2016-09-13T07:07:59Z</time>
      </trkpt>
      <trkpt lat="45.76446" lon="4.8313">
        <ele>163</ele>
        <time>2016-09-13T07:08:09Z</time>
      </trkpt>
      <trkpt lat="45.76434" lon="4.83129">
        <ele>167</ele>
        <time>2016-09-13T07:08:16Z</time>
      </trkpt>
      <trkpt lat="45.76432" lon="4.83129">
        <ele>169</ele>
        <time>2016-09-13T07:08:17Z</time>
      </trkpt>
      <trkpt lat="45.76416" lon="4.83126">
        <ele>172</ele>
        <time>2016-09-13T07:08:26Z</time>
      </trkpt>
      <trkpt lat="45.7641" lon="4.83125">
        <ele>170</ele>
        <time>2016-09-13T07:08:29Z</time>
      </trkpt>
      <trkpt lat="45.76391" lon="4.83129">
        <ele>168</ele>
        <time>2016-09-13T07:08:41Z</time>
      </trkpt>
      <trkpt lat="45.76387" lon="4.83125">
        <ele>169</ele>
        <time>2016-09-13T07:08:44Z</time>
      </trkpt>
      <trkpt lat="45.76371" lon="4.83127">
        <ele>173</ele>
        <time>2016-09-13T07:08:52Z</time>
      </trkpt>
      <trkpt lat="45.76368" lon="4.83128">
        <ele>171</ele>
        <time>2016-09-13T07:08:54Z</time>
      </trkpt>
      <trkpt lat="45.7636" lon="4.83128">
        <ele>170</ele>
        <time>2016-09-13T07:09:00Z</time>
      </trkpt>
      <trkpt lat="45.76339" lon="4.83132">
        <ele>177</ele>
        <time>2016-09-13T07:09:11Z</time>
      </trkpt>
      <trkpt lat="45.76338" lon="4.83133">
        <ele>175</ele>
        <time>2016-09-13T07:09:12Z</time>
      </trkpt>
      <trkpt lat="45.7633" lon="4.83134">
        <ele>172</ele>
        <time>2016-09-13T07:09:18Z</time>
      </trkpt>
      <trkpt lat="45.76309" lon="4.8313">
        <ele>175</ele>
        <time>2016-09-13T07:09:30Z</time>
      </trkpt>
      <trkpt lat="45.76301" lon="4.8313">
        <ele>174</ele>
        <time>2016-09-13T07:09:35Z</time>
      </trkpt>
      <trkpt lat="45.76298" lon="4.8313">
        <ele>175</ele>
        <time>2016-09-13T07:09:37Z</time>
      </trkpt>
      <trkpt lat="45.76287" lon="4.83127">
        <ele>182</ele>
        <time>2016-09-13T07:09:43Z</time>
      </trkpt>
      <trkpt lat="45.76276" lon="4.83128">
        <ele>180</ele>
        <time>2016-09-13T07:09:49Z</time>
      </trkpt>
      <trkpt lat="45.76267" lon="4.83127">
        <ele>177</ele>
        <time>2016-09-13T07:09:55Z</time>
      </trkpt>
      <trkpt lat="45.76258" lon="4.83123">
        <ele>179</ele>
        <time>2016-09-13T07:10:01Z</time>
      </trkpt>
      <trkpt lat="45.76247" lon="4.83119">
        <ele>179</ele>
        <time>2016-09-13T07:10:07Z</time>
      </trkpt>
      <trkpt lat="45.7623" lon="4.83123">
        <ele>170</ele>
        <time>2016-09-13T07:10:17Z</time>
      </trkpt>
      <trkpt lat="45.76222" lon="4.83119">
        <ele>167</ele>
        <time>2016-09-13T07:10:24Z</time>
      </trkpt>
      <trkpt lat="45.76221" lon="4.83118">
        <ele>165</ele>
        <time>2016-09-13T07:10:25Z</time>
      </trkpt>
      <trkpt lat="45.76211" lon="4.83112">
        <ele>169</ele>
        <time>2016-09-13T07:10:31Z</time>
      </trkpt>
      <trkpt lat="45.76199" lon="4.83116">
        <ele>169</ele>
        <time>2016-09-13T07:10:37Z</time>
      </trkpt>
      <trkpt lat="45.76188" lon="4.83113">
        <ele>160</ele>
        <time>2016-09-13T07:10:46Z</time>
      </trkpt>
      <trkpt lat="45.76179" lon="4.8311">
        <ele>161</ele>
        <time>2016-09-13T07:10:52Z</time>
      </trkpt>
      <trkpt lat="45.76174" lon="4.83108">
        <ele>163</ele>
        <time>2016-09-13T07:10:55Z</time>
      </trkpt>
      <trkpt lat="45.76157" lon="4.83099">
        <ele>166</ele>
        <time>2016-09-13T07:11:05Z</time>
      </trkpt>
      <trkpt lat="45.76154" lon="4.83101">
        <ele>169</ele>
        <time>2016-09-13T07:11:07Z</time>
      </trkpt>
      <trkpt lat="45.76143" lon="4.831">
        <ele>168</ele>
        <time>2016-09-13T07:11:13Z</time>
      </trkpt>
      <trkpt lat="45.76128" lon="4.83095">
        <ele>166</ele>
        <time>2016-09-13T07:11:24Z</time>
      </trkpt>
      <trkpt lat="45.76117" lon="4.83094">
        <ele>166</ele>
        <time>2016-09-13T07:11:29Z</time>
      </trkpt>
      <trkpt lat="45.76105" lon="4.83087">
        <ele>171</ele>
        <time>2016-09-13T07:11:35Z</time>
      </trkpt>
      <trkpt lat="45.76097" lon="4.83081">
        <ele>172</ele>
        <time>2016-09-13T07:11:40Z</time>
      </trkpt>
      <trkpt lat="45.76092" lon="4.83078">
        <ele>171</ele>
        <time>2016-09-13T07:11:43Z</time>
      </trkpt>
      <trkpt lat="45.76084" lon="4.83074">
        <ele>170</ele>
        <time>2016-09-13T07:11:49Z</time>
      </trkpt>
      <trkpt lat="45.76075" lon="4.8307">
        <ele>169</ele>
        <time>2016-09-13T07:11:55Z</time>
      </trkpt>
      <trkpt lat="45.76069" lon="4.83065">
        <ele>166</ele>
        <time>2016-09-13T07:12:01Z</time>
      </trkpt>
      <trkpt lat="45.76061" lon="4.83056">
        <ele>161</ele>
        <time>2016-09-13T07:12:10Z</time>
      </trkpt>
      <trkpt lat="45.76048" lon="4.83046">
        <ele>165</ele>
        <time>2016-09-13T07:12:18Z</time>
      </trkpt>
      <trkpt lat="45.76043" lon="4.83043">
        <ele>166</ele>
        <time>2016-09-13T07:12:21Z</time>
      </trkpt>
      <trkpt lat="45.76032" lon="4.83031">
        <ele>168</ele>
        <time>2016-09-13T07:12:29Z</time>
      </trkpt>
      <trkpt lat="45.76029" lon="4.83028">
        <ele>168</ele>
        <time>2016-09-13T07:12:31Z</time>
      </trkpt>
      <trkpt lat="45.7602" lon="4.83021">
        <ele>168</ele>
        <time>2016-09-13T07:12:37Z</time>
      </trkpt>
      <trkpt lat="45.76011" lon="4.83013">
        <ele>169</ele>
        <time>2016-09-13T07:12:43Z</time>
      </trkpt>
      <trkpt lat="45.76001" lon="4.83004">
        <ele>167</ele>
        <time>2016-09-13T07:12:50Z</time>
      </trkpt>
      <trkpt lat="45.75993" lon="4.82995">
        <ele>169</ele>
        <time>2016-09-13T07:12:56Z</time>
      </trkpt>
      <trkpt lat="45.75987" lon="4.82989">
        <ele>167</ele>
        <time>2016-09-13T07:13:01Z</time>
      </trkpt>
      <trkpt lat="45.75977" lon="4.8298">
        <ele>169</ele>
        <time>2016-09-13T07:13:08Z</time>
      </trkpt>
      <trkpt lat="45.75969" lon="4.82974">
        <ele>171</ele>
        <time>2016-09-13T07:13:13Z</time>
      </trkpt>
      <trkpt lat="45.7596" lon="4.82966">
        <ele>170</ele>
        <time>2016-09-13T07:13:19Z</time>
      </trkpt>
      <trkpt lat="45.75944" lon="4.8295">
        <ele>169</ele>
        <time>2016-09-13T07:13:30Z</time>
      </trkpt>
      <trkpt lat="45.75943" lon="4.82948">
        <ele>168</ele>
        <time>2016-09-13T07:13:31Z</time>
      </trkpt>
      <trkpt lat="45.75937" lon="4.8294">
        <ele>169</ele>
        <time>2016-09-13T07:13:37Z</time>
      </trkpt>
      <trkpt lat="45.7593" lon="4.8293">
        <ele>169</ele>
        <time>2016-09-13T07:13:44Z</time>
      </trkpt>
      <trkpt lat="45.759" lon="4.82927">
        <ele>164</ele>
        <time>2016-09-13T07:13:57Z</time>
      </trkpt>
      <trkpt lat="45.75892" lon="4.82924">
        <ele>170</ele>
        <time>2016-09-13T07:14:02Z</time>
      </trkpt>
      <trkpt lat="45.75888" lon="4.82917">
        <ele>168</ele>
        <time>2016-09-13T07:14:06Z</time>
      </trkpt>
      <trkpt lat="45.75885" lon="4.8291">
        <ele>170</ele>
        <time>2016-09-13T07:14:10Z</time>
      </trkpt>
      <trkpt lat="45.75875" lon="4.82891">
        <ele>169</ele>
        <time>2016-09-13T07:14:21Z</time>
      </trkpt>
      <trkpt lat="45.75873" lon="4.82886">
        <ele>169</ele>
        <time>2016-09-13T07:14:24Z</time>
      </trkpt>
      <trkpt lat="45.75868" lon="4.82877">
        <ele>169</ele>
        <time>2016-09-13T07:14:29Z</time>
      </trkpt>
      <trkpt lat="45.75861" lon="4.82871">
        <ele>168</ele>
        <time>2016-09-13T07:14:34Z</time>
      </trkpt>
      <trkpt lat="45.75851" lon="4.82862">
        <ele>166</ele>
        <time>2016-09-13T07:14:41Z</time>
      </trkpt>
      <trkpt lat="45.75838" lon="4.82847">
        <ele>170</ele>
        <time>2016-09-13T07:14:51Z</time>
      </trkpt>
      <trkpt lat="45.75833" lon="4.82842">
        <ele>170</ele>
        <time>2016-09-13T07:14:54Z</time>
      </trkpt>
      <trkpt lat="45.75821" lon="4.82828">
        <ele>172</ele>
        <time>2016-09-13T07:15:02Z</time>
      </trkpt>
      <trkpt lat="45.75816" lon="4.82821">
        <ele>173</ele>
        <time>2016-09-13T07:15:06Z</time>
      </trkpt>
      <trkpt lat="45.7581" lon="4.82815">
        <ele>171</ele>
        <time>2016-09-13T07:15:10Z</time>
      </trkpt>
      <trkpt lat="45.75802" lon="4.82807">
        <ele>170</ele>
        <time>2016-09-13T07:15:16Z</time>
      </trkpt>
      <trkpt lat="45.75789" lon="4.82798">
        <ele>174</ele>
        <time>2016-09-13T07:15:26Z</time>
      </trkpt>
      <trkpt lat="45.75788" lon="4.82795">
        <ele>173</ele>
        <time>2016-09-13T07:15:29Z</time>
      </trkpt>
      <trkpt lat="45.75781" lon="4.82789">
        <ele>174</ele>
        <time>2016-09-13T07:15:35Z</time>
      </trkpt>
      <trkpt lat="45.75769" lon="4.82792">
        <ele>172</ele>
        <time>2016-09-13T07:15:42Z</time>
      </trkpt>
      <trkpt lat="45.75763" lon="4.82792">
        <ele>171</ele>
        <time>2016-09-13T07:15:46Z</time>
      </trkpt>
      <trkpt lat="45.75753" lon="4.82786">
        <ele>171</ele>
        <time>2016-09-13T07:15:52Z</time>
      </trkpt>
      <trkpt lat="45.75747" lon="4.82776">
        <ele>169</ele>
        <time>2016-09-13T07:15:58Z</time>
      </trkpt>
      <trkpt lat="45.7574" lon="4.82767">
        <ele>174</ele>
        <time>2016-09-13T07:16:04Z</time>
      </trkpt>
      <trkpt lat="45.75731" lon="4.82761">
        <ele>175</ele>
        <time>2016-09-13T07:16:10Z</time>
      </trkpt>
      <trkpt lat="45.75719" lon="4.82754">
        <ele>175</ele>
        <time>2016-09-13T07:16:16Z</time>
      </trkpt>
      <trkpt lat="45.75707" lon="4.82743">
        <ele>180</ele>
        <time>2016-09-13T07:16:24Z</time>
      </trkpt>
      <trkpt lat="45.75703" lon="4.82732">
        <ele>178</ele>
        <time>2016-09-13T07:16:29Z</time>
      </trkpt>
      <trkpt lat="45.75699" lon="4.82726">
        <ele>176</ele>
        <time>2016-09-13T07:16:34Z</time>
      </trkpt>
      <trkpt lat="45.75689" lon="4.82713">
        <ele>174</ele>
        <time>2016-09-13T07:16:44Z</time>
      </trkpt>
      <trkpt lat="45.75677" lon="4.82707">
        <ele>172</ele>
        <time>2016-09-13T07:16:51Z</time>
      </trkpt>
      <trkpt lat="45.75675" lon="4.827">
        <ele>170</ele>
        <time>2016-09-13T07:16:54Z</time>
      </trkpt>
      <trkpt lat="45.75672" lon="4.82694">
        <ele>169</ele>
        <time>2016-09-13T07:16:58Z</time>
      </trkpt>
      <trkpt lat="45.75666" lon="4.82687">
        <ele>170</ele>
        <time>2016-09-13T07:17:04Z</time>
      </trkpt>
      <trkpt lat="45.75655" lon="4.82684">
        <ele>170</ele>
        <time>2016-09-13T07:17:10Z</time>
      </trkpt>
      <trkpt lat="45.75637" lon="4.82664">
        <ele>169</ele>
        <time>2016-09-13T07:17:21Z</time>
      </trkpt>
      <trkpt lat="45.75636" lon="4.82663">
        <ele>169</ele>
        <time>2016-09-13T07:17:22Z</time>
      </trkpt>
      <trkpt lat="45.75628" lon="4.82653">
        <ele>170</ele>
        <time>2016-09-13T07:17:28Z</time>
      </trkpt>
      <trkpt lat="45.75568" lon="4.82651">
        <ele>161</ele>
        <time>2016-09-13T07:17:58Z</time>
      </trkpt>
      <trkpt lat="45.75572" lon="4.82674">
        <ele>169</ele>
        <time>2016-09-13T07:18:04Z</time>
      </trkpt>
      <trkpt lat="45.75582" lon="4.82693">
        <ele>172</ele>
        <time>2016-09-13T07:18:10Z</time>
      </trkpt>
      <trkpt lat="45.75585" lon="4.82713">
        <ele>172</ele>
        <time>2016-09-13T07:18:17Z</time>
      </trkpt>
      <trkpt lat="45.75584" lon="4.82717">
        <ele>174</ele>
        <time>2016-09-13T07:18:19Z</time>
      </trkpt>
      <trkpt lat="45.7557" lon="4.8273">
        <ele>179</ele>
        <time>2016-09-13T07:18:28Z</time>
      </trkpt>
      <trkpt lat="45.75566" lon="4.82733">
        <ele>180</ele>
        <time>2016-09-13T07:18:30Z</time>
      </trkpt>
      <trkpt lat="45.75556" lon="4.8274">
        <ele>186</ele>
        <time>2016-09-13T07:18:36Z</time>
      </trkpt>
      <trkpt lat="45.75545" lon="4.82744">
        <ele>189</ele>
        <time>2016-09-13T07:18:42Z</time>
      </trkpt>
      <trkpt lat="45.75538" lon="4.82738">
        <ele>188</ele>
        <time>2016-09-13T07:18:50Z</time>
      </trkpt>
      <trkpt lat="45.75523" lon="4.82718">
        <ele>190</ele>
        <time>2016-09-13T07:18:59Z</time>
      </trkpt>
      <trkpt lat="45.75515" lon="4.82712">
        <ele>193</ele>
        <time>2016-09-13T07:19:03Z</time>
      </trkpt>
      <trkpt lat="45.75509" lon="4.82702">
        <ele>188</ele>
        <time>2016-09-13T07:19:10Z</time>
      </trkpt>
      <trkpt lat="45.75503" lon="4.82697">
        <ele>190</ele>
        <time>2016-09-13T07:19:14Z</time>
      </trkpt>
      <trkpt lat="45.75494" lon="4.82695">
        <ele>188</ele>
        <time>2016-09-13T07:19:19Z</time>
      </trkpt>
      <trkpt lat="45.75482" lon="4.82685">
        <ele>184</ele>
        <time>2016-09-13T07:19:29Z</time>
      </trkpt>
      <trkpt lat="45.75481" lon="4.82683">
        <ele>180</ele>
        <time>2016-09-13T07:19:30Z</time>
      </trkpt>
      <trkpt lat="45.75482" lon="4.82674">
        <ele>177</ele>
        <time>2016-09-13T07:19:36Z</time>
      </trkpt>
      <trkpt lat="45.75475" lon="4.82668">
        <ele>183</ele>
        <time>2016-09-13T07:19:43Z</time>
      </trkpt>
      <trkpt lat="45.7547" lon="4.82676">
        <ele>183</ele>
        <time>2016-09-13T07:19:48Z</time>
      </trkpt>
      <trkpt lat="45.75471" lon="4.827">
        <ele>180</ele>
        <time>2016-09-13T07:19:56Z</time>
      </trkpt>
      <trkpt lat="45.75466" lon="4.82718">
        <ele>181</ele>
        <time>2016-09-13T07:20:02Z</time>
      </trkpt>
      <trkpt lat="45.75451" lon="4.82744">
        <ele>175</ele>
        <time>2016-09-13T07:20:17Z</time>
      </trkpt>
      <trkpt lat="45.75444" lon="4.82753">
        <ele>175</ele>
        <time>2016-09-13T07:20:22Z</time>
      </trkpt>
      <trkpt lat="45.75442" lon="4.82757">
        <ele>174</ele>
        <time>2016-09-13T07:20:24Z</time>
      </trkpt>
      <trkpt lat="45.75435" lon="4.82779">
        <ele>174</ele>
        <time>2016-09-13T07:20:36Z</time>
      </trkpt>
      <trkpt lat="45.75434" lon="4.82781">
        <ele>175</ele>
        <time>2016-09-13T07:20:37Z</time>
      </trkpt>
      <trkpt lat="45.75424" lon="4.82801">
        <ele>166</ele>
        <time>2016-09-13T07:20:48Z</time>
      </trkpt>
      <trkpt lat="45.75424" lon="4.82802">
        <ele>166</ele>
        <time>2016-09-13T07:20:49Z</time>
      </trkpt>
      <trkpt lat="45.75417" lon="4.82815">
        <ele>167</ele>
        <time>2016-09-13T07:21:00Z</time>
      </trkpt>
      <trkpt lat="45.75418" lon="4.8282">
        <ele>166</ele>
        <time>2016-09-13T07:21:02Z</time>
      </trkpt>
    </trkseg>
  </trk>
</gpx>